<?xml version="1.0" encoding="UTF-8" standalone="no" ?>
<gpx xmlns="http://www.topografix.com/GPX/1/1" xmlns:xsi="http://www.w3.org/2001/XMLSchema-instance" xsi:schemaLocation="http://www.topografix.com/GPX/1/1 http://www.topografix.com/GPX/1/1/gpx.xsd" version="1.1" creator="VisuGPX - https://www.visugpx.com">
  <metadata>
    <name>Seillons beau parcours</name>
    <desc><![CDATA[parcours varié: de la piste, quelques singles, des montées un peu raides (mais pas trop longues), de belles descentes aussi. Un joli tour!!]]></desc>
  </metadata>
  <trk>
    <name><![CDATA[2021-11-28 08:53]]></name>
    <desc><![CDATA[<p>Heure de départ: 11/28/2021 08:55</p><p>Heure d'arrivée: 11/28/2021 11:55</p><p>Distance: 30,8 km (03:00)</p><p>Temps déplacement: 02:36</p><p>Vitesse moyenne: 10,26 km/h</p><p>Vitesse moyenne mouv.: 11,86 km/h</p><p>Vitesse Max.: 32,79km/h</p><p>Altitude minimale: 50 m</p><p>Altitude maximale: 551 m</p><p>Vitesse de montée: 736,8 m/h</p><p>Vitesse de descente: -915,7 m/h</p><p>Gain d'altitude: 1232 m</p><p>Perte d'altitude: -1006 m</p><p>Temps de montée: 01:40</p><p>Temps de descente: 01:05</p><hr align="center" width="480" style="height: 2px; width: 517px"/>]]></desc>
    <extensions>
      <line xmlns="http://www.topografix.com/GPX/gpx_style/0/2">
        <color>0000FF</color>
        <width>4</width>
      </line>
    </extensions>
    <trkseg>
      <trkpt lat="43.50373" lon="5.88704">
        <ele>230.45</ele>
        <time>2021-11-28T08:02:54Z</time>
      </trkpt>
      <trkpt lat="43.50378" lon="5.8868">
        <ele>237.11</ele>
        <time>2021-11-28T08:03:13Z</time>
      </trkpt>
      <trkpt lat="43.50383" lon="5.88654">
        <ele>240.95</ele>
        <time>2021-11-28T08:03:26Z</time>
      </trkpt>
      <trkpt lat="43.50397" lon="5.88637">
        <ele>245.4</ele>
        <time>2021-11-28T08:03:36Z</time>
      </trkpt>
      <trkpt lat="43.50415" lon="5.88625">
        <ele>248.65</ele>
        <time>2021-11-28T08:03:45Z</time>
      </trkpt>
      <trkpt lat="43.50434" lon="5.88614">
        <ele>252.11</ele>
        <time>2021-11-28T08:03:54Z</time>
      </trkpt>
      <trkpt lat="43.50452" lon="5.88605">
        <ele>253.86</ele>
        <time>2021-11-28T08:04:01Z</time>
      </trkpt>
      <trkpt lat="43.50469" lon="5.88593">
        <ele>254.33</ele>
        <time>2021-11-28T08:04:08Z</time>
      </trkpt>
      <trkpt lat="43.50486" lon="5.88582">
        <ele>256.3</ele>
        <time>2021-11-28T08:04:15Z</time>
      </trkpt>
      <trkpt lat="43.50502" lon="5.88571">
        <ele>256.55</ele>
        <time>2021-11-28T08:04:22Z</time>
      </trkpt>
      <trkpt lat="43.50516" lon="5.88554">
        <ele>258.57</ele>
        <time>2021-11-28T08:04:51Z</time>
      </trkpt>
      <trkpt lat="43.50531" lon="5.88538">
        <ele>254.79</ele>
        <time>2021-11-28T08:06:27Z</time>
      </trkpt>
      <trkpt lat="43.50545" lon="5.88519">
        <ele>254.49</ele>
        <time>2021-11-28T08:06:35Z</time>
      </trkpt>
      <trkpt lat="43.50559" lon="5.885">
        <ele>253.71</ele>
        <time>2021-11-28T08:06:42Z</time>
      </trkpt>
      <trkpt lat="43.50571" lon="5.88482">
        <ele>254.14</ele>
        <time>2021-11-28T08:06:49Z</time>
      </trkpt>
      <trkpt lat="43.50587" lon="5.88468">
        <ele>254.84</ele>
        <time>2021-11-28T08:06:57Z</time>
      </trkpt>
      <trkpt lat="43.50604" lon="5.88456">
        <ele>256.52</ele>
        <time>2021-11-28T08:07:05Z</time>
      </trkpt>
      <trkpt lat="43.50624" lon="5.88454">
        <ele>257.45</ele>
        <time>2021-11-28T08:07:13Z</time>
      </trkpt>
      <trkpt lat="43.50641" lon="5.88446">
        <ele>258.24</ele>
        <time>2021-11-28T08:07:21Z</time>
      </trkpt>
      <trkpt lat="43.5066" lon="5.88436">
        <ele>259.34</ele>
        <time>2021-11-28T08:07:31Z</time>
      </trkpt>
      <trkpt lat="43.50678" lon="5.88425">
        <ele>259.52</ele>
        <time>2021-11-28T08:07:39Z</time>
      </trkpt>
      <trkpt lat="43.50692" lon="5.88407">
        <ele>261.65</ele>
        <time>2021-11-28T08:07:48Z</time>
      </trkpt>
      <trkpt lat="43.50706" lon="5.88389">
        <ele>264.01</ele>
        <time>2021-11-28T08:07:56Z</time>
      </trkpt>
      <trkpt lat="43.50719" lon="5.88368">
        <ele>265.62</ele>
        <time>2021-11-28T08:08:04Z</time>
      </trkpt>
      <trkpt lat="43.50729" lon="5.88345">
        <ele>267.97</ele>
        <time>2021-11-28T08:08:12Z</time>
      </trkpt>
      <trkpt lat="43.50738" lon="5.88322">
        <ele>270.85</ele>
        <time>2021-11-28T08:08:20Z</time>
      </trkpt>
      <trkpt lat="43.50752" lon="5.88304">
        <ele>273.59</ele>
        <time>2021-11-28T08:08:27Z</time>
      </trkpt>
      <trkpt lat="43.50769" lon="5.8829">
        <ele>275.9</ele>
        <time>2021-11-28T08:08:35Z</time>
      </trkpt>
      <trkpt lat="43.50788" lon="5.8829">
        <ele>277.53</ele>
        <time>2021-11-28T08:08:41Z</time>
      </trkpt>
      <trkpt lat="43.50806" lon="5.88296">
        <ele>280.19</ele>
        <time>2021-11-28T08:08:48Z</time>
      </trkpt>
      <trkpt lat="43.50818" lon="5.88318">
        <ele>283.09</ele>
        <time>2021-11-28T08:08:57Z</time>
      </trkpt>
      <trkpt lat="43.50816" lon="5.88344">
        <ele>286.99</ele>
        <time>2021-11-28T08:09:06Z</time>
      </trkpt>
      <trkpt lat="43.5082" lon="5.8837">
        <ele>289.39</ele>
        <time>2021-11-28T08:09:14Z</time>
      </trkpt>
      <trkpt lat="43.50837" lon="5.88384">
        <ele>291.67</ele>
        <time>2021-11-28T08:09:23Z</time>
      </trkpt>
      <trkpt lat="43.50853" lon="5.88395">
        <ele>294.47</ele>
        <time>2021-11-28T08:09:32Z</time>
      </trkpt>
      <trkpt lat="43.5087" lon="5.88406">
        <ele>296.77</ele>
        <time>2021-11-28T08:09:41Z</time>
      </trkpt>
      <trkpt lat="43.50887" lon="5.88417">
        <ele>298.54</ele>
        <time>2021-11-28T08:09:49Z</time>
      </trkpt>
      <trkpt lat="43.50903" lon="5.88433">
        <ele>300.82</ele>
        <time>2021-11-28T08:09:58Z</time>
      </trkpt>
      <trkpt lat="43.50916" lon="5.88453">
        <ele>302.54</ele>
        <time>2021-11-28T08:10:07Z</time>
      </trkpt>
      <trkpt lat="43.50934" lon="5.88461">
        <ele>305.09</ele>
        <time>2021-11-28T08:10:16Z</time>
      </trkpt>
      <trkpt lat="43.50954" lon="5.88466">
        <ele>306.97</ele>
        <time>2021-11-28T08:10:24Z</time>
      </trkpt>
      <trkpt lat="43.50968" lon="5.88484">
        <ele>298.44</ele>
        <time>2021-11-28T08:10:33Z</time>
      </trkpt>
      <trkpt lat="43.50986" lon="5.8849">
        <ele>291.51</ele>
        <time>2021-11-28T08:10:40Z</time>
      </trkpt>
      <trkpt lat="43.51006" lon="5.88492">
        <ele>287.96</ele>
        <time>2021-11-28T08:10:48Z</time>
      </trkpt>
      <trkpt lat="43.51024" lon="5.88498">
        <ele>286.5</ele>
        <time>2021-11-28T08:10:56Z</time>
      </trkpt>
      <trkpt lat="43.51043" lon="5.88504">
        <ele>287.54</ele>
        <time>2021-11-28T08:11:04Z</time>
      </trkpt>
      <trkpt lat="43.51061" lon="5.88512">
        <ele>289.98</ele>
        <time>2021-11-28T08:11:13Z</time>
      </trkpt>
      <trkpt lat="43.51077" lon="5.88528">
        <ele>292.89</ele>
        <time>2021-11-28T08:11:22Z</time>
      </trkpt>
      <trkpt lat="43.51091" lon="5.88545">
        <ele>295.4</ele>
        <time>2021-11-28T08:11:31Z</time>
      </trkpt>
      <trkpt lat="43.51097" lon="5.8857">
        <ele>297.8</ele>
        <time>2021-11-28T08:11:40Z</time>
      </trkpt>
      <trkpt lat="43.51099" lon="5.88595">
        <ele>300.19</ele>
        <time>2021-11-28T08:11:49Z</time>
      </trkpt>
      <trkpt lat="43.51097" lon="5.8862">
        <ele>302.17</ele>
        <time>2021-11-28T08:11:57Z</time>
      </trkpt>
      <trkpt lat="43.51106" lon="5.88645">
        <ele>305.32</ele>
        <time>2021-11-28T08:12:08Z</time>
      </trkpt>
      <trkpt lat="43.51124" lon="5.8865">
        <ele>306.54</ele>
        <time>2021-11-28T08:12:16Z</time>
      </trkpt>
      <trkpt lat="43.51142" lon="5.88661">
        <ele>308.45</ele>
        <time>2021-11-28T08:12:25Z</time>
      </trkpt>
      <trkpt lat="43.51155" lon="5.88679">
        <ele>310.6</ele>
        <time>2021-11-28T08:12:35Z</time>
      </trkpt>
      <trkpt lat="43.51173" lon="5.88688">
        <ele>312.74</ele>
        <time>2021-11-28T08:12:45Z</time>
      </trkpt>
      <trkpt lat="43.51191" lon="5.88697">
        <ele>312.31</ele>
        <time>2021-11-28T08:12:54Z</time>
      </trkpt>
      <trkpt lat="43.51208" lon="5.88703">
        <ele>309.31</ele>
        <time>2021-11-28T08:13:03Z</time>
      </trkpt>
      <trkpt lat="43.51227" lon="5.88709">
        <ele>304.24</ele>
        <time>2021-11-28T08:13:13Z</time>
      </trkpt>
      <trkpt lat="43.51243" lon="5.88723">
        <ele>302.69</ele>
        <time>2021-11-28T08:13:23Z</time>
      </trkpt>
      <trkpt lat="43.51261" lon="5.88729">
        <ele>302.42</ele>
        <time>2021-11-28T08:13:33Z</time>
      </trkpt>
      <trkpt lat="43.51275" lon="5.88746">
        <ele>304.74</ele>
        <time>2021-11-28T08:13:45Z</time>
      </trkpt>
      <trkpt lat="43.51284" lon="5.88769">
        <ele>306.99</ele>
        <time>2021-11-28T08:13:57Z</time>
      </trkpt>
      <trkpt lat="43.51298" lon="5.8879">
        <ele>312.12</ele>
        <time>2021-11-28T08:14:09Z</time>
      </trkpt>
      <trkpt lat="43.51314" lon="5.88804">
        <ele>316.72</ele>
        <time>2021-11-28T08:14:20Z</time>
      </trkpt>
      <trkpt lat="43.51322" lon="5.88828">
        <ele>319.42</ele>
        <time>2021-11-28T08:14:33Z</time>
      </trkpt>
      <trkpt lat="43.51322" lon="5.88854">
        <ele>323.77</ele>
        <time>2021-11-28T08:14:47Z</time>
      </trkpt>
      <trkpt lat="43.51321" lon="5.8888">
        <ele>327.01</ele>
        <time>2021-11-28T08:15:00Z</time>
      </trkpt>
      <trkpt lat="43.51316" lon="5.88907">
        <ele>329.42</ele>
        <time>2021-11-28T08:15:11Z</time>
      </trkpt>
      <trkpt lat="43.51313" lon="5.88932">
        <ele>332.59</ele>
        <time>2021-11-28T08:15:23Z</time>
      </trkpt>
      <trkpt lat="43.51304" lon="5.88956">
        <ele>336.31</ele>
        <time>2021-11-28T08:15:36Z</time>
      </trkpt>
      <trkpt lat="43.51296" lon="5.88979">
        <ele>339.39</ele>
        <time>2021-11-28T08:15:48Z</time>
      </trkpt>
      <trkpt lat="43.51284" lon="5.88998">
        <ele>341.44</ele>
        <time>2021-11-28T08:15:59Z</time>
      </trkpt>
      <trkpt lat="43.51274" lon="5.89022">
        <ele>344.22</ele>
        <time>2021-11-28T08:16:12Z</time>
      </trkpt>
      <trkpt lat="43.51263" lon="5.89044">
        <ele>347.78</ele>
        <time>2021-11-28T08:16:22Z</time>
      </trkpt>
      <trkpt lat="43.51248" lon="5.89061">
        <ele>351.43</ele>
        <time>2021-11-28T08:16:35Z</time>
      </trkpt>
      <trkpt lat="43.51233" lon="5.89075">
        <ele>356.65</ele>
        <time>2021-11-28T08:16:50Z</time>
      </trkpt>
      <trkpt lat="43.51221" lon="5.89096">
        <ele>362.27</ele>
        <time>2021-11-28T08:17:04Z</time>
      </trkpt>
      <trkpt lat="43.51205" lon="5.89109">
        <ele>366.84</ele>
        <time>2021-11-28T08:17:15Z</time>
      </trkpt>
      <trkpt lat="43.51191" lon="5.89125">
        <ele>371.12</ele>
        <time>2021-11-28T08:17:24Z</time>
      </trkpt>
      <trkpt lat="43.51176" lon="5.89141">
        <ele>375.09</ele>
        <time>2021-11-28T08:17:36Z</time>
      </trkpt>
      <trkpt lat="43.51162" lon="5.89156">
        <ele>380.96</ele>
        <time>2021-11-28T08:17:49Z</time>
      </trkpt>
      <trkpt lat="43.51147" lon="5.89172">
        <ele>385.34</ele>
        <time>2021-11-28T08:17:58Z</time>
      </trkpt>
      <trkpt lat="43.51129" lon="5.8918">
        <ele>388.09</ele>
        <time>2021-11-28T08:18:09Z</time>
      </trkpt>
      <trkpt lat="43.51116" lon="5.89197">
        <ele>380.58</ele>
        <time>2021-11-28T08:18:27Z</time>
      </trkpt>
      <trkpt lat="43.51104" lon="5.89217">
        <ele>375.12</ele>
        <time>2021-11-28T08:18:38Z</time>
      </trkpt>
      <trkpt lat="43.51093" lon="5.89238">
        <ele>372.77</ele>
        <time>2021-11-28T08:18:47Z</time>
      </trkpt>
      <trkpt lat="43.51082" lon="5.89258">
        <ele>373.34</ele>
        <time>2021-11-28T08:18:58Z</time>
      </trkpt>
      <trkpt lat="43.51095" lon="5.89277">
        <ele>369.6</ele>
        <time>2021-11-28T08:19:16Z</time>
      </trkpt>
      <trkpt lat="43.51112" lon="5.89288">
        <ele>367.96</ele>
        <time>2021-11-28T08:19:26Z</time>
      </trkpt>
      <trkpt lat="43.51129" lon="5.89294">
        <ele>366.79</ele>
        <time>2021-11-28T08:19:34Z</time>
      </trkpt>
      <trkpt lat="43.51149" lon="5.89299">
        <ele>364.38</ele>
        <time>2021-11-28T08:19:42Z</time>
      </trkpt>
      <trkpt lat="43.51168" lon="5.89302">
        <ele>361.82</ele>
        <time>2021-11-28T08:19:50Z</time>
      </trkpt>
      <trkpt lat="43.51187" lon="5.89309">
        <ele>361.91</ele>
        <time>2021-11-28T08:19:58Z</time>
      </trkpt>
      <trkpt lat="43.51204" lon="5.89323">
        <ele>362.22</ele>
        <time>2021-11-28T08:20:08Z</time>
      </trkpt>
      <trkpt lat="43.51219" lon="5.89338">
        <ele>364.04</ele>
        <time>2021-11-28T08:20:19Z</time>
      </trkpt>
      <trkpt lat="43.51236" lon="5.89352">
        <ele>366.22</ele>
        <time>2021-11-28T08:20:29Z</time>
      </trkpt>
      <trkpt lat="43.51251" lon="5.89368">
        <ele>368.91</ele>
        <time>2021-11-28T08:20:39Z</time>
      </trkpt>
      <trkpt lat="43.51261" lon="5.89391">
        <ele>372.47</ele>
        <time>2021-11-28T08:20:49Z</time>
      </trkpt>
      <trkpt lat="43.51275" lon="5.8941">
        <ele>374.59</ele>
        <time>2021-11-28T08:20:58Z</time>
      </trkpt>
      <trkpt lat="43.51292" lon="5.89422">
        <ele>376.57</ele>
        <time>2021-11-28T08:21:07Z</time>
      </trkpt>
      <trkpt lat="43.51312" lon="5.89425">
        <ele>377.58</ele>
        <time>2021-11-28T08:21:15Z</time>
      </trkpt>
      <trkpt lat="43.51332" lon="5.89427">
        <ele>377.85</ele>
        <time>2021-11-28T08:21:21Z</time>
      </trkpt>
      <trkpt lat="43.5135" lon="5.89429">
        <ele>376.2</ele>
        <time>2021-11-28T08:21:26Z</time>
      </trkpt>
      <trkpt lat="43.5137" lon="5.89439">
        <ele>374.12</ele>
        <time>2021-11-28T08:21:31Z</time>
      </trkpt>
      <trkpt lat="43.5139" lon="5.89452">
        <ele>370.14</ele>
        <time>2021-11-28T08:21:36Z</time>
      </trkpt>
      <trkpt lat="43.51404" lon="5.89468">
        <ele>367.86</ele>
        <time>2021-11-28T08:21:40Z</time>
      </trkpt>
      <trkpt lat="43.5142" lon="5.89479">
        <ele>366.44</ele>
        <time>2021-11-28T08:21:44Z</time>
      </trkpt>
      <trkpt lat="43.51438" lon="5.89493">
        <ele>364.15</ele>
        <time>2021-11-28T08:21:50Z</time>
      </trkpt>
      <trkpt lat="43.51457" lon="5.895">
        <ele>360.7</ele>
        <time>2021-11-28T08:22:05Z</time>
      </trkpt>
      <trkpt lat="43.51477" lon="5.89508">
        <ele>359.18</ele>
        <time>2021-11-28T08:22:10Z</time>
      </trkpt>
      <trkpt lat="43.51495" lon="5.89517">
        <ele>358.87</ele>
        <time>2021-11-28T08:22:14Z</time>
      </trkpt>
      <trkpt lat="43.51513" lon="5.89525">
        <ele>358.63</ele>
        <time>2021-11-28T08:22:18Z</time>
      </trkpt>
      <trkpt lat="43.51534" lon="5.89532">
        <ele>358</ele>
        <time>2021-11-28T08:22:23Z</time>
      </trkpt>
      <trkpt lat="43.51549" lon="5.89545">
        <ele>357.68</ele>
        <time>2021-11-28T08:22:27Z</time>
      </trkpt>
      <trkpt lat="43.51565" lon="5.89564">
        <ele>358.2</ele>
        <time>2021-11-28T08:22:32Z</time>
      </trkpt>
      <trkpt lat="43.51578" lon="5.89587">
        <ele>359.02</ele>
        <time>2021-11-28T08:22:37Z</time>
      </trkpt>
      <trkpt lat="43.51581" lon="5.89612">
        <ele>357.44</ele>
        <time>2021-11-28T08:22:43Z</time>
      </trkpt>
      <trkpt lat="43.51592" lon="5.89635">
        <ele>354.75</ele>
        <time>2021-11-28T08:22:50Z</time>
      </trkpt>
      <trkpt lat="43.51612" lon="5.89641">
        <ele>353.14</ele>
        <time>2021-11-28T08:22:56Z</time>
      </trkpt>
      <trkpt lat="43.5163" lon="5.89648">
        <ele>350.97</ele>
        <time>2021-11-28T08:23:01Z</time>
      </trkpt>
      <trkpt lat="43.51648" lon="5.89653">
        <ele>349.65</ele>
        <time>2021-11-28T08:23:07Z</time>
      </trkpt>
      <trkpt lat="43.51666" lon="5.89661">
        <ele>349.78</ele>
        <time>2021-11-28T08:23:12Z</time>
      </trkpt>
      <trkpt lat="43.51686" lon="5.89666">
        <ele>349.33</ele>
        <time>2021-11-28T08:23:18Z</time>
      </trkpt>
      <trkpt lat="43.51707" lon="5.8967">
        <ele>350.5</ele>
        <time>2021-11-28T08:23:24Z</time>
      </trkpt>
      <trkpt lat="43.51728" lon="5.89677">
        <ele>348.01</ele>
        <time>2021-11-28T08:23:29Z</time>
      </trkpt>
      <trkpt lat="43.51748" lon="5.8969">
        <ele>347.01</ele>
        <time>2021-11-28T08:23:34Z</time>
      </trkpt>
      <trkpt lat="43.51769" lon="5.89698">
        <ele>346.84</ele>
        <time>2021-11-28T08:23:39Z</time>
      </trkpt>
      <trkpt lat="43.5179" lon="5.89697">
        <ele>347.04</ele>
        <time>2021-11-28T08:23:44Z</time>
      </trkpt>
      <trkpt lat="43.51813" lon="5.89698">
        <ele>346.66</ele>
        <time>2021-11-28T08:23:49Z</time>
      </trkpt>
      <trkpt lat="43.51832" lon="5.89698">
        <ele>346.21</ele>
        <time>2021-11-28T08:23:53Z</time>
      </trkpt>
      <trkpt lat="43.5185" lon="5.89696">
        <ele>345.6</ele>
        <time>2021-11-28T08:23:57Z</time>
      </trkpt>
      <trkpt lat="43.51872" lon="5.89693">
        <ele>342.66</ele>
        <time>2021-11-28T08:24:01Z</time>
      </trkpt>
      <trkpt lat="43.51892" lon="5.89691">
        <ele>342.14</ele>
        <time>2021-11-28T08:24:05Z</time>
      </trkpt>
      <trkpt lat="43.5191" lon="5.8969">
        <ele>342.63</ele>
        <time>2021-11-28T08:24:09Z</time>
      </trkpt>
      <trkpt lat="43.51928" lon="5.89686">
        <ele>343.09</ele>
        <time>2021-11-28T08:24:13Z</time>
      </trkpt>
      <trkpt lat="43.51947" lon="5.8968">
        <ele>343.83</ele>
        <time>2021-11-28T08:24:17Z</time>
      </trkpt>
      <trkpt lat="43.51964" lon="5.89673">
        <ele>344.74</ele>
        <time>2021-11-28T08:24:21Z</time>
      </trkpt>
      <trkpt lat="43.51982" lon="5.89664">
        <ele>345.06</ele>
        <time>2021-11-28T08:24:25Z</time>
      </trkpt>
      <trkpt lat="43.52002" lon="5.89656">
        <ele>345.54</ele>
        <time>2021-11-28T08:24:30Z</time>
      </trkpt>
      <trkpt lat="43.52023" lon="5.89649">
        <ele>345.07</ele>
        <time>2021-11-28T08:24:35Z</time>
      </trkpt>
      <trkpt lat="43.52044" lon="5.89645">
        <ele>346.11</ele>
        <time>2021-11-28T08:24:40Z</time>
      </trkpt>
      <trkpt lat="43.52063" lon="5.89638">
        <ele>345.86</ele>
        <time>2021-11-28T08:24:45Z</time>
      </trkpt>
      <trkpt lat="43.52081" lon="5.89628">
        <ele>345.99</ele>
        <time>2021-11-28T08:24:50Z</time>
      </trkpt>
      <trkpt lat="43.52099" lon="5.89619">
        <ele>345.77</ele>
        <time>2021-11-28T08:24:55Z</time>
      </trkpt>
      <trkpt lat="43.5212" lon="5.89612">
        <ele>345.75</ele>
        <time>2021-11-28T08:25:00Z</time>
      </trkpt>
      <trkpt lat="43.52139" lon="5.89603">
        <ele>345.73</ele>
        <time>2021-11-28T08:25:05Z</time>
      </trkpt>
      <trkpt lat="43.52156" lon="5.89596">
        <ele>344.65</ele>
        <time>2021-11-28T08:25:09Z</time>
      </trkpt>
      <trkpt lat="43.52177" lon="5.89587">
        <ele>344.17</ele>
        <time>2021-11-28T08:25:14Z</time>
      </trkpt>
      <trkpt lat="43.52197" lon="5.89579">
        <ele>343.5</ele>
        <time>2021-11-28T08:25:19Z</time>
      </trkpt>
      <trkpt lat="43.52216" lon="5.89568">
        <ele>343.12</ele>
        <time>2021-11-28T08:25:24Z</time>
      </trkpt>
      <trkpt lat="43.52237" lon="5.89558">
        <ele>342.71</ele>
        <time>2021-11-28T08:25:28Z</time>
      </trkpt>
      <trkpt lat="43.52259" lon="5.89552">
        <ele>342.14</ele>
        <time>2021-11-28T08:25:32Z</time>
      </trkpt>
      <trkpt lat="43.52278" lon="5.89548">
        <ele>342.63</ele>
        <time>2021-11-28T08:25:36Z</time>
      </trkpt>
      <trkpt lat="43.52298" lon="5.89546">
        <ele>343.65</ele>
        <time>2021-11-28T08:25:40Z</time>
      </trkpt>
      <trkpt lat="43.52316" lon="5.89542">
        <ele>344.6</ele>
        <time>2021-11-28T08:25:44Z</time>
      </trkpt>
      <trkpt lat="43.52335" lon="5.89542">
        <ele>344.59</ele>
        <time>2021-11-28T08:25:48Z</time>
      </trkpt>
      <trkpt lat="43.52354" lon="5.89541">
        <ele>342.58</ele>
        <time>2021-11-28T08:25:52Z</time>
      </trkpt>
      <trkpt lat="43.52374" lon="5.89542">
        <ele>340.23</ele>
        <time>2021-11-28T08:25:57Z</time>
      </trkpt>
      <trkpt lat="43.52394" lon="5.89541">
        <ele>338.14</ele>
        <time>2021-11-28T08:26:02Z</time>
      </trkpt>
      <trkpt lat="43.52413" lon="5.89543">
        <ele>339.43</ele>
        <time>2021-11-28T08:26:07Z</time>
      </trkpt>
      <trkpt lat="43.52435" lon="5.89543">
        <ele>337.12</ele>
        <time>2021-11-28T08:26:12Z</time>
      </trkpt>
      <trkpt lat="43.52454" lon="5.89547">
        <ele>337.59</ele>
        <time>2021-11-28T08:26:16Z</time>
      </trkpt>
      <trkpt lat="43.52475" lon="5.89547">
        <ele>336.88</ele>
        <time>2021-11-28T08:26:21Z</time>
      </trkpt>
      <trkpt lat="43.52496" lon="5.89545">
        <ele>336.26</ele>
        <time>2021-11-28T08:26:26Z</time>
      </trkpt>
      <trkpt lat="43.52517" lon="5.89543">
        <ele>335.88</ele>
        <time>2021-11-28T08:26:31Z</time>
      </trkpt>
      <trkpt lat="43.52538" lon="5.89543">
        <ele>336.29</ele>
        <time>2021-11-28T08:26:36Z</time>
      </trkpt>
      <trkpt lat="43.52558" lon="5.89541">
        <ele>335.76</ele>
        <time>2021-11-28T08:26:40Z</time>
      </trkpt>
      <trkpt lat="43.52578" lon="5.89541">
        <ele>335.59</ele>
        <time>2021-11-28T08:26:44Z</time>
      </trkpt>
      <trkpt lat="43.52599" lon="5.89547">
        <ele>337.71</ele>
        <time>2021-11-28T08:26:49Z</time>
      </trkpt>
      <trkpt lat="43.52618" lon="5.89551">
        <ele>341.06</ele>
        <time>2021-11-28T08:26:53Z</time>
      </trkpt>
      <trkpt lat="43.5264" lon="5.89551">
        <ele>342.16</ele>
        <time>2021-11-28T08:26:57Z</time>
      </trkpt>
      <trkpt lat="43.52662" lon="5.89551">
        <ele>343.02</ele>
        <time>2021-11-28T08:27:01Z</time>
      </trkpt>
      <trkpt lat="43.52683" lon="5.89551">
        <ele>343.07</ele>
        <time>2021-11-28T08:27:05Z</time>
      </trkpt>
      <trkpt lat="43.52705" lon="5.89551">
        <ele>343.8</ele>
        <time>2021-11-28T08:27:09Z</time>
      </trkpt>
      <trkpt lat="43.52726" lon="5.89549">
        <ele>346.12</ele>
        <time>2021-11-28T08:27:13Z</time>
      </trkpt>
      <trkpt lat="43.52746" lon="5.8955">
        <ele>346.46</ele>
        <time>2021-11-28T08:27:17Z</time>
      </trkpt>
      <trkpt lat="43.52765" lon="5.89557">
        <ele>345.82</ele>
        <time>2021-11-28T08:27:21Z</time>
      </trkpt>
      <trkpt lat="43.52783" lon="5.89552">
        <ele>345.47</ele>
        <time>2021-11-28T08:27:25Z</time>
      </trkpt>
      <trkpt lat="43.52804" lon="5.89547">
        <ele>343.44</ele>
        <time>2021-11-28T08:27:29Z</time>
      </trkpt>
      <trkpt lat="43.52823" lon="5.89543">
        <ele>341.03</ele>
        <time>2021-11-28T08:27:32Z</time>
      </trkpt>
      <trkpt lat="43.52842" lon="5.89533">
        <ele>340.41</ele>
        <time>2021-11-28T08:27:36Z</time>
      </trkpt>
      <trkpt lat="43.52862" lon="5.89523">
        <ele>339.75</ele>
        <time>2021-11-28T08:27:41Z</time>
      </trkpt>
      <trkpt lat="43.52882" lon="5.89516">
        <ele>339.32</ele>
        <time>2021-11-28T08:27:46Z</time>
      </trkpt>
      <trkpt lat="43.52902" lon="5.89511">
        <ele>339.41</ele>
        <time>2021-11-28T08:27:51Z</time>
      </trkpt>
      <trkpt lat="43.52922" lon="5.89503">
        <ele>339.58</ele>
        <time>2021-11-28T08:27:56Z</time>
      </trkpt>
      <trkpt lat="43.52939" lon="5.89494">
        <ele>340.15</ele>
        <time>2021-11-28T08:28:01Z</time>
      </trkpt>
      <trkpt lat="43.52957" lon="5.89485">
        <ele>342.23</ele>
        <time>2021-11-28T08:28:07Z</time>
      </trkpt>
      <trkpt lat="43.52977" lon="5.89475">
        <ele>343.12</ele>
        <time>2021-11-28T08:28:13Z</time>
      </trkpt>
      <trkpt lat="43.52998" lon="5.89465">
        <ele>342.97</ele>
        <time>2021-11-28T08:28:19Z</time>
      </trkpt>
      <trkpt lat="43.53016" lon="5.89456">
        <ele>343.22</ele>
        <time>2021-11-28T08:28:25Z</time>
      </trkpt>
      <trkpt lat="43.53035" lon="5.89447">
        <ele>344.59</ele>
        <time>2021-11-28T08:28:31Z</time>
      </trkpt>
      <trkpt lat="43.5305" lon="5.89434">
        <ele>344.76</ele>
        <time>2021-11-28T08:28:36Z</time>
      </trkpt>
      <trkpt lat="43.53066" lon="5.8942">
        <ele>342.92</ele>
        <time>2021-11-28T08:28:41Z</time>
      </trkpt>
      <trkpt lat="43.53083" lon="5.89404">
        <ele>343.96</ele>
        <time>2021-11-28T08:28:47Z</time>
      </trkpt>
      <trkpt lat="43.53097" lon="5.89389">
        <ele>344.63</ele>
        <time>2021-11-28T08:28:53Z</time>
      </trkpt>
      <trkpt lat="43.53111" lon="5.89373">
        <ele>345.4</ele>
        <time>2021-11-28T08:28:59Z</time>
      </trkpt>
      <trkpt lat="43.53127" lon="5.89359">
        <ele>346.64</ele>
        <time>2021-11-28T08:29:10Z</time>
      </trkpt>
      <trkpt lat="43.53143" lon="5.89345">
        <ele>349.19</ele>
        <time>2021-11-28T08:29:20Z</time>
      </trkpt>
      <trkpt lat="43.53161" lon="5.89333">
        <ele>350.23</ele>
        <time>2021-11-28T08:29:29Z</time>
      </trkpt>
      <trkpt lat="43.53179" lon="5.89323">
        <ele>350.74</ele>
        <time>2021-11-28T08:29:38Z</time>
      </trkpt>
      <trkpt lat="43.53197" lon="5.89314">
        <ele>350.87</ele>
        <time>2021-11-28T08:29:46Z</time>
      </trkpt>
      <trkpt lat="43.53213" lon="5.89301">
        <ele>350.65</ele>
        <time>2021-11-28T08:29:53Z</time>
      </trkpt>
      <trkpt lat="43.5323" lon="5.8929">
        <ele>349.87</ele>
        <time>2021-11-28T08:30:00Z</time>
      </trkpt>
      <trkpt lat="43.53248" lon="5.89277">
        <ele>351.37</ele>
        <time>2021-11-28T08:30:08Z</time>
      </trkpt>
      <trkpt lat="43.53265" lon="5.89263">
        <ele>352.64</ele>
        <time>2021-11-28T08:30:16Z</time>
      </trkpt>
      <trkpt lat="43.53282" lon="5.89248">
        <ele>353.42</ele>
        <time>2021-11-28T08:30:24Z</time>
      </trkpt>
      <trkpt lat="43.53297" lon="5.89235">
        <ele>353.68</ele>
        <time>2021-11-28T08:30:31Z</time>
      </trkpt>
      <trkpt lat="43.53315" lon="5.89221">
        <ele>353.11</ele>
        <time>2021-11-28T08:30:39Z</time>
      </trkpt>
      <trkpt lat="43.53331" lon="5.89208">
        <ele>354.72</ele>
        <time>2021-11-28T08:30:47Z</time>
      </trkpt>
      <trkpt lat="43.53347" lon="5.89196">
        <ele>356.04</ele>
        <time>2021-11-28T08:30:55Z</time>
      </trkpt>
      <trkpt lat="43.53362" lon="5.89182">
        <ele>357.31</ele>
        <time>2021-11-28T08:31:03Z</time>
      </trkpt>
      <trkpt lat="43.53379" lon="5.89169">
        <ele>360.99</ele>
        <time>2021-11-28T08:31:11Z</time>
      </trkpt>
      <trkpt lat="43.53395" lon="5.89155">
        <ele>365.97</ele>
        <time>2021-11-28T08:31:20Z</time>
      </trkpt>
      <trkpt lat="43.5341" lon="5.8914">
        <ele>368.59</ele>
        <time>2021-11-28T08:31:27Z</time>
      </trkpt>
      <trkpt lat="43.53425" lon="5.89125">
        <ele>371.22</ele>
        <time>2021-11-28T08:31:35Z</time>
      </trkpt>
      <trkpt lat="43.53439" lon="5.89108">
        <ele>374.54</ele>
        <time>2021-11-28T08:31:43Z</time>
      </trkpt>
      <trkpt lat="43.53449" lon="5.89087">
        <ele>376.49</ele>
        <time>2021-11-28T08:31:51Z</time>
      </trkpt>
      <trkpt lat="43.53448" lon="5.89059">
        <ele>377.11</ele>
        <time>2021-11-28T08:32:00Z</time>
      </trkpt>
      <trkpt lat="43.53442" lon="5.89033">
        <ele>378.32</ele>
        <time>2021-11-28T08:32:08Z</time>
      </trkpt>
      <trkpt lat="43.53442" lon="5.89008">
        <ele>362.32</ele>
        <time>2021-11-28T08:32:21Z</time>
      </trkpt>
      <trkpt lat="43.53425" lon="5.88997">
        <ele>358.95</ele>
        <time>2021-11-28T08:32:39Z</time>
      </trkpt>
      <trkpt lat="43.53408" lon="5.88985">
        <ele>358.88</ele>
        <time>2021-11-28T08:32:47Z</time>
      </trkpt>
      <trkpt lat="43.53394" lon="5.88969">
        <ele>359.64</ele>
        <time>2021-11-28T08:32:55Z</time>
      </trkpt>
      <trkpt lat="43.53379" lon="5.88952">
        <ele>359.76</ele>
        <time>2021-11-28T08:33:02Z</time>
      </trkpt>
      <trkpt lat="43.53361" lon="5.88938">
        <ele>360.79</ele>
        <time>2021-11-28T08:33:06Z</time>
      </trkpt>
      <trkpt lat="43.53346" lon="5.88921">
        <ele>362.85</ele>
        <time>2021-11-28T08:33:12Z</time>
      </trkpt>
      <trkpt lat="43.53334" lon="5.88899">
        <ele>364.77</ele>
        <time>2021-11-28T08:33:19Z</time>
      </trkpt>
      <trkpt lat="43.53323" lon="5.88877">
        <ele>363.5</ele>
        <time>2021-11-28T08:33:27Z</time>
      </trkpt>
      <trkpt lat="43.53311" lon="5.88855">
        <ele>364.4</ele>
        <time>2021-11-28T08:33:35Z</time>
      </trkpt>
      <trkpt lat="43.53297" lon="5.88839">
        <ele>360.24</ele>
        <time>2021-11-28T08:33:43Z</time>
      </trkpt>
      <trkpt lat="43.53281" lon="5.88821">
        <ele>356.07</ele>
        <time>2021-11-28T08:33:51Z</time>
      </trkpt>
      <trkpt lat="43.53266" lon="5.88806">
        <ele>356.52</ele>
        <time>2021-11-28T08:33:59Z</time>
      </trkpt>
      <trkpt lat="43.53251" lon="5.88791">
        <ele>357.74</ele>
        <time>2021-11-28T08:34:05Z</time>
      </trkpt>
      <trkpt lat="43.53246" lon="5.88766">
        <ele>358.81</ele>
        <time>2021-11-28T08:34:11Z</time>
      </trkpt>
      <trkpt lat="43.53261" lon="5.88751">
        <ele>358.55</ele>
        <time>2021-11-28T08:34:17Z</time>
      </trkpt>
      <trkpt lat="43.53272" lon="5.88731">
        <ele>358.19</ele>
        <time>2021-11-28T08:34:22Z</time>
      </trkpt>
      <trkpt lat="43.53274" lon="5.88706">
        <ele>358.58</ele>
        <time>2021-11-28T08:34:27Z</time>
      </trkpt>
      <trkpt lat="43.53285" lon="5.8868">
        <ele>358.47</ele>
        <time>2021-11-28T08:34:32Z</time>
      </trkpt>
      <trkpt lat="43.53306" lon="5.88675">
        <ele>359.27</ele>
        <time>2021-11-28T08:34:38Z</time>
      </trkpt>
      <trkpt lat="43.53323" lon="5.88686">
        <ele>359.4</ele>
        <time>2021-11-28T08:34:43Z</time>
      </trkpt>
      <trkpt lat="43.53342" lon="5.88696">
        <ele>358.98</ele>
        <time>2021-11-28T08:34:49Z</time>
      </trkpt>
      <trkpt lat="43.53362" lon="5.88703">
        <ele>359.54</ele>
        <time>2021-11-28T08:34:56Z</time>
      </trkpt>
      <trkpt lat="43.53381" lon="5.88712">
        <ele>360.03</ele>
        <time>2021-11-28T08:35:03Z</time>
      </trkpt>
      <trkpt lat="43.53399" lon="5.88722">
        <ele>361.41</ele>
        <time>2021-11-28T08:35:11Z</time>
      </trkpt>
      <trkpt lat="43.53417" lon="5.88729">
        <ele>361.16</ele>
        <time>2021-11-28T08:35:18Z</time>
      </trkpt>
      <trkpt lat="43.53436" lon="5.88734">
        <ele>359.91</ele>
        <time>2021-11-28T08:35:25Z</time>
      </trkpt>
      <trkpt lat="43.53456" lon="5.88733">
        <ele>359.39</ele>
        <time>2021-11-28T08:35:33Z</time>
      </trkpt>
      <trkpt lat="43.53474" lon="5.88731">
        <ele>357.68</ele>
        <time>2021-11-28T08:35:41Z</time>
      </trkpt>
      <trkpt lat="43.53493" lon="5.88722">
        <ele>356.7</ele>
        <time>2021-11-28T08:35:48Z</time>
      </trkpt>
      <trkpt lat="43.5351" lon="5.88707">
        <ele>355.75</ele>
        <time>2021-11-28T08:35:54Z</time>
      </trkpt>
      <trkpt lat="43.53527" lon="5.88686">
        <ele>355.39</ele>
        <time>2021-11-28T08:35:59Z</time>
      </trkpt>
      <trkpt lat="43.53542" lon="5.88667">
        <ele>355.77</ele>
        <time>2021-11-28T08:36:04Z</time>
      </trkpt>
      <trkpt lat="43.53553" lon="5.88643">
        <ele>356.34</ele>
        <time>2021-11-28T08:36:10Z</time>
      </trkpt>
      <trkpt lat="43.53573" lon="5.88637">
        <ele>357.26</ele>
        <time>2021-11-28T08:36:16Z</time>
      </trkpt>
      <trkpt lat="43.53591" lon="5.8863">
        <ele>358.08</ele>
        <time>2021-11-28T08:36:21Z</time>
      </trkpt>
      <trkpt lat="43.53611" lon="5.88624">
        <ele>360.12</ele>
        <time>2021-11-28T08:36:27Z</time>
      </trkpt>
      <trkpt lat="43.53629" lon="5.88614">
        <ele>363.1</ele>
        <time>2021-11-28T08:36:33Z</time>
      </trkpt>
      <trkpt lat="43.53645" lon="5.88598">
        <ele>366.26</ele>
        <time>2021-11-28T08:36:40Z</time>
      </trkpt>
      <trkpt lat="43.53662" lon="5.88588">
        <ele>368.83</ele>
        <time>2021-11-28T08:36:48Z</time>
      </trkpt>
      <trkpt lat="43.53678" lon="5.88573">
        <ele>370.13</ele>
        <time>2021-11-28T08:36:57Z</time>
      </trkpt>
      <trkpt lat="43.53694" lon="5.88555">
        <ele>371.74</ele>
        <time>2021-11-28T08:37:03Z</time>
      </trkpt>
      <trkpt lat="43.53707" lon="5.88536">
        <ele>372.23</ele>
        <time>2021-11-28T08:37:09Z</time>
      </trkpt>
      <trkpt lat="43.53721" lon="5.88519">
        <ele>376.21</ele>
        <time>2021-11-28T08:37:17Z</time>
      </trkpt>
      <trkpt lat="43.53731" lon="5.88496">
        <ele>378.47</ele>
        <time>2021-11-28T08:37:26Z</time>
      </trkpt>
      <trkpt lat="43.53737" lon="5.88472">
        <ele>381.16</ele>
        <time>2021-11-28T08:37:34Z</time>
      </trkpt>
      <trkpt lat="43.53748" lon="5.88452">
        <ele>380.85</ele>
        <time>2021-11-28T08:37:40Z</time>
      </trkpt>
      <trkpt lat="43.53766" lon="5.88444">
        <ele>382.12</ele>
        <time>2021-11-28T08:37:46Z</time>
      </trkpt>
      <trkpt lat="43.53783" lon="5.88435">
        <ele>383.38</ele>
        <time>2021-11-28T08:37:53Z</time>
      </trkpt>
      <trkpt lat="43.53802" lon="5.88432">
        <ele>384.89</ele>
        <time>2021-11-28T08:38:04Z</time>
      </trkpt>
      <trkpt lat="43.5382" lon="5.88437">
        <ele>384.5</ele>
        <time>2021-11-28T08:38:12Z</time>
      </trkpt>
      <trkpt lat="43.53841" lon="5.8844">
        <ele>383.41</ele>
        <time>2021-11-28T08:38:21Z</time>
      </trkpt>
      <trkpt lat="43.53859" lon="5.88435">
        <ele>378.27</ele>
        <time>2021-11-28T08:38:29Z</time>
      </trkpt>
      <trkpt lat="43.53878" lon="5.88435">
        <ele>380.67</ele>
        <time>2021-11-28T08:38:41Z</time>
      </trkpt>
      <trkpt lat="43.53896" lon="5.88436">
        <ele>381.51</ele>
        <time>2021-11-28T08:38:51Z</time>
      </trkpt>
      <trkpt lat="43.53915" lon="5.88437">
        <ele>383.44</ele>
        <time>2021-11-28T08:38:59Z</time>
      </trkpt>
      <trkpt lat="43.53935" lon="5.8844">
        <ele>381.74</ele>
        <time>2021-11-28T08:39:06Z</time>
      </trkpt>
      <trkpt lat="43.5395" lon="5.88452">
        <ele>384.64</ele>
        <time>2021-11-28T08:39:15Z</time>
      </trkpt>
      <trkpt lat="43.53969" lon="5.88457">
        <ele>382.79</ele>
        <time>2021-11-28T08:39:22Z</time>
      </trkpt>
      <trkpt lat="43.53988" lon="5.88457">
        <ele>379.44</ele>
        <time>2021-11-28T08:39:31Z</time>
      </trkpt>
      <trkpt lat="43.54007" lon="5.88452">
        <ele>380.4</ele>
        <time>2021-11-28T08:39:41Z</time>
      </trkpt>
      <trkpt lat="43.54025" lon="5.88442">
        <ele>383.4</ele>
        <time>2021-11-28T08:39:51Z</time>
      </trkpt>
      <trkpt lat="43.54043" lon="5.88437">
        <ele>386.54</ele>
        <time>2021-11-28T08:39:59Z</time>
      </trkpt>
      <trkpt lat="43.54061" lon="5.88429">
        <ele>388.95</ele>
        <time>2021-11-28T08:40:08Z</time>
      </trkpt>
      <trkpt lat="43.54079" lon="5.88419">
        <ele>392.1</ele>
        <time>2021-11-28T08:40:14Z</time>
      </trkpt>
      <trkpt lat="43.54095" lon="5.88403">
        <ele>394.17</ele>
        <time>2021-11-28T08:40:20Z</time>
      </trkpt>
      <trkpt lat="43.54112" lon="5.88386">
        <ele>396.01</ele>
        <time>2021-11-28T08:40:27Z</time>
      </trkpt>
      <trkpt lat="43.54129" lon="5.88373">
        <ele>398.28</ele>
        <time>2021-11-28T08:40:34Z</time>
      </trkpt>
      <trkpt lat="43.54146" lon="5.8836">
        <ele>400.84</ele>
        <time>2021-11-28T08:40:40Z</time>
      </trkpt>
      <trkpt lat="43.54163" lon="5.88347">
        <ele>402.53</ele>
        <time>2021-11-28T08:40:47Z</time>
      </trkpt>
      <trkpt lat="43.5418" lon="5.88338">
        <ele>397.11</ele>
        <time>2021-11-28T08:40:52Z</time>
      </trkpt>
      <trkpt lat="43.54198" lon="5.88334">
        <ele>394.81</ele>
        <time>2021-11-28T08:41:00Z</time>
      </trkpt>
      <trkpt lat="43.54216" lon="5.88331">
        <ele>395.64</ele>
        <time>2021-11-28T08:41:09Z</time>
      </trkpt>
      <trkpt lat="43.54234" lon="5.88325">
        <ele>397.33</ele>
        <time>2021-11-28T08:41:18Z</time>
      </trkpt>
      <trkpt lat="43.54252" lon="5.88315">
        <ele>400.17</ele>
        <time>2021-11-28T08:41:27Z</time>
      </trkpt>
      <trkpt lat="43.54269" lon="5.88301">
        <ele>402.29</ele>
        <time>2021-11-28T08:41:35Z</time>
      </trkpt>
      <trkpt lat="43.54285" lon="5.88286">
        <ele>404.32</ele>
        <time>2021-11-28T08:41:43Z</time>
      </trkpt>
      <trkpt lat="43.54302" lon="5.88275">
        <ele>405.28</ele>
        <time>2021-11-28T08:41:50Z</time>
      </trkpt>
      <trkpt lat="43.5432" lon="5.88265">
        <ele>404.22</ele>
        <time>2021-11-28T08:41:56Z</time>
      </trkpt>
      <trkpt lat="43.54338" lon="5.88251">
        <ele>402.91</ele>
        <time>2021-11-28T08:42:03Z</time>
      </trkpt>
      <trkpt lat="43.54357" lon="5.8824">
        <ele>400.92</ele>
        <time>2021-11-28T08:42:17Z</time>
      </trkpt>
      <trkpt lat="43.54372" lon="5.88228">
        <ele>400.17</ele>
        <time>2021-11-28T08:42:24Z</time>
      </trkpt>
      <trkpt lat="43.54389" lon="5.88212">
        <ele>400.45</ele>
        <time>2021-11-28T08:42:32Z</time>
      </trkpt>
      <trkpt lat="43.54404" lon="5.88197">
        <ele>400.17</ele>
        <time>2021-11-28T08:42:41Z</time>
      </trkpt>
      <trkpt lat="43.54421" lon="5.88186">
        <ele>400</ele>
        <time>2021-11-28T08:42:50Z</time>
      </trkpt>
      <trkpt lat="43.5444" lon="5.88178">
        <ele>401.25</ele>
        <time>2021-11-28T08:42:58Z</time>
      </trkpt>
      <trkpt lat="43.54443" lon="5.88151">
        <ele>401.53</ele>
        <time>2021-11-28T08:43:07Z</time>
      </trkpt>
      <trkpt lat="43.54453" lon="5.88128">
        <ele>400.67</ele>
        <time>2021-11-28T08:43:16Z</time>
      </trkpt>
      <trkpt lat="43.54468" lon="5.88109">
        <ele>401.26</ele>
        <time>2021-11-28T08:43:25Z</time>
      </trkpt>
      <trkpt lat="43.54481" lon="5.88092">
        <ele>402.22</ele>
        <time>2021-11-28T08:43:34Z</time>
      </trkpt>
      <trkpt lat="43.54493" lon="5.8807">
        <ele>402.67</ele>
        <time>2021-11-28T08:43:43Z</time>
      </trkpt>
      <trkpt lat="43.54505" lon="5.88051">
        <ele>403.8</ele>
        <time>2021-11-28T08:43:49Z</time>
      </trkpt>
      <trkpt lat="43.54519" lon="5.88031">
        <ele>404.37</ele>
        <time>2021-11-28T08:43:56Z</time>
      </trkpt>
      <trkpt lat="43.5453" lon="5.88007">
        <ele>402.9</ele>
        <time>2021-11-28T08:44:02Z</time>
      </trkpt>
      <trkpt lat="43.54544" lon="5.87988">
        <ele>400.45</ele>
        <time>2021-11-28T08:44:07Z</time>
      </trkpt>
      <trkpt lat="43.54561" lon="5.87979">
        <ele>394.71</ele>
        <time>2021-11-28T08:44:27Z</time>
      </trkpt>
      <trkpt lat="43.54577" lon="5.87968">
        <ele>392.75</ele>
        <time>2021-11-28T08:44:42Z</time>
      </trkpt>
      <trkpt lat="43.54594" lon="5.87957">
        <ele>394.16</ele>
        <time>2021-11-28T08:44:52Z</time>
      </trkpt>
      <trkpt lat="43.54609" lon="5.87941">
        <ele>395.72</ele>
        <time>2021-11-28T08:45:01Z</time>
      </trkpt>
      <trkpt lat="43.54625" lon="5.87926">
        <ele>398.15</ele>
        <time>2021-11-28T08:45:10Z</time>
      </trkpt>
      <trkpt lat="43.54638" lon="5.87907">
        <ele>399.87</ele>
        <time>2021-11-28T08:45:18Z</time>
      </trkpt>
      <trkpt lat="43.5465" lon="5.87887">
        <ele>400.51</ele>
        <time>2021-11-28T08:45:26Z</time>
      </trkpt>
      <trkpt lat="43.54665" lon="5.87867">
        <ele>403.54</ele>
        <time>2021-11-28T08:45:34Z</time>
      </trkpt>
      <trkpt lat="43.54678" lon="5.87844">
        <ele>404.83</ele>
        <time>2021-11-28T08:45:41Z</time>
      </trkpt>
      <trkpt lat="43.54692" lon="5.87827">
        <ele>404.6</ele>
        <time>2021-11-28T08:45:46Z</time>
      </trkpt>
      <trkpt lat="43.54702" lon="5.87799">
        <ele>403.81</ele>
        <time>2021-11-28T08:45:51Z</time>
      </trkpt>
      <trkpt lat="43.54704" lon="5.87774">
        <ele>403.83</ele>
        <time>2021-11-28T08:45:55Z</time>
      </trkpt>
      <trkpt lat="43.54713" lon="5.87747">
        <ele>403.6</ele>
        <time>2021-11-28T08:46:00Z</time>
      </trkpt>
      <trkpt lat="43.54722" lon="5.87725">
        <ele>403.75</ele>
        <time>2021-11-28T08:46:04Z</time>
      </trkpt>
      <trkpt lat="43.54733" lon="5.87701">
        <ele>401.26</ele>
        <time>2021-11-28T08:46:17Z</time>
      </trkpt>
      <trkpt lat="43.54751" lon="5.87688">
        <ele>399.24</ele>
        <time>2021-11-28T08:46:23Z</time>
      </trkpt>
      <trkpt lat="43.54769" lon="5.87677">
        <ele>398.06</ele>
        <time>2021-11-28T08:46:30Z</time>
      </trkpt>
      <trkpt lat="43.54786" lon="5.87663">
        <ele>398.37</ele>
        <time>2021-11-28T08:46:41Z</time>
      </trkpt>
      <trkpt lat="43.54806" lon="5.87658">
        <ele>398.3</ele>
        <time>2021-11-28T08:46:51Z</time>
      </trkpt>
      <trkpt lat="43.54824" lon="5.87661">
        <ele>397.71</ele>
        <time>2021-11-28T08:46:56Z</time>
      </trkpt>
      <trkpt lat="43.54843" lon="5.87668">
        <ele>397.33</ele>
        <time>2021-11-28T08:47:01Z</time>
      </trkpt>
      <trkpt lat="43.54861" lon="5.87675">
        <ele>397.77</ele>
        <time>2021-11-28T08:47:06Z</time>
      </trkpt>
      <trkpt lat="43.54879" lon="5.87674">
        <ele>399.28</ele>
        <time>2021-11-28T08:47:12Z</time>
      </trkpt>
      <trkpt lat="43.549" lon="5.8767">
        <ele>400.77</ele>
        <time>2021-11-28T08:47:19Z</time>
      </trkpt>
      <trkpt lat="43.5492" lon="5.87669">
        <ele>400.74</ele>
        <time>2021-11-28T08:47:26Z</time>
      </trkpt>
      <trkpt lat="43.54939" lon="5.87667">
        <ele>401.84</ele>
        <time>2021-11-28T08:47:34Z</time>
      </trkpt>
      <trkpt lat="43.54958" lon="5.8766">
        <ele>402.66</ele>
        <time>2021-11-28T08:47:41Z</time>
      </trkpt>
      <trkpt lat="43.54976" lon="5.87656">
        <ele>402.8</ele>
        <time>2021-11-28T08:47:47Z</time>
      </trkpt>
      <trkpt lat="43.54994" lon="5.87652">
        <ele>404.38</ele>
        <time>2021-11-28T08:47:54Z</time>
      </trkpt>
      <trkpt lat="43.55013" lon="5.87641">
        <ele>402.98</ele>
        <time>2021-11-28T08:48:01Z</time>
      </trkpt>
      <trkpt lat="43.55033" lon="5.87633">
        <ele>402.75</ele>
        <time>2021-11-28T08:48:08Z</time>
      </trkpt>
      <trkpt lat="43.5505" lon="5.87618">
        <ele>402.55</ele>
        <time>2021-11-28T08:48:14Z</time>
      </trkpt>
      <trkpt lat="43.55064" lon="5.87602">
        <ele>403.42</ele>
        <time>2021-11-28T08:48:19Z</time>
      </trkpt>
      <trkpt lat="43.5508" lon="5.87585">
        <ele>404.34</ele>
        <time>2021-11-28T08:48:24Z</time>
      </trkpt>
      <trkpt lat="43.55093" lon="5.87568">
        <ele>404.55</ele>
        <time>2021-11-28T08:48:28Z</time>
      </trkpt>
      <trkpt lat="43.55108" lon="5.87552">
        <ele>403.78</ele>
        <time>2021-11-28T08:48:32Z</time>
      </trkpt>
      <trkpt lat="43.55123" lon="5.87536">
        <ele>402.54</ele>
        <time>2021-11-28T08:48:36Z</time>
      </trkpt>
      <trkpt lat="43.55138" lon="5.87519">
        <ele>401.16</ele>
        <time>2021-11-28T08:48:40Z</time>
      </trkpt>
      <trkpt lat="43.55153" lon="5.87499">
        <ele>397.72</ele>
        <time>2021-11-28T08:48:44Z</time>
      </trkpt>
      <trkpt lat="43.55169" lon="5.87479">
        <ele>395.25</ele>
        <time>2021-11-28T08:48:48Z</time>
      </trkpt>
      <trkpt lat="43.55185" lon="5.87458">
        <ele>392.71</ele>
        <time>2021-11-28T08:48:52Z</time>
      </trkpt>
      <trkpt lat="43.552" lon="5.87442">
        <ele>389.87</ele>
        <time>2021-11-28T08:48:55Z</time>
      </trkpt>
      <trkpt lat="43.55215" lon="5.87427">
        <ele>386.45</ele>
        <time>2021-11-28T08:48:58Z</time>
      </trkpt>
      <trkpt lat="43.55234" lon="5.87411">
        <ele>383.37</ele>
        <time>2021-11-28T08:49:02Z</time>
      </trkpt>
      <trkpt lat="43.55252" lon="5.87396">
        <ele>379.4</ele>
        <time>2021-11-28T08:49:06Z</time>
      </trkpt>
      <trkpt lat="43.55271" lon="5.87384">
        <ele>375.42</ele>
        <time>2021-11-28T08:49:11Z</time>
      </trkpt>
      <trkpt lat="43.55289" lon="5.8738">
        <ele>372.06</ele>
        <time>2021-11-28T08:49:21Z</time>
      </trkpt>
      <trkpt lat="43.55306" lon="5.87395">
        <ele>371.39</ele>
        <time>2021-11-28T08:49:28Z</time>
      </trkpt>
      <trkpt lat="43.55325" lon="5.87407">
        <ele>371.35</ele>
        <time>2021-11-28T08:49:33Z</time>
      </trkpt>
      <trkpt lat="43.55345" lon="5.87415">
        <ele>371.17</ele>
        <time>2021-11-28T08:49:38Z</time>
      </trkpt>
      <trkpt lat="43.55367" lon="5.87423">
        <ele>371.1</ele>
        <time>2021-11-28T08:49:43Z</time>
      </trkpt>
      <trkpt lat="43.55388" lon="5.8743">
        <ele>371.36</ele>
        <time>2021-11-28T08:49:48Z</time>
      </trkpt>
      <trkpt lat="43.55409" lon="5.87437">
        <ele>372.32</ele>
        <time>2021-11-28T08:49:53Z</time>
      </trkpt>
      <trkpt lat="43.55429" lon="5.87438">
        <ele>372.92</ele>
        <time>2021-11-28T08:49:58Z</time>
      </trkpt>
      <trkpt lat="43.55447" lon="5.87454">
        <ele>373.14</ele>
        <time>2021-11-28T08:50:03Z</time>
      </trkpt>
      <trkpt lat="43.55467" lon="5.87466">
        <ele>372.7</ele>
        <time>2021-11-28T08:50:08Z</time>
      </trkpt>
      <trkpt lat="43.55486" lon="5.87475">
        <ele>372.21</ele>
        <time>2021-11-28T08:50:12Z</time>
      </trkpt>
      <trkpt lat="43.55502" lon="5.87494">
        <ele>371.12</ele>
        <time>2021-11-28T08:50:16Z</time>
      </trkpt>
      <trkpt lat="43.55522" lon="5.87494">
        <ele>370.62</ele>
        <time>2021-11-28T08:50:20Z</time>
      </trkpt>
      <trkpt lat="43.55541" lon="5.87493">
        <ele>369.17</ele>
        <time>2021-11-28T08:50:24Z</time>
      </trkpt>
      <trkpt lat="43.55559" lon="5.87483">
        <ele>367.17</ele>
        <time>2021-11-28T08:50:29Z</time>
      </trkpt>
      <trkpt lat="43.55577" lon="5.87484">
        <ele>365.29</ele>
        <time>2021-11-28T08:50:33Z</time>
      </trkpt>
      <trkpt lat="43.55591" lon="5.87507">
        <ele>362.26</ele>
        <time>2021-11-28T08:50:39Z</time>
      </trkpt>
      <trkpt lat="43.55598" lon="5.8753">
        <ele>360.67</ele>
        <time>2021-11-28T08:50:43Z</time>
      </trkpt>
      <trkpt lat="43.55599" lon="5.8756">
        <ele>359.33</ele>
        <time>2021-11-28T08:50:48Z</time>
      </trkpt>
      <trkpt lat="43.55607" lon="5.87588">
        <ele>358.42</ele>
        <time>2021-11-28T08:50:54Z</time>
      </trkpt>
      <trkpt lat="43.55615" lon="5.87612">
        <ele>359.08</ele>
        <time>2021-11-28T08:51:01Z</time>
      </trkpt>
      <trkpt lat="43.55615" lon="5.87641">
        <ele>359.84</ele>
        <time>2021-11-28T08:51:07Z</time>
      </trkpt>
      <trkpt lat="43.55615" lon="5.87666">
        <ele>359.79</ele>
        <time>2021-11-28T08:51:12Z</time>
      </trkpt>
      <trkpt lat="43.55611" lon="5.87691">
        <ele>360.64</ele>
        <time>2021-11-28T08:51:18Z</time>
      </trkpt>
      <trkpt lat="43.55604" lon="5.87717">
        <ele>361.96</ele>
        <time>2021-11-28T08:51:25Z</time>
      </trkpt>
      <trkpt lat="43.55595" lon="5.87742">
        <ele>364.86</ele>
        <time>2021-11-28T08:51:34Z</time>
      </trkpt>
      <trkpt lat="43.55587" lon="5.87765">
        <ele>367.31</ele>
        <time>2021-11-28T08:51:42Z</time>
      </trkpt>
      <trkpt lat="43.55577" lon="5.87789">
        <ele>368.84</ele>
        <time>2021-11-28T08:51:50Z</time>
      </trkpt>
      <trkpt lat="43.55569" lon="5.87812">
        <ele>369.9</ele>
        <time>2021-11-28T08:51:57Z</time>
      </trkpt>
      <trkpt lat="43.55561" lon="5.87836">
        <ele>370.94</ele>
        <time>2021-11-28T08:52:04Z</time>
      </trkpt>
      <trkpt lat="43.55548" lon="5.87857">
        <ele>372.14</ele>
        <time>2021-11-28T08:52:13Z</time>
      </trkpt>
      <trkpt lat="43.55539" lon="5.87879">
        <ele>372.84</ele>
        <time>2021-11-28T08:52:20Z</time>
      </trkpt>
      <trkpt lat="43.55535" lon="5.87905">
        <ele>373.42</ele>
        <time>2021-11-28T08:52:27Z</time>
      </trkpt>
      <trkpt lat="43.55529" lon="5.87929">
        <ele>373.63</ele>
        <time>2021-11-28T08:52:34Z</time>
      </trkpt>
      <trkpt lat="43.55534" lon="5.87955">
        <ele>372.76</ele>
        <time>2021-11-28T08:52:40Z</time>
      </trkpt>
      <trkpt lat="43.5554" lon="5.87981">
        <ele>372.62</ele>
        <time>2021-11-28T08:52:47Z</time>
      </trkpt>
      <trkpt lat="43.55548" lon="5.88004">
        <ele>372.59</ele>
        <time>2021-11-28T08:52:53Z</time>
      </trkpt>
      <trkpt lat="43.55555" lon="5.8803">
        <ele>371.84</ele>
        <time>2021-11-28T08:52:59Z</time>
      </trkpt>
      <trkpt lat="43.55566" lon="5.88052">
        <ele>371.93</ele>
        <time>2021-11-28T08:53:05Z</time>
      </trkpt>
      <trkpt lat="43.55579" lon="5.88071">
        <ele>372.85</ele>
        <time>2021-11-28T08:53:10Z</time>
      </trkpt>
      <trkpt lat="43.55596" lon="5.8808">
        <ele>375.04</ele>
        <time>2021-11-28T08:53:16Z</time>
      </trkpt>
      <trkpt lat="43.55616" lon="5.8808">
        <ele>376.51</ele>
        <time>2021-11-28T08:53:23Z</time>
      </trkpt>
      <trkpt lat="43.55632" lon="5.88092">
        <ele>377.75</ele>
        <time>2021-11-28T08:53:30Z</time>
      </trkpt>
      <trkpt lat="43.55644" lon="5.88115">
        <ele>376.4</ele>
        <time>2021-11-28T08:53:37Z</time>
      </trkpt>
      <trkpt lat="43.55654" lon="5.88138">
        <ele>376.84</ele>
        <time>2021-11-28T08:53:43Z</time>
      </trkpt>
      <trkpt lat="43.55662" lon="5.88162">
        <ele>378.47</ele>
        <time>2021-11-28T08:53:49Z</time>
      </trkpt>
      <trkpt lat="43.55663" lon="5.88188">
        <ele>379.86</ele>
        <time>2021-11-28T08:53:55Z</time>
      </trkpt>
      <trkpt lat="43.55667" lon="5.88214">
        <ele>381.8</ele>
        <time>2021-11-28T08:54:01Z</time>
      </trkpt>
      <trkpt lat="43.5567" lon="5.88241">
        <ele>383.9</ele>
        <time>2021-11-28T08:54:08Z</time>
      </trkpt>
      <trkpt lat="43.55684" lon="5.88257">
        <ele>383.56</ele>
        <time>2021-11-28T08:54:15Z</time>
      </trkpt>
      <trkpt lat="43.55697" lon="5.88277">
        <ele>382.66</ele>
        <time>2021-11-28T08:54:23Z</time>
      </trkpt>
      <trkpt lat="43.55705" lon="5.88303">
        <ele>381.85</ele>
        <time>2021-11-28T08:54:30Z</time>
      </trkpt>
      <trkpt lat="43.55715" lon="5.88328">
        <ele>383.39</ele>
        <time>2021-11-28T08:54:37Z</time>
      </trkpt>
      <trkpt lat="43.5572" lon="5.88353">
        <ele>384.4</ele>
        <time>2021-11-28T08:54:45Z</time>
      </trkpt>
      <trkpt lat="43.55733" lon="5.88374">
        <ele>386.96</ele>
        <time>2021-11-28T08:54:53Z</time>
      </trkpt>
      <trkpt lat="43.55741" lon="5.88398">
        <ele>388.06</ele>
        <time>2021-11-28T08:55:01Z</time>
      </trkpt>
      <trkpt lat="43.55746" lon="5.88423">
        <ele>387.67</ele>
        <time>2021-11-28T08:55:07Z</time>
      </trkpt>
      <trkpt lat="43.55751" lon="5.8845">
        <ele>388.65</ele>
        <time>2021-11-28T08:55:14Z</time>
      </trkpt>
      <trkpt lat="43.55755" lon="5.88476">
        <ele>389.65</ele>
        <time>2021-11-28T08:55:21Z</time>
      </trkpt>
      <trkpt lat="43.55762" lon="5.885">
        <ele>390.36</ele>
        <time>2021-11-28T08:55:28Z</time>
      </trkpt>
      <trkpt lat="43.5577" lon="5.88525">
        <ele>390.81</ele>
        <time>2021-11-28T08:55:35Z</time>
      </trkpt>
      <trkpt lat="43.55776" lon="5.88551">
        <ele>392.43</ele>
        <time>2021-11-28T08:55:43Z</time>
      </trkpt>
      <trkpt lat="43.5579" lon="5.88569">
        <ele>394.42</ele>
        <time>2021-11-28T08:55:54Z</time>
      </trkpt>
      <trkpt lat="43.55808" lon="5.88574">
        <ele>398.04</ele>
        <time>2021-11-28T08:56:07Z</time>
      </trkpt>
      <trkpt lat="43.55826" lon="5.88582">
        <ele>398.99</ele>
        <time>2021-11-28T08:56:18Z</time>
      </trkpt>
      <trkpt lat="43.5584" lon="5.88598">
        <ele>403.39</ele>
        <time>2021-11-28T08:56:30Z</time>
      </trkpt>
      <trkpt lat="43.55856" lon="5.88614">
        <ele>404.84</ele>
        <time>2021-11-28T08:56:40Z</time>
      </trkpt>
      <trkpt lat="43.55872" lon="5.88624">
        <ele>407.21</ele>
        <time>2021-11-28T08:56:48Z</time>
      </trkpt>
      <trkpt lat="43.5589" lon="5.88633">
        <ele>408.67</ele>
        <time>2021-11-28T08:56:56Z</time>
      </trkpt>
      <trkpt lat="43.55907" lon="5.88644">
        <ele>408.38</ele>
        <time>2021-11-28T08:57:03Z</time>
      </trkpt>
      <trkpt lat="43.55924" lon="5.88652">
        <ele>408.58</ele>
        <time>2021-11-28T08:57:10Z</time>
      </trkpt>
      <trkpt lat="43.55942" lon="5.88663">
        <ele>407.77</ele>
        <time>2021-11-28T08:57:16Z</time>
      </trkpt>
      <trkpt lat="43.55958" lon="5.88676">
        <ele>405.67</ele>
        <time>2021-11-28T08:57:22Z</time>
      </trkpt>
      <trkpt lat="43.55975" lon="5.88686">
        <ele>404.46</ele>
        <time>2021-11-28T08:57:28Z</time>
      </trkpt>
      <trkpt lat="43.55995" lon="5.88693">
        <ele>403.98</ele>
        <time>2021-11-28T08:57:35Z</time>
      </trkpt>
      <trkpt lat="43.56013" lon="5.88696">
        <ele>405.43</ele>
        <time>2021-11-28T08:57:41Z</time>
      </trkpt>
      <trkpt lat="43.56033" lon="5.88696">
        <ele>407.4</ele>
        <time>2021-11-28T08:57:49Z</time>
      </trkpt>
      <trkpt lat="43.56052" lon="5.88691">
        <ele>403.67</ele>
        <time>2021-11-28T08:57:58Z</time>
      </trkpt>
      <trkpt lat="43.56072" lon="5.88697">
        <ele>403.43</ele>
        <time>2021-11-28T08:58:07Z</time>
      </trkpt>
      <trkpt lat="43.56091" lon="5.88698">
        <ele>404.9</ele>
        <time>2021-11-28T08:58:14Z</time>
      </trkpt>
      <trkpt lat="43.56111" lon="5.88694">
        <ele>406.67</ele>
        <time>2021-11-28T08:58:23Z</time>
      </trkpt>
      <trkpt lat="43.56129" lon="5.88691">
        <ele>408.09</ele>
        <time>2021-11-28T08:58:32Z</time>
      </trkpt>
      <trkpt lat="43.56146" lon="5.88683">
        <ele>412.55</ele>
        <time>2021-11-28T08:58:41Z</time>
      </trkpt>
      <trkpt lat="43.56166" lon="5.88677">
        <ele>416.03</ele>
        <time>2021-11-28T08:58:49Z</time>
      </trkpt>
      <trkpt lat="43.56185" lon="5.88676">
        <ele>415.9</ele>
        <time>2021-11-28T08:58:58Z</time>
      </trkpt>
      <trkpt lat="43.56205" lon="5.88675">
        <ele>415.51</ele>
        <time>2021-11-28T08:59:07Z</time>
      </trkpt>
      <trkpt lat="43.56224" lon="5.88675">
        <ele>419.21</ele>
        <time>2021-11-28T08:59:16Z</time>
      </trkpt>
      <trkpt lat="43.56243" lon="5.8868">
        <ele>417.66</ele>
        <time>2021-11-28T08:59:25Z</time>
      </trkpt>
      <trkpt lat="43.56263" lon="5.88686">
        <ele>417.72</ele>
        <time>2021-11-28T08:59:34Z</time>
      </trkpt>
      <trkpt lat="43.56281" lon="5.88692">
        <ele>417.9</ele>
        <time>2021-11-28T08:59:42Z</time>
      </trkpt>
      <trkpt lat="43.563" lon="5.88697">
        <ele>418.06</ele>
        <time>2021-11-28T08:59:50Z</time>
      </trkpt>
      <trkpt lat="43.56318" lon="5.88699">
        <ele>418.28</ele>
        <time>2021-11-28T08:59:58Z</time>
      </trkpt>
      <trkpt lat="43.56337" lon="5.88699">
        <ele>419.43</ele>
        <time>2021-11-28T09:00:07Z</time>
      </trkpt>
      <trkpt lat="43.56355" lon="5.88696">
        <ele>419.23</ele>
        <time>2021-11-28T09:00:17Z</time>
      </trkpt>
      <trkpt lat="43.56374" lon="5.88685">
        <ele>420.25</ele>
        <time>2021-11-28T09:00:27Z</time>
      </trkpt>
      <trkpt lat="43.56392" lon="5.88676">
        <ele>421.26</ele>
        <time>2021-11-28T09:00:36Z</time>
      </trkpt>
      <trkpt lat="43.56412" lon="5.88672">
        <ele>421.29</ele>
        <time>2021-11-28T09:00:45Z</time>
      </trkpt>
      <trkpt lat="43.5643" lon="5.88669">
        <ele>421.72</ele>
        <time>2021-11-28T09:00:53Z</time>
      </trkpt>
      <trkpt lat="43.56449" lon="5.8866">
        <ele>422.69</ele>
        <time>2021-11-28T09:01:02Z</time>
      </trkpt>
      <trkpt lat="43.56464" lon="5.88646">
        <ele>423.58</ele>
        <time>2021-11-28T09:01:14Z</time>
      </trkpt>
      <trkpt lat="43.56453" lon="5.88624">
        <ele>426.06</ele>
        <time>2021-11-28T09:01:23Z</time>
      </trkpt>
      <trkpt lat="43.56442" lon="5.88603">
        <ele>430.97</ele>
        <time>2021-11-28T09:01:32Z</time>
      </trkpt>
      <trkpt lat="43.56429" lon="5.88584">
        <ele>437.55</ele>
        <time>2021-11-28T09:01:40Z</time>
      </trkpt>
      <trkpt lat="43.56418" lon="5.88563">
        <ele>443.02</ele>
        <time>2021-11-28T09:01:48Z</time>
      </trkpt>
      <trkpt lat="43.56404" lon="5.88541">
        <ele>448.05</ele>
        <time>2021-11-28T09:01:56Z</time>
      </trkpt>
      <trkpt lat="43.56397" lon="5.88517">
        <ele>448.35</ele>
        <time>2021-11-28T09:02:01Z</time>
      </trkpt>
      <trkpt lat="43.56394" lon="5.88487">
        <ele>447.65</ele>
        <time>2021-11-28T09:02:06Z</time>
      </trkpt>
      <trkpt lat="43.56403" lon="5.88461">
        <ele>445.76</ele>
        <time>2021-11-28T09:02:11Z</time>
      </trkpt>
      <trkpt lat="43.56409" lon="5.88434">
        <ele>444.4</ele>
        <time>2021-11-28T09:02:16Z</time>
      </trkpt>
      <trkpt lat="43.56415" lon="5.88408">
        <ele>440.72</ele>
        <time>2021-11-28T09:02:20Z</time>
      </trkpt>
      <trkpt lat="43.56423" lon="5.88385">
        <ele>437.54</ele>
        <time>2021-11-28T09:02:26Z</time>
      </trkpt>
      <trkpt lat="43.56437" lon="5.88365">
        <ele>433.46</ele>
        <time>2021-11-28T09:02:33Z</time>
      </trkpt>
      <trkpt lat="43.56444" lon="5.8834">
        <ele>430.68</ele>
        <time>2021-11-28T09:02:38Z</time>
      </trkpt>
      <trkpt lat="43.56452" lon="5.88313">
        <ele>427</ele>
        <time>2021-11-28T09:02:43Z</time>
      </trkpt>
      <trkpt lat="43.56463" lon="5.8829">
        <ele>425.71</ele>
        <time>2021-11-28T09:02:48Z</time>
      </trkpt>
      <trkpt lat="43.5647" lon="5.88264">
        <ele>425.37</ele>
        <time>2021-11-28T09:02:54Z</time>
      </trkpt>
      <trkpt lat="43.5647" lon="5.88238">
        <ele>424.51</ele>
        <time>2021-11-28T09:03:00Z</time>
      </trkpt>
      <trkpt lat="43.56469" lon="5.8821">
        <ele>422.71</ele>
        <time>2021-11-28T09:03:07Z</time>
      </trkpt>
      <trkpt lat="43.56461" lon="5.88186">
        <ele>418.28</ele>
        <time>2021-11-28T09:03:19Z</time>
      </trkpt>
      <trkpt lat="43.56447" lon="5.88169">
        <ele>418.84</ele>
        <time>2021-11-28T09:03:24Z</time>
      </trkpt>
      <trkpt lat="43.56445" lon="5.88141">
        <ele>420.41</ele>
        <time>2021-11-28T09:03:31Z</time>
      </trkpt>
      <trkpt lat="43.56452" lon="5.88115">
        <ele>422.31</ele>
        <time>2021-11-28T09:03:37Z</time>
      </trkpt>
      <trkpt lat="43.56461" lon="5.88091">
        <ele>424.31</ele>
        <time>2021-11-28T09:03:43Z</time>
      </trkpt>
      <trkpt lat="43.56473" lon="5.8807">
        <ele>423.9</ele>
        <time>2021-11-28T09:03:49Z</time>
      </trkpt>
      <trkpt lat="43.56489" lon="5.88055">
        <ele>426.46</ele>
        <time>2021-11-28T09:03:59Z</time>
      </trkpt>
      <trkpt lat="43.56509" lon="5.88046">
        <ele>422.89</ele>
        <time>2021-11-28T09:04:05Z</time>
      </trkpt>
      <trkpt lat="43.56527" lon="5.88044">
        <ele>420.72</ele>
        <time>2021-11-28T09:04:11Z</time>
      </trkpt>
      <trkpt lat="43.56545" lon="5.88044">
        <ele>420.15</ele>
        <time>2021-11-28T09:04:18Z</time>
      </trkpt>
      <trkpt lat="43.56562" lon="5.88057">
        <ele>425.57</ele>
        <time>2021-11-28T09:04:29Z</time>
      </trkpt>
      <trkpt lat="43.56565" lon="5.88083">
        <ele>427.94</ele>
        <time>2021-11-28T09:04:38Z</time>
      </trkpt>
      <trkpt lat="43.56564" lon="5.88111">
        <ele>430.66</ele>
        <time>2021-11-28T09:04:46Z</time>
      </trkpt>
      <trkpt lat="43.56568" lon="5.88139">
        <ele>432.69</ele>
        <time>2021-11-28T09:04:54Z</time>
      </trkpt>
      <trkpt lat="43.56585" lon="5.88151">
        <ele>435.43</ele>
        <time>2021-11-28T09:05:04Z</time>
      </trkpt>
      <trkpt lat="43.56603" lon="5.88158">
        <ele>437.24</ele>
        <time>2021-11-28T09:05:12Z</time>
      </trkpt>
      <trkpt lat="43.56619" lon="5.88167">
        <ele>437.59</ele>
        <time>2021-11-28T09:05:20Z</time>
      </trkpt>
      <trkpt lat="43.56626" lon="5.88191">
        <ele>437.25</ele>
        <time>2021-11-28T09:05:28Z</time>
      </trkpt>
      <trkpt lat="43.56626" lon="5.88219">
        <ele>437.13</ele>
        <time>2021-11-28T09:05:36Z</time>
      </trkpt>
      <trkpt lat="43.56626" lon="5.88245">
        <ele>435.92</ele>
        <time>2021-11-28T09:05:42Z</time>
      </trkpt>
      <trkpt lat="43.56622" lon="5.8827">
        <ele>433.92</ele>
        <time>2021-11-28T09:05:48Z</time>
      </trkpt>
      <trkpt lat="43.56616" lon="5.88294">
        <ele>433.29</ele>
        <time>2021-11-28T09:05:54Z</time>
      </trkpt>
      <trkpt lat="43.56614" lon="5.88322">
        <ele>433.4</ele>
        <time>2021-11-28T09:06:00Z</time>
      </trkpt>
      <trkpt lat="43.56614" lon="5.88349">
        <ele>432.56</ele>
        <time>2021-11-28T09:06:06Z</time>
      </trkpt>
      <trkpt lat="43.56612" lon="5.88377">
        <ele>431.3</ele>
        <time>2021-11-28T09:06:12Z</time>
      </trkpt>
      <trkpt lat="43.56612" lon="5.88404">
        <ele>430.26</ele>
        <time>2021-11-28T09:06:17Z</time>
      </trkpt>
      <trkpt lat="43.56622" lon="5.88429">
        <ele>429.18</ele>
        <time>2021-11-28T09:06:22Z</time>
      </trkpt>
      <trkpt lat="43.56631" lon="5.88451">
        <ele>427.46</ele>
        <time>2021-11-28T09:06:29Z</time>
      </trkpt>
      <trkpt lat="43.56623" lon="5.8848">
        <ele>426.14</ele>
        <time>2021-11-28T09:06:34Z</time>
      </trkpt>
      <trkpt lat="43.56621" lon="5.88506">
        <ele>425.57</ele>
        <time>2021-11-28T09:06:38Z</time>
      </trkpt>
      <trkpt lat="43.5662" lon="5.88536">
        <ele>425.21</ele>
        <time>2021-11-28T09:06:43Z</time>
      </trkpt>
      <trkpt lat="43.56635" lon="5.88553">
        <ele>424.51</ele>
        <time>2021-11-28T09:06:48Z</time>
      </trkpt>
      <trkpt lat="43.56655" lon="5.88561">
        <ele>424.57</ele>
        <time>2021-11-28T09:06:54Z</time>
      </trkpt>
      <trkpt lat="43.56673" lon="5.88568">
        <ele>425.32</ele>
        <time>2021-11-28T09:07:01Z</time>
      </trkpt>
      <trkpt lat="43.56691" lon="5.88558">
        <ele>426</ele>
        <time>2021-11-28T09:07:10Z</time>
      </trkpt>
      <trkpt lat="43.56709" lon="5.88551">
        <ele>427.11</ele>
        <time>2021-11-28T09:07:16Z</time>
      </trkpt>
      <trkpt lat="43.56728" lon="5.88543">
        <ele>427.62</ele>
        <time>2021-11-28T09:07:22Z</time>
      </trkpt>
      <trkpt lat="43.56745" lon="5.88533">
        <ele>427.62</ele>
        <time>2021-11-28T09:07:27Z</time>
      </trkpt>
      <trkpt lat="43.56762" lon="5.88522">
        <ele>428.11</ele>
        <time>2021-11-28T09:07:32Z</time>
      </trkpt>
      <trkpt lat="43.56779" lon="5.88511">
        <ele>428.68</ele>
        <time>2021-11-28T09:07:38Z</time>
      </trkpt>
      <trkpt lat="43.56798" lon="5.88501">
        <ele>427.66</ele>
        <time>2021-11-28T09:07:44Z</time>
      </trkpt>
      <trkpt lat="43.56817" lon="5.88493">
        <ele>429.17</ele>
        <time>2021-11-28T09:07:50Z</time>
      </trkpt>
      <trkpt lat="43.56834" lon="5.88486">
        <ele>430.4</ele>
        <time>2021-11-28T09:07:56Z</time>
      </trkpt>
      <trkpt lat="43.56853" lon="5.88475">
        <ele>431.38</ele>
        <time>2021-11-28T09:08:02Z</time>
      </trkpt>
      <trkpt lat="43.56871" lon="5.88467">
        <ele>433.24</ele>
        <time>2021-11-28T09:08:08Z</time>
      </trkpt>
      <trkpt lat="43.5689" lon="5.88458">
        <ele>434.8</ele>
        <time>2021-11-28T09:08:14Z</time>
      </trkpt>
      <trkpt lat="43.56908" lon="5.88448">
        <ele>435.84</ele>
        <time>2021-11-28T09:08:20Z</time>
      </trkpt>
      <trkpt lat="43.56928" lon="5.88437">
        <ele>434.66</ele>
        <time>2021-11-28T09:08:26Z</time>
      </trkpt>
      <trkpt lat="43.56945" lon="5.88427">
        <ele>435.03</ele>
        <time>2021-11-28T09:08:31Z</time>
      </trkpt>
      <trkpt lat="43.56962" lon="5.88418">
        <ele>435.28</ele>
        <time>2021-11-28T09:08:36Z</time>
      </trkpt>
      <trkpt lat="43.56979" lon="5.88408">
        <ele>434.9</ele>
        <time>2021-11-28T09:08:41Z</time>
      </trkpt>
      <trkpt lat="43.56997" lon="5.88397">
        <ele>434.42</ele>
        <time>2021-11-28T09:08:46Z</time>
      </trkpt>
      <trkpt lat="43.57015" lon="5.8839">
        <ele>434.83</ele>
        <time>2021-11-28T09:08:51Z</time>
      </trkpt>
      <trkpt lat="43.57034" lon="5.88379">
        <ele>433.66</ele>
        <time>2021-11-28T09:08:56Z</time>
      </trkpt>
      <trkpt lat="43.57052" lon="5.88366">
        <ele>435.12</ele>
        <time>2021-11-28T09:09:02Z</time>
      </trkpt>
      <trkpt lat="43.57069" lon="5.88353">
        <ele>435.45</ele>
        <time>2021-11-28T09:09:08Z</time>
      </trkpt>
      <trkpt lat="43.5709" lon="5.88344">
        <ele>434.57</ele>
        <time>2021-11-28T09:09:14Z</time>
      </trkpt>
      <trkpt lat="43.57109" lon="5.88332">
        <ele>433.28</ele>
        <time>2021-11-28T09:09:20Z</time>
      </trkpt>
      <trkpt lat="43.57124" lon="5.88319">
        <ele>433.78</ele>
        <time>2021-11-28T09:09:26Z</time>
      </trkpt>
      <trkpt lat="43.57141" lon="5.88311">
        <ele>434.47</ele>
        <time>2021-11-28T09:09:32Z</time>
      </trkpt>
      <trkpt lat="43.5716" lon="5.88304">
        <ele>434.2</ele>
        <time>2021-11-28T09:09:38Z</time>
      </trkpt>
      <trkpt lat="43.57179" lon="5.88302">
        <ele>434.72</ele>
        <time>2021-11-28T09:09:44Z</time>
      </trkpt>
      <trkpt lat="43.57198" lon="5.88298">
        <ele>437</ele>
        <time>2021-11-28T09:09:51Z</time>
      </trkpt>
      <trkpt lat="43.57216" lon="5.8829">
        <ele>437.62</ele>
        <time>2021-11-28T09:09:58Z</time>
      </trkpt>
      <trkpt lat="43.57236" lon="5.88282">
        <ele>438.6</ele>
        <time>2021-11-28T09:10:05Z</time>
      </trkpt>
      <trkpt lat="43.57255" lon="5.88282">
        <ele>440.11</ele>
        <time>2021-11-28T09:10:13Z</time>
      </trkpt>
      <trkpt lat="43.57273" lon="5.88272">
        <ele>441.09</ele>
        <time>2021-11-28T09:10:21Z</time>
      </trkpt>
      <trkpt lat="43.57292" lon="5.88263">
        <ele>441.61</ele>
        <time>2021-11-28T09:10:29Z</time>
      </trkpt>
      <trkpt lat="43.57311" lon="5.88255">
        <ele>441.13</ele>
        <time>2021-11-28T09:10:36Z</time>
      </trkpt>
      <trkpt lat="43.5733" lon="5.88247">
        <ele>441.6</ele>
        <time>2021-11-28T09:10:44Z</time>
      </trkpt>
      <trkpt lat="43.57347" lon="5.88235">
        <ele>443.79</ele>
        <time>2021-11-28T09:10:53Z</time>
      </trkpt>
      <trkpt lat="43.57365" lon="5.88229">
        <ele>445</ele>
        <time>2021-11-28T09:11:01Z</time>
      </trkpt>
      <trkpt lat="43.57384" lon="5.88223">
        <ele>446.72</ele>
        <time>2021-11-28T09:11:09Z</time>
      </trkpt>
      <trkpt lat="43.57401" lon="5.88213">
        <ele>447.22</ele>
        <time>2021-11-28T09:11:17Z</time>
      </trkpt>
      <trkpt lat="43.57415" lon="5.88197">
        <ele>448.84</ele>
        <time>2021-11-28T09:11:26Z</time>
      </trkpt>
      <trkpt lat="43.57431" lon="5.88182">
        <ele>451.99</ele>
        <time>2021-11-28T09:11:35Z</time>
      </trkpt>
      <trkpt lat="43.57447" lon="5.8817">
        <ele>455.59</ele>
        <time>2021-11-28T09:11:43Z</time>
      </trkpt>
      <trkpt lat="43.57463" lon="5.88159">
        <ele>455.63</ele>
        <time>2021-11-28T09:11:50Z</time>
      </trkpt>
      <trkpt lat="43.57481" lon="5.88149">
        <ele>455.92</ele>
        <time>2021-11-28T09:11:58Z</time>
      </trkpt>
      <trkpt lat="43.57498" lon="5.88139">
        <ele>456.96</ele>
        <time>2021-11-28T09:12:06Z</time>
      </trkpt>
      <trkpt lat="43.57516" lon="5.88127">
        <ele>455.86</ele>
        <time>2021-11-28T09:12:14Z</time>
      </trkpt>
      <trkpt lat="43.57529" lon="5.88106">
        <ele>458.77</ele>
        <time>2021-11-28T09:12:24Z</time>
      </trkpt>
      <trkpt lat="43.57538" lon="5.88084">
        <ele>461.47</ele>
        <time>2021-11-28T09:12:32Z</time>
      </trkpt>
      <trkpt lat="43.57545" lon="5.88061">
        <ele>466.82</ele>
        <time>2021-11-28T09:12:42Z</time>
      </trkpt>
      <trkpt lat="43.57557" lon="5.88042">
        <ele>472.5</ele>
        <time>2021-11-28T09:12:51Z</time>
      </trkpt>
      <trkpt lat="43.57572" lon="5.88024">
        <ele>478.14</ele>
        <time>2021-11-28T09:13:00Z</time>
      </trkpt>
      <trkpt lat="43.57588" lon="5.88004">
        <ele>481.41</ele>
        <time>2021-11-28T09:13:09Z</time>
      </trkpt>
      <trkpt lat="43.57603" lon="5.87989">
        <ele>485.16</ele>
        <time>2021-11-28T09:13:17Z</time>
      </trkpt>
      <trkpt lat="43.57619" lon="5.87972">
        <ele>487.27</ele>
        <time>2021-11-28T09:13:26Z</time>
      </trkpt>
      <trkpt lat="43.57635" lon="5.8796">
        <ele>486.57</ele>
        <time>2021-11-28T09:13:34Z</time>
      </trkpt>
      <trkpt lat="43.57652" lon="5.8795">
        <ele>482.26</ele>
        <time>2021-11-28T09:13:40Z</time>
      </trkpt>
      <trkpt lat="43.57669" lon="5.87942">
        <ele>478</ele>
        <time>2021-11-28T09:13:48Z</time>
      </trkpt>
      <trkpt lat="43.57687" lon="5.87933">
        <ele>473.3</ele>
        <time>2021-11-28T09:13:56Z</time>
      </trkpt>
      <trkpt lat="43.57706" lon="5.87935">
        <ele>468.76</ele>
        <time>2021-11-28T09:14:06Z</time>
      </trkpt>
      <trkpt lat="43.57726" lon="5.87944">
        <ele>466.94</ele>
        <time>2021-11-28T09:14:15Z</time>
      </trkpt>
      <trkpt lat="43.57741" lon="5.87959">
        <ele>466.24</ele>
        <time>2021-11-28T09:14:23Z</time>
      </trkpt>
      <trkpt lat="43.57751" lon="5.87983">
        <ele>468.2</ele>
        <time>2021-11-28T09:14:32Z</time>
      </trkpt>
      <trkpt lat="43.57758" lon="5.88007">
        <ele>468.82</ele>
        <time>2021-11-28T09:14:41Z</time>
      </trkpt>
      <trkpt lat="43.57768" lon="5.88034">
        <ele>468.95</ele>
        <time>2021-11-28T09:18:14Z</time>
      </trkpt>
      <trkpt lat="43.57756" lon="5.88015">
        <ele>469.22</ele>
        <time>2021-11-28T09:18:26Z</time>
      </trkpt>
      <trkpt lat="43.57745" lon="5.87991">
        <ele>471.57</ele>
        <time>2021-11-28T09:18:33Z</time>
      </trkpt>
      <trkpt lat="43.57733" lon="5.87972">
        <ele>473.44</ele>
        <time>2021-11-28T09:18:39Z</time>
      </trkpt>
      <trkpt lat="43.57714" lon="5.87957">
        <ele>476.64</ele>
        <time>2021-11-28T09:18:45Z</time>
      </trkpt>
      <trkpt lat="43.577" lon="5.87936">
        <ele>475.76</ele>
        <time>2021-11-28T09:18:51Z</time>
      </trkpt>
      <trkpt lat="43.57681" lon="5.87938">
        <ele>470.6</ele>
        <time>2021-11-28T09:18:59Z</time>
      </trkpt>
      <trkpt lat="43.57663" lon="5.87947">
        <ele>468.2</ele>
        <time>2021-11-28T09:19:04Z</time>
      </trkpt>
      <trkpt lat="43.57642" lon="5.87954">
        <ele>466.85</ele>
        <time>2021-11-28T09:19:09Z</time>
      </trkpt>
      <trkpt lat="43.57626" lon="5.87969">
        <ele>465.39</ele>
        <time>2021-11-28T09:19:13Z</time>
      </trkpt>
      <trkpt lat="43.57609" lon="5.87989">
        <ele>463.45</ele>
        <time>2021-11-28T09:19:17Z</time>
      </trkpt>
      <trkpt lat="43.57593" lon="5.88006">
        <ele>461.33</ele>
        <time>2021-11-28T09:19:20Z</time>
      </trkpt>
      <trkpt lat="43.57577" lon="5.88025">
        <ele>458.56</ele>
        <time>2021-11-28T09:19:23Z</time>
      </trkpt>
      <trkpt lat="43.57563" lon="5.88048">
        <ele>457.06</ele>
        <time>2021-11-28T09:19:26Z</time>
      </trkpt>
      <trkpt lat="43.57553" lon="5.88075">
        <ele>455.36</ele>
        <time>2021-11-28T09:19:29Z</time>
      </trkpt>
      <trkpt lat="43.57543" lon="5.88102">
        <ele>454.25</ele>
        <time>2021-11-28T09:19:32Z</time>
      </trkpt>
      <trkpt lat="43.57529" lon="5.88124">
        <ele>452.62</ele>
        <time>2021-11-28T09:19:35Z</time>
      </trkpt>
      <trkpt lat="43.5751" lon="5.88137">
        <ele>450.9</ele>
        <time>2021-11-28T09:19:38Z</time>
      </trkpt>
      <trkpt lat="43.57491" lon="5.88148">
        <ele>449.04</ele>
        <time>2021-11-28T09:19:41Z</time>
      </trkpt>
      <trkpt lat="43.57469" lon="5.88158">
        <ele>447.49</ele>
        <time>2021-11-28T09:19:44Z</time>
      </trkpt>
      <trkpt lat="43.57448" lon="5.88174">
        <ele>445.81</ele>
        <time>2021-11-28T09:19:47Z</time>
      </trkpt>
      <trkpt lat="43.57427" lon="5.88194">
        <ele>443.92</ele>
        <time>2021-11-28T09:19:50Z</time>
      </trkpt>
      <trkpt lat="43.57406" lon="5.88216">
        <ele>441.64</ele>
        <time>2021-11-28T09:19:53Z</time>
      </trkpt>
      <trkpt lat="43.57382" lon="5.88224">
        <ele>440.06</ele>
        <time>2021-11-28T09:19:56Z</time>
      </trkpt>
      <trkpt lat="43.57361" lon="5.88228">
        <ele>438.2</ele>
        <time>2021-11-28T09:19:59Z</time>
      </trkpt>
      <trkpt lat="43.57344" lon="5.88233">
        <ele>436.9</ele>
        <time>2021-11-28T09:20:05Z</time>
      </trkpt>
      <trkpt lat="43.57331" lon="5.88215">
        <ele>438.97</ele>
        <time>2021-11-28T09:20:21Z</time>
      </trkpt>
      <trkpt lat="43.57323" lon="5.8819">
        <ele>442.56</ele>
        <time>2021-11-28T09:20:29Z</time>
      </trkpt>
      <trkpt lat="43.57318" lon="5.88166">
        <ele>447.08</ele>
        <time>2021-11-28T09:20:37Z</time>
      </trkpt>
      <trkpt lat="43.57315" lon="5.88141">
        <ele>454.03</ele>
        <time>2021-11-28T09:20:55Z</time>
      </trkpt>
      <trkpt lat="43.57314" lon="5.88114">
        <ele>457.29</ele>
        <time>2021-11-28T09:21:10Z</time>
      </trkpt>
      <trkpt lat="43.57305" lon="5.8809">
        <ele>460.03</ele>
        <time>2021-11-28T09:21:18Z</time>
      </trkpt>
      <trkpt lat="43.57298" lon="5.88064">
        <ele>463.93</ele>
        <time>2021-11-28T09:21:25Z</time>
      </trkpt>
      <trkpt lat="43.57285" lon="5.88048">
        <ele>468.98</ele>
        <time>2021-11-28T09:21:34Z</time>
      </trkpt>
      <trkpt lat="43.57276" lon="5.88025">
        <ele>475.89</ele>
        <time>2021-11-28T09:21:43Z</time>
      </trkpt>
      <trkpt lat="43.57271" lon="5.88">
        <ele>480.59</ele>
        <time>2021-11-28T09:21:49Z</time>
      </trkpt>
      <trkpt lat="43.57266" lon="5.87976">
        <ele>482.49</ele>
        <time>2021-11-28T09:21:56Z</time>
      </trkpt>
      <trkpt lat="43.57256" lon="5.87954">
        <ele>486.95</ele>
        <time>2021-11-28T09:22:02Z</time>
      </trkpt>
      <trkpt lat="43.57259" lon="5.87929">
        <ele>492.1</ele>
        <time>2021-11-28T09:22:09Z</time>
      </trkpt>
      <trkpt lat="43.57259" lon="5.87902">
        <ele>498.57</ele>
        <time>2021-11-28T09:22:17Z</time>
      </trkpt>
      <trkpt lat="43.57249" lon="5.87879">
        <ele>506.39</ele>
        <time>2021-11-28T09:22:26Z</time>
      </trkpt>
      <trkpt lat="43.57232" lon="5.87864">
        <ele>519.14</ele>
        <time>2021-11-28T09:22:35Z</time>
      </trkpt>
      <trkpt lat="43.57219" lon="5.87844">
        <ele>521.84</ele>
        <time>2021-11-28T09:22:42Z</time>
      </trkpt>
      <trkpt lat="43.57203" lon="5.87828">
        <ele>528.58</ele>
        <time>2021-11-28T09:22:52Z</time>
      </trkpt>
      <trkpt lat="43.57186" lon="5.87816">
        <ele>533.19</ele>
        <time>2021-11-28T09:22:58Z</time>
      </trkpt>
      <trkpt lat="43.57169" lon="5.878">
        <ele>540.03</ele>
        <time>2021-11-28T09:23:05Z</time>
      </trkpt>
      <trkpt lat="43.57162" lon="5.87777">
        <ele>543.45</ele>
        <time>2021-11-28T09:23:12Z</time>
      </trkpt>
      <trkpt lat="43.5716" lon="5.87751">
        <ele>541.23</ele>
        <time>2021-11-28T09:23:19Z</time>
      </trkpt>
      <trkpt lat="43.57158" lon="5.87723">
        <ele>539.41</ele>
        <time>2021-11-28T09:23:27Z</time>
      </trkpt>
      <trkpt lat="43.57153" lon="5.87697">
        <ele>542.61</ele>
        <time>2021-11-28T09:23:36Z</time>
      </trkpt>
      <trkpt lat="43.57148" lon="5.87669">
        <ele>545.36</ele>
        <time>2021-11-28T09:23:43Z</time>
      </trkpt>
      <trkpt lat="43.57142" lon="5.87644">
        <ele>543.15</ele>
        <time>2021-11-28T09:23:48Z</time>
      </trkpt>
      <trkpt lat="43.57129" lon="5.87622">
        <ele>544.19</ele>
        <time>2021-11-28T09:23:54Z</time>
      </trkpt>
      <trkpt lat="43.57114" lon="5.87603">
        <ele>546.73</ele>
        <time>2021-11-28T09:24:00Z</time>
      </trkpt>
      <trkpt lat="43.57096" lon="5.8758">
        <ele>548.47</ele>
        <time>2021-11-28T09:24:05Z</time>
      </trkpt>
      <trkpt lat="43.57088" lon="5.87556">
        <ele>543.79</ele>
        <time>2021-11-28T09:24:08Z</time>
      </trkpt>
      <trkpt lat="43.57081" lon="5.87533">
        <ele>539.39</ele>
        <time>2021-11-28T09:24:16Z</time>
      </trkpt>
      <trkpt lat="43.57064" lon="5.87521">
        <ele>541.26</ele>
        <time>2021-11-28T09:24:23Z</time>
      </trkpt>
      <trkpt lat="43.57048" lon="5.87508">
        <ele>543.48</ele>
        <time>2021-11-28T09:24:28Z</time>
      </trkpt>
      <trkpt lat="43.5703" lon="5.87496">
        <ele>548.33</ele>
        <time>2021-11-28T09:24:34Z</time>
      </trkpt>
      <trkpt lat="43.57018" lon="5.87471">
        <ele>551.73</ele>
        <time>2021-11-28T09:24:42Z</time>
      </trkpt>
      <trkpt lat="43.57008" lon="5.87446">
        <ele>550.42</ele>
        <time>2021-11-28T09:24:50Z</time>
      </trkpt>
      <trkpt lat="43.56996" lon="5.87427">
        <ele>544.17</ele>
        <time>2021-11-28T09:25:01Z</time>
      </trkpt>
      <trkpt lat="43.56983" lon="5.87404">
        <ele>545.4</ele>
        <time>2021-11-28T09:25:07Z</time>
      </trkpt>
      <trkpt lat="43.56974" lon="5.8738">
        <ele>541.16</ele>
        <time>2021-11-28T09:25:11Z</time>
      </trkpt>
      <trkpt lat="43.5697" lon="5.87352">
        <ele>537.1</ele>
        <time>2021-11-28T09:25:16Z</time>
      </trkpt>
      <trkpt lat="43.56966" lon="5.87326">
        <ele>534.17</ele>
        <time>2021-11-28T09:25:20Z</time>
      </trkpt>
      <trkpt lat="43.56961" lon="5.87301">
        <ele>528.48</ele>
        <time>2021-11-28T09:25:24Z</time>
      </trkpt>
      <trkpt lat="43.56959" lon="5.87274">
        <ele>522.9</ele>
        <time>2021-11-28T09:25:28Z</time>
      </trkpt>
      <trkpt lat="43.56955" lon="5.87247">
        <ele>515.39</ele>
        <time>2021-11-28T09:25:32Z</time>
      </trkpt>
      <trkpt lat="43.56952" lon="5.87218">
        <ele>507.66</ele>
        <time>2021-11-28T09:25:36Z</time>
      </trkpt>
      <trkpt lat="43.56953" lon="5.87189">
        <ele>499.66</ele>
        <time>2021-11-28T09:25:41Z</time>
      </trkpt>
      <trkpt lat="43.56955" lon="5.87162">
        <ele>493.25</ele>
        <time>2021-11-28T09:25:46Z</time>
      </trkpt>
      <trkpt lat="43.56953" lon="5.87133">
        <ele>487.39</ele>
        <time>2021-11-28T09:25:51Z</time>
      </trkpt>
      <trkpt lat="43.5695" lon="5.87106">
        <ele>482.76</ele>
        <time>2021-11-28T09:25:56Z</time>
      </trkpt>
      <trkpt lat="43.56944" lon="5.87081">
        <ele>478.41</ele>
        <time>2021-11-28T09:26:01Z</time>
      </trkpt>
      <trkpt lat="43.56937" lon="5.87053">
        <ele>475.99</ele>
        <time>2021-11-28T09:26:06Z</time>
      </trkpt>
      <trkpt lat="43.56933" lon="5.87027">
        <ele>474.26</ele>
        <time>2021-11-28T09:26:10Z</time>
      </trkpt>
      <trkpt lat="43.5693" lon="5.86996">
        <ele>471.92</ele>
        <time>2021-11-28T09:26:14Z</time>
      </trkpt>
      <trkpt lat="43.56927" lon="5.86963">
        <ele>469.06</ele>
        <time>2021-11-28T09:26:18Z</time>
      </trkpt>
      <trkpt lat="43.56925" lon="5.86939">
        <ele>467.82</ele>
        <time>2021-11-28T09:26:21Z</time>
      </trkpt>
      <trkpt lat="43.56922" lon="5.86914">
        <ele>465.47</ele>
        <time>2021-11-28T09:26:24Z</time>
      </trkpt>
      <trkpt lat="43.56915" lon="5.86883">
        <ele>463.92</ele>
        <time>2021-11-28T09:26:28Z</time>
      </trkpt>
      <trkpt lat="43.56909" lon="5.86852">
        <ele>462.55</ele>
        <time>2021-11-28T09:26:32Z</time>
      </trkpt>
      <trkpt lat="43.56906" lon="5.86821">
        <ele>461.3</ele>
        <time>2021-11-28T09:26:36Z</time>
      </trkpt>
      <trkpt lat="43.56903" lon="5.86789">
        <ele>458.43</ele>
        <time>2021-11-28T09:26:40Z</time>
      </trkpt>
      <trkpt lat="43.56899" lon="5.86758">
        <ele>455.17</ele>
        <time>2021-11-28T09:26:44Z</time>
      </trkpt>
      <trkpt lat="43.569" lon="5.86733">
        <ele>453.18</ele>
        <time>2021-11-28T09:26:47Z</time>
      </trkpt>
      <trkpt lat="43.56902" lon="5.86701">
        <ele>451.71</ele>
        <time>2021-11-28T09:26:51Z</time>
      </trkpt>
      <trkpt lat="43.56909" lon="5.86677">
        <ele>447.98</ele>
        <time>2021-11-28T09:26:58Z</time>
      </trkpt>
      <trkpt lat="43.5692" lon="5.86657">
        <ele>442.39</ele>
        <time>2021-11-28T09:27:07Z</time>
      </trkpt>
      <trkpt lat="43.56915" lon="5.86631">
        <ele>438.56</ele>
        <time>2021-11-28T09:27:23Z</time>
      </trkpt>
      <trkpt lat="43.56906" lon="5.86609">
        <ele>439.02</ele>
        <time>2021-11-28T09:27:30Z</time>
      </trkpt>
      <trkpt lat="43.56891" lon="5.86594">
        <ele>437.05</ele>
        <time>2021-11-28T09:27:38Z</time>
      </trkpt>
      <trkpt lat="43.56875" lon="5.86579">
        <ele>436.59</ele>
        <time>2021-11-28T09:27:44Z</time>
      </trkpt>
      <trkpt lat="43.56863" lon="5.86559">
        <ele>436.54</ele>
        <time>2021-11-28T09:27:49Z</time>
      </trkpt>
      <trkpt lat="43.56849" lon="5.86541">
        <ele>437.02</ele>
        <time>2021-11-28T09:27:58Z</time>
      </trkpt>
      <trkpt lat="43.56835" lon="5.86526">
        <ele>435.03</ele>
        <time>2021-11-28T09:28:07Z</time>
      </trkpt>
      <trkpt lat="43.56836" lon="5.86498">
        <ele>437.45</ele>
        <time>2021-11-28T09:28:15Z</time>
      </trkpt>
      <trkpt lat="43.56842" lon="5.86473">
        <ele>440.22</ele>
        <time>2021-11-28T09:28:23Z</time>
      </trkpt>
      <trkpt lat="43.56849" lon="5.86448">
        <ele>442.5</ele>
        <time>2021-11-28T09:28:30Z</time>
      </trkpt>
      <trkpt lat="43.56843" lon="5.86424">
        <ele>443.84</ele>
        <time>2021-11-28T09:28:36Z</time>
      </trkpt>
      <trkpt lat="43.56839" lon="5.864">
        <ele>443.97</ele>
        <time>2021-11-28T09:28:42Z</time>
      </trkpt>
      <trkpt lat="43.56842" lon="5.86373">
        <ele>445.89</ele>
        <time>2021-11-28T09:28:48Z</time>
      </trkpt>
      <trkpt lat="43.5684" lon="5.86348">
        <ele>447.82</ele>
        <time>2021-11-28T09:28:54Z</time>
      </trkpt>
      <trkpt lat="43.56836" lon="5.86323">
        <ele>449.32</ele>
        <time>2021-11-28T09:29:00Z</time>
      </trkpt>
      <trkpt lat="43.56837" lon="5.86298">
        <ele>451.01</ele>
        <time>2021-11-28T09:29:06Z</time>
      </trkpt>
      <trkpt lat="43.56841" lon="5.86272">
        <ele>453.08</ele>
        <time>2021-11-28T09:29:12Z</time>
      </trkpt>
      <trkpt lat="43.56841" lon="5.86245">
        <ele>454.54</ele>
        <time>2021-11-28T09:29:18Z</time>
      </trkpt>
      <trkpt lat="43.56842" lon="5.86216">
        <ele>456.2</ele>
        <time>2021-11-28T09:29:25Z</time>
      </trkpt>
      <trkpt lat="43.5684" lon="5.8619">
        <ele>456.16</ele>
        <time>2021-11-28T09:29:33Z</time>
      </trkpt>
      <trkpt lat="43.56821" lon="5.86189">
        <ele>445.16</ele>
        <time>2021-11-28T09:29:45Z</time>
      </trkpt>
      <trkpt lat="43.56802" lon="5.86186">
        <ele>443.02</ele>
        <time>2021-11-28T09:29:53Z</time>
      </trkpt>
      <trkpt lat="43.56783" lon="5.86185">
        <ele>440.73</ele>
        <time>2021-11-28T09:29:59Z</time>
      </trkpt>
      <trkpt lat="43.56762" lon="5.86186">
        <ele>439.71</ele>
        <time>2021-11-28T09:30:04Z</time>
      </trkpt>
      <trkpt lat="43.56744" lon="5.8618">
        <ele>439.59</ele>
        <time>2021-11-28T09:30:09Z</time>
      </trkpt>
      <trkpt lat="43.56724" lon="5.86175">
        <ele>439.61</ele>
        <time>2021-11-28T09:30:14Z</time>
      </trkpt>
      <trkpt lat="43.56706" lon="5.86172">
        <ele>438.63</ele>
        <time>2021-11-28T09:30:19Z</time>
      </trkpt>
      <trkpt lat="43.56687" lon="5.86165">
        <ele>439.62</ele>
        <time>2021-11-28T09:30:25Z</time>
      </trkpt>
      <trkpt lat="43.56668" lon="5.8616">
        <ele>440.93</ele>
        <time>2021-11-28T09:30:31Z</time>
      </trkpt>
      <trkpt lat="43.56648" lon="5.86162">
        <ele>442.52</ele>
        <time>2021-11-28T09:30:38Z</time>
      </trkpt>
      <trkpt lat="43.56631" lon="5.86169">
        <ele>443.31</ele>
        <time>2021-11-28T09:30:45Z</time>
      </trkpt>
      <trkpt lat="43.56612" lon="5.86177">
        <ele>444.95</ele>
        <time>2021-11-28T09:30:53Z</time>
      </trkpt>
      <trkpt lat="43.56594" lon="5.86183">
        <ele>444.69</ele>
        <time>2021-11-28T09:31:00Z</time>
      </trkpt>
      <trkpt lat="43.56575" lon="5.86187">
        <ele>445.68</ele>
        <time>2021-11-28T09:31:07Z</time>
      </trkpt>
      <trkpt lat="43.5656" lon="5.86202">
        <ele>447.89</ele>
        <time>2021-11-28T09:31:15Z</time>
      </trkpt>
      <trkpt lat="43.56543" lon="5.86215">
        <ele>452.45</ele>
        <time>2021-11-28T09:31:23Z</time>
      </trkpt>
      <trkpt lat="43.56528" lon="5.86229">
        <ele>454.2</ele>
        <time>2021-11-28T09:31:29Z</time>
      </trkpt>
      <trkpt lat="43.56511" lon="5.86244">
        <ele>450.53</ele>
        <time>2021-11-28T09:31:35Z</time>
      </trkpt>
      <trkpt lat="43.56493" lon="5.86256">
        <ele>448.33</ele>
        <time>2021-11-28T09:31:41Z</time>
      </trkpt>
      <trkpt lat="43.56475" lon="5.86266">
        <ele>446.48</ele>
        <time>2021-11-28T09:31:46Z</time>
      </trkpt>
      <trkpt lat="43.56457" lon="5.86275">
        <ele>444.56</ele>
        <time>2021-11-28T09:31:50Z</time>
      </trkpt>
      <trkpt lat="43.56437" lon="5.86279">
        <ele>441.71</ele>
        <time>2021-11-28T09:31:54Z</time>
      </trkpt>
      <trkpt lat="43.56419" lon="5.86282">
        <ele>439.64</ele>
        <time>2021-11-28T09:31:58Z</time>
      </trkpt>
      <trkpt lat="43.56398" lon="5.86288">
        <ele>436.02</ele>
        <time>2021-11-28T09:32:02Z</time>
      </trkpt>
      <trkpt lat="43.56376" lon="5.86284">
        <ele>433.47</ele>
        <time>2021-11-28T09:32:06Z</time>
      </trkpt>
      <trkpt lat="43.56358" lon="5.86288">
        <ele>431.38</ele>
        <time>2021-11-28T09:32:09Z</time>
      </trkpt>
      <trkpt lat="43.5634" lon="5.86291">
        <ele>430.01</ele>
        <time>2021-11-28T09:32:12Z</time>
      </trkpt>
      <trkpt lat="43.56322" lon="5.8629">
        <ele>428.32</ele>
        <time>2021-11-28T09:32:15Z</time>
      </trkpt>
      <trkpt lat="43.56304" lon="5.86289">
        <ele>426.79</ele>
        <time>2021-11-28T09:32:18Z</time>
      </trkpt>
      <trkpt lat="43.56286" lon="5.86283">
        <ele>425.01</ele>
        <time>2021-11-28T09:32:21Z</time>
      </trkpt>
      <trkpt lat="43.56265" lon="5.86279">
        <ele>424.11</ele>
        <time>2021-11-28T09:32:25Z</time>
      </trkpt>
      <trkpt lat="43.56243" lon="5.86282">
        <ele>425.18</ele>
        <time>2021-11-28T09:32:30Z</time>
      </trkpt>
      <trkpt lat="43.56222" lon="5.86283">
        <ele>426.62</ele>
        <time>2021-11-28T09:32:35Z</time>
      </trkpt>
      <trkpt lat="43.56203" lon="5.86291">
        <ele>427.49</ele>
        <time>2021-11-28T09:32:40Z</time>
      </trkpt>
      <trkpt lat="43.56183" lon="5.86299">
        <ele>427.09</ele>
        <time>2021-11-28T09:32:46Z</time>
      </trkpt>
      <trkpt lat="43.56165" lon="5.86308">
        <ele>426.55</ele>
        <time>2021-11-28T09:32:53Z</time>
      </trkpt>
      <trkpt lat="43.56145" lon="5.86316">
        <ele>425.45</ele>
        <time>2021-11-28T09:33:05Z</time>
      </trkpt>
      <trkpt lat="43.56125" lon="5.86319">
        <ele>423.3</ele>
        <time>2021-11-28T09:33:10Z</time>
      </trkpt>
      <trkpt lat="43.56107" lon="5.86315">
        <ele>421.49</ele>
        <time>2021-11-28T09:33:14Z</time>
      </trkpt>
      <trkpt lat="43.56084" lon="5.86307">
        <ele>418.9</ele>
        <time>2021-11-28T09:33:18Z</time>
      </trkpt>
      <trkpt lat="43.56062" lon="5.86299">
        <ele>415.05</ele>
        <time>2021-11-28T09:33:22Z</time>
      </trkpt>
      <trkpt lat="43.5604" lon="5.86289">
        <ele>412.95</ele>
        <time>2021-11-28T09:33:25Z</time>
      </trkpt>
      <trkpt lat="43.56018" lon="5.86278">
        <ele>411.02</ele>
        <time>2021-11-28T09:33:28Z</time>
      </trkpt>
      <trkpt lat="43.56" lon="5.86272">
        <ele>408.08</ele>
        <time>2021-11-28T09:33:31Z</time>
      </trkpt>
      <trkpt lat="43.55983" lon="5.86266">
        <ele>404.24</ele>
        <time>2021-11-28T09:33:35Z</time>
      </trkpt>
      <trkpt lat="43.55963" lon="5.8626">
        <ele>399.43</ele>
        <time>2021-11-28T09:33:40Z</time>
      </trkpt>
      <trkpt lat="43.55944" lon="5.86256">
        <ele>394.68</ele>
        <time>2021-11-28T09:33:45Z</time>
      </trkpt>
      <trkpt lat="43.55927" lon="5.86248">
        <ele>391.46</ele>
        <time>2021-11-28T09:33:51Z</time>
      </trkpt>
      <trkpt lat="43.55917" lon="5.86272">
        <ele>389.34</ele>
        <time>2021-11-28T09:33:57Z</time>
      </trkpt>
      <trkpt lat="43.55915" lon="5.86302">
        <ele>388.31</ele>
        <time>2021-11-28T09:34:03Z</time>
      </trkpt>
      <trkpt lat="43.55917" lon="5.8633">
        <ele>387.97</ele>
        <time>2021-11-28T09:34:08Z</time>
      </trkpt>
      <trkpt lat="43.5592" lon="5.86355">
        <ele>387.04</ele>
        <time>2021-11-28T09:34:12Z</time>
      </trkpt>
      <trkpt lat="43.5593" lon="5.86378">
        <ele>386.32</ele>
        <time>2021-11-28T09:34:16Z</time>
      </trkpt>
      <trkpt lat="43.55943" lon="5.864">
        <ele>385.87</ele>
        <time>2021-11-28T09:34:21Z</time>
      </trkpt>
      <trkpt lat="43.55954" lon="5.86425">
        <ele>386.04</ele>
        <time>2021-11-28T09:34:26Z</time>
      </trkpt>
      <trkpt lat="43.55973" lon="5.86439">
        <ele>385.91</ele>
        <time>2021-11-28T09:34:31Z</time>
      </trkpt>
      <trkpt lat="43.55991" lon="5.86452">
        <ele>385.47</ele>
        <time>2021-11-28T09:34:36Z</time>
      </trkpt>
      <trkpt lat="43.5601" lon="5.86455">
        <ele>386.8</ele>
        <time>2021-11-28T09:34:42Z</time>
      </trkpt>
      <trkpt lat="43.56027" lon="5.86463">
        <ele>387.31</ele>
        <time>2021-11-28T09:34:47Z</time>
      </trkpt>
      <trkpt lat="43.56037" lon="5.86485">
        <ele>387.92</ele>
        <time>2021-11-28T09:34:58Z</time>
      </trkpt>
      <trkpt lat="43.56041" lon="5.86512">
        <ele>388.96</ele>
        <time>2021-11-28T09:35:06Z</time>
      </trkpt>
      <trkpt lat="43.56059" lon="5.86526">
        <ele>389.63</ele>
        <time>2021-11-28T09:35:13Z</time>
      </trkpt>
      <trkpt lat="43.56073" lon="5.86542">
        <ele>389.49</ele>
        <time>2021-11-28T09:35:19Z</time>
      </trkpt>
      <trkpt lat="43.56082" lon="5.86569">
        <ele>389.56</ele>
        <time>2021-11-28T09:35:24Z</time>
      </trkpt>
      <trkpt lat="43.56084" lon="5.86595">
        <ele>388.99</ele>
        <time>2021-11-28T09:35:28Z</time>
      </trkpt>
      <trkpt lat="43.56083" lon="5.86623">
        <ele>388.12</ele>
        <time>2021-11-28T09:35:32Z</time>
      </trkpt>
      <trkpt lat="43.5606" lon="5.86625">
        <ele>387.4</ele>
        <time>2021-11-28T09:35:37Z</time>
      </trkpt>
      <trkpt lat="43.5604" lon="5.86622">
        <ele>387.07</ele>
        <time>2021-11-28T09:35:41Z</time>
      </trkpt>
      <trkpt lat="43.56021" lon="5.86624">
        <ele>387.13</ele>
        <time>2021-11-28T09:35:45Z</time>
      </trkpt>
      <trkpt lat="43.56002" lon="5.86616">
        <ele>387.09</ele>
        <time>2021-11-28T09:35:49Z</time>
      </trkpt>
      <trkpt lat="43.55983" lon="5.86624">
        <ele>386.67</ele>
        <time>2021-11-28T09:35:55Z</time>
      </trkpt>
      <trkpt lat="43.55967" lon="5.86638">
        <ele>387.44</ele>
        <time>2021-11-28T09:36:00Z</time>
      </trkpt>
      <trkpt lat="43.55947" lon="5.86651">
        <ele>388.32</ele>
        <time>2021-11-28T09:36:05Z</time>
      </trkpt>
      <trkpt lat="43.55929" lon="5.86659">
        <ele>388.45</ele>
        <time>2021-11-28T09:36:08Z</time>
      </trkpt>
      <trkpt lat="43.55908" lon="5.86667">
        <ele>388.01</ele>
        <time>2021-11-28T09:36:12Z</time>
      </trkpt>
      <trkpt lat="43.55894" lon="5.86685">
        <ele>387.65</ele>
        <time>2021-11-28T09:36:17Z</time>
      </trkpt>
      <trkpt lat="43.55884" lon="5.86707">
        <ele>388.52</ele>
        <time>2021-11-28T09:36:22Z</time>
      </trkpt>
      <trkpt lat="43.55869" lon="5.86722">
        <ele>389.65</ele>
        <time>2021-11-28T09:36:27Z</time>
      </trkpt>
      <trkpt lat="43.5585" lon="5.86723">
        <ele>390.12</ele>
        <time>2021-11-28T09:36:31Z</time>
      </trkpt>
      <trkpt lat="43.5583" lon="5.86728">
        <ele>390.74</ele>
        <time>2021-11-28T09:36:35Z</time>
      </trkpt>
      <trkpt lat="43.55811" lon="5.8673">
        <ele>390.94</ele>
        <time>2021-11-28T09:36:39Z</time>
      </trkpt>
      <trkpt lat="43.558" lon="5.86752">
        <ele>392.25</ele>
        <time>2021-11-28T09:36:44Z</time>
      </trkpt>
      <trkpt lat="43.55791" lon="5.8678">
        <ele>393.22</ele>
        <time>2021-11-28T09:36:49Z</time>
      </trkpt>
      <trkpt lat="43.55782" lon="5.86803">
        <ele>394.31</ele>
        <time>2021-11-28T09:36:53Z</time>
      </trkpt>
      <trkpt lat="43.55774" lon="5.86828">
        <ele>395.59</ele>
        <time>2021-11-28T09:36:57Z</time>
      </trkpt>
      <trkpt lat="43.55768" lon="5.86854">
        <ele>396.79</ele>
        <time>2021-11-28T09:37:01Z</time>
      </trkpt>
      <trkpt lat="43.55765" lon="5.8688">
        <ele>397.6</ele>
        <time>2021-11-28T09:37:04Z</time>
      </trkpt>
      <trkpt lat="43.55763" lon="5.86911">
        <ele>398.5</ele>
        <time>2021-11-28T09:37:08Z</time>
      </trkpt>
      <trkpt lat="43.55761" lon="5.86938">
        <ele>398.71</ele>
        <time>2021-11-28T09:37:12Z</time>
      </trkpt>
      <trkpt lat="43.5576" lon="5.86966">
        <ele>398.41</ele>
        <time>2021-11-28T09:37:17Z</time>
      </trkpt>
      <trkpt lat="43.55761" lon="5.86996">
        <ele>396.96</ele>
        <time>2021-11-28T09:37:22Z</time>
      </trkpt>
      <trkpt lat="43.55769" lon="5.87021">
        <ele>396.01</ele>
        <time>2021-11-28T09:37:27Z</time>
      </trkpt>
      <trkpt lat="43.55784" lon="5.8704">
        <ele>395.07</ele>
        <time>2021-11-28T09:37:35Z</time>
      </trkpt>
      <trkpt lat="43.55801" lon="5.87057">
        <ele>395.09</ele>
        <time>2021-11-28T09:37:41Z</time>
      </trkpt>
      <trkpt lat="43.55814" lon="5.87077">
        <ele>395.84</ele>
        <time>2021-11-28T09:37:46Z</time>
      </trkpt>
      <trkpt lat="43.55821" lon="5.87103">
        <ele>396.15</ele>
        <time>2021-11-28T09:37:49Z</time>
      </trkpt>
      <trkpt lat="43.5582" lon="5.8713">
        <ele>395.55</ele>
        <time>2021-11-28T09:37:54Z</time>
      </trkpt>
      <trkpt lat="43.558" lon="5.87135">
        <ele>396.08</ele>
        <time>2021-11-28T09:38:01Z</time>
      </trkpt>
      <trkpt lat="43.55781" lon="5.87142">
        <ele>388.37</ele>
        <time>2021-11-28T09:38:46Z</time>
      </trkpt>
      <trkpt lat="43.55783" lon="5.8717">
        <ele>377.15</ele>
        <time>2021-11-28T09:40:24Z</time>
      </trkpt>
      <trkpt lat="43.55767" lon="5.87185">
        <ele>378.36</ele>
        <time>2021-11-28T09:40:34Z</time>
      </trkpt>
      <trkpt lat="43.55746" lon="5.87188">
        <ele>378.65</ele>
        <time>2021-11-28T09:40:40Z</time>
      </trkpt>
      <trkpt lat="43.55726" lon="5.8719">
        <ele>378.2</ele>
        <time>2021-11-28T09:40:45Z</time>
      </trkpt>
      <trkpt lat="43.55705" lon="5.87197">
        <ele>376.57</ele>
        <time>2021-11-28T09:40:50Z</time>
      </trkpt>
      <trkpt lat="43.55687" lon="5.87207">
        <ele>376.82</ele>
        <time>2021-11-28T09:40:55Z</time>
      </trkpt>
      <trkpt lat="43.55672" lon="5.87227">
        <ele>377.55</ele>
        <time>2021-11-28T09:41:01Z</time>
      </trkpt>
      <trkpt lat="43.55659" lon="5.87245">
        <ele>378</ele>
        <time>2021-11-28T09:41:06Z</time>
      </trkpt>
      <trkpt lat="43.55647" lon="5.87268">
        <ele>379.28</ele>
        <time>2021-11-28T09:41:11Z</time>
      </trkpt>
      <trkpt lat="43.55645" lon="5.87296">
        <ele>380.44</ele>
        <time>2021-11-28T09:41:16Z</time>
      </trkpt>
      <trkpt lat="43.5564" lon="5.87323">
        <ele>380.55</ele>
        <time>2021-11-28T09:41:21Z</time>
      </trkpt>
      <trkpt lat="43.5564" lon="5.87349">
        <ele>380.53</ele>
        <time>2021-11-28T09:41:28Z</time>
      </trkpt>
      <trkpt lat="43.55637" lon="5.87379">
        <ele>381.04</ele>
        <time>2021-11-28T09:41:34Z</time>
      </trkpt>
      <trkpt lat="43.55642" lon="5.87406">
        <ele>381.87</ele>
        <time>2021-11-28T09:41:40Z</time>
      </trkpt>
      <trkpt lat="43.55642" lon="5.87434">
        <ele>382.44</ele>
        <time>2021-11-28T09:41:45Z</time>
      </trkpt>
      <trkpt lat="43.55638" lon="5.8746">
        <ele>382.94</ele>
        <time>2021-11-28T09:41:50Z</time>
      </trkpt>
      <trkpt lat="43.55636" lon="5.87485">
        <ele>383.53</ele>
        <time>2021-11-28T09:41:55Z</time>
      </trkpt>
      <trkpt lat="43.55635" lon="5.8751">
        <ele>383.94</ele>
        <time>2021-11-28T09:42:00Z</time>
      </trkpt>
      <trkpt lat="43.55636" lon="5.87535">
        <ele>383.77</ele>
        <time>2021-11-28T09:42:06Z</time>
      </trkpt>
      <trkpt lat="43.55638" lon="5.87564">
        <ele>382.6</ele>
        <time>2021-11-28T09:42:13Z</time>
      </trkpt>
      <trkpt lat="43.55634" lon="5.87588">
        <ele>382.5</ele>
        <time>2021-11-28T09:42:20Z</time>
      </trkpt>
      <trkpt lat="43.55631" lon="5.87614">
        <ele>382.85</ele>
        <time>2021-11-28T09:42:27Z</time>
      </trkpt>
      <trkpt lat="43.55623" lon="5.87637">
        <ele>379.27</ele>
        <time>2021-11-28T09:43:28Z</time>
      </trkpt>
      <trkpt lat="43.55618" lon="5.87664">
        <ele>378.65</ele>
        <time>2021-11-28T09:43:37Z</time>
      </trkpt>
      <trkpt lat="43.55616" lon="5.8769">
        <ele>379.15</ele>
        <time>2021-11-28T09:43:43Z</time>
      </trkpt>
      <trkpt lat="43.5561" lon="5.87715">
        <ele>379.36</ele>
        <time>2021-11-28T09:43:49Z</time>
      </trkpt>
      <trkpt lat="43.55602" lon="5.87738">
        <ele>379.75</ele>
        <time>2021-11-28T09:43:55Z</time>
      </trkpt>
      <trkpt lat="43.55593" lon="5.87762">
        <ele>380.52</ele>
        <time>2021-11-28T09:44:02Z</time>
      </trkpt>
      <trkpt lat="43.55586" lon="5.87788">
        <ele>381.44</ele>
        <time>2021-11-28T09:44:08Z</time>
      </trkpt>
      <trkpt lat="43.55577" lon="5.8781">
        <ele>382.34</ele>
        <time>2021-11-28T09:44:14Z</time>
      </trkpt>
      <trkpt lat="43.55567" lon="5.87831">
        <ele>383.25</ele>
        <time>2021-11-28T09:44:21Z</time>
      </trkpt>
      <trkpt lat="43.55557" lon="5.87855">
        <ele>384.76</ele>
        <time>2021-11-28T09:44:30Z</time>
      </trkpt>
      <trkpt lat="43.55544" lon="5.87876">
        <ele>386.22</ele>
        <time>2021-11-28T09:44:38Z</time>
      </trkpt>
      <trkpt lat="43.55539" lon="5.87904">
        <ele>387.24</ele>
        <time>2021-11-28T09:44:46Z</time>
      </trkpt>
      <trkpt lat="43.55533" lon="5.87928">
        <ele>387.01</ele>
        <time>2021-11-28T09:44:53Z</time>
      </trkpt>
      <trkpt lat="43.55535" lon="5.87954">
        <ele>386.57</ele>
        <time>2021-11-28T09:44:59Z</time>
      </trkpt>
      <trkpt lat="43.55538" lon="5.8798">
        <ele>386.59</ele>
        <time>2021-11-28T09:45:04Z</time>
      </trkpt>
      <trkpt lat="43.55545" lon="5.88003">
        <ele>386.47</ele>
        <time>2021-11-28T09:45:09Z</time>
      </trkpt>
      <trkpt lat="43.55552" lon="5.8803">
        <ele>386.29</ele>
        <time>2021-11-28T09:45:15Z</time>
      </trkpt>
      <trkpt lat="43.55565" lon="5.88047">
        <ele>386.15</ele>
        <time>2021-11-28T09:45:21Z</time>
      </trkpt>
      <trkpt lat="43.55578" lon="5.88064">
        <ele>386.62</ele>
        <time>2021-11-28T09:45:26Z</time>
      </trkpt>
      <trkpt lat="43.55595" lon="5.88075">
        <ele>387.53</ele>
        <time>2021-11-28T09:45:32Z</time>
      </trkpt>
      <trkpt lat="43.55613" lon="5.88069">
        <ele>387.2</ele>
        <time>2021-11-28T09:45:39Z</time>
      </trkpt>
      <trkpt lat="43.5563" lon="5.88079">
        <ele>386.53</ele>
        <time>2021-11-28T09:45:47Z</time>
      </trkpt>
      <trkpt lat="43.55641" lon="5.88102">
        <ele>387.24</ele>
        <time>2021-11-28T09:45:53Z</time>
      </trkpt>
      <trkpt lat="43.5565" lon="5.88126">
        <ele>387.85</ele>
        <time>2021-11-28T09:45:58Z</time>
      </trkpt>
      <trkpt lat="43.55658" lon="5.88152">
        <ele>388.92</ele>
        <time>2021-11-28T09:46:04Z</time>
      </trkpt>
      <trkpt lat="43.55665" lon="5.88177">
        <ele>389.25</ele>
        <time>2021-11-28T09:46:09Z</time>
      </trkpt>
      <trkpt lat="43.55668" lon="5.88204">
        <ele>389.37</ele>
        <time>2021-11-28T09:46:15Z</time>
      </trkpt>
      <trkpt lat="43.55669" lon="5.8823">
        <ele>389.53</ele>
        <time>2021-11-28T09:46:21Z</time>
      </trkpt>
      <trkpt lat="43.55679" lon="5.88251">
        <ele>390.24</ele>
        <time>2021-11-28T09:46:28Z</time>
      </trkpt>
      <trkpt lat="43.55694" lon="5.88268">
        <ele>391.54</ele>
        <time>2021-11-28T09:46:37Z</time>
      </trkpt>
      <trkpt lat="43.55702" lon="5.88295">
        <ele>392.27</ele>
        <time>2021-11-28T09:46:44Z</time>
      </trkpt>
      <trkpt lat="43.55713" lon="5.88317">
        <ele>392.66</ele>
        <time>2021-11-28T09:46:53Z</time>
      </trkpt>
      <trkpt lat="43.55718" lon="5.88342">
        <ele>394.52</ele>
        <time>2021-11-28T09:47:01Z</time>
      </trkpt>
      <trkpt lat="43.55729" lon="5.88362">
        <ele>395.82</ele>
        <time>2021-11-28T09:47:10Z</time>
      </trkpt>
      <trkpt lat="43.5574" lon="5.88387">
        <ele>397.34</ele>
        <time>2021-11-28T09:47:18Z</time>
      </trkpt>
      <trkpt lat="43.55744" lon="5.88412">
        <ele>398.42</ele>
        <time>2021-11-28T09:47:24Z</time>
      </trkpt>
      <trkpt lat="43.55749" lon="5.88437">
        <ele>398.92</ele>
        <time>2021-11-28T09:47:30Z</time>
      </trkpt>
      <trkpt lat="43.55754" lon="5.88464">
        <ele>398.87</ele>
        <time>2021-11-28T09:47:38Z</time>
      </trkpt>
      <trkpt lat="43.55759" lon="5.8849">
        <ele>398.57</ele>
        <time>2021-11-28T09:47:45Z</time>
      </trkpt>
      <trkpt lat="43.55766" lon="5.88516">
        <ele>399.05</ele>
        <time>2021-11-28T09:47:53Z</time>
      </trkpt>
      <trkpt lat="43.55774" lon="5.88541">
        <ele>400.12</ele>
        <time>2021-11-28T09:48:02Z</time>
      </trkpt>
      <trkpt lat="43.55785" lon="5.88561">
        <ele>401.43</ele>
        <time>2021-11-28T09:48:11Z</time>
      </trkpt>
      <trkpt lat="43.55804" lon="5.88566">
        <ele>403.71</ele>
        <time>2021-11-28T09:48:26Z</time>
      </trkpt>
      <trkpt lat="43.55822" lon="5.8857">
        <ele>407.35</ele>
        <time>2021-11-28T09:48:40Z</time>
      </trkpt>
      <trkpt lat="43.55838" lon="5.88586">
        <ele>410.28</ele>
        <time>2021-11-28T09:48:52Z</time>
      </trkpt>
      <trkpt lat="43.55852" lon="5.88603">
        <ele>413.27</ele>
        <time>2021-11-28T09:49:03Z</time>
      </trkpt>
      <trkpt lat="43.5587" lon="5.88614">
        <ele>414.75</ele>
        <time>2021-11-28T09:49:12Z</time>
      </trkpt>
      <trkpt lat="43.55887" lon="5.88622">
        <ele>415.55</ele>
        <time>2021-11-28T09:49:20Z</time>
      </trkpt>
      <trkpt lat="43.55904" lon="5.88632">
        <ele>416.7</ele>
        <time>2021-11-28T09:49:28Z</time>
      </trkpt>
      <trkpt lat="43.55922" lon="5.88641">
        <ele>416.26</ele>
        <time>2021-11-28T09:49:34Z</time>
      </trkpt>
      <trkpt lat="43.5594" lon="5.88653">
        <ele>416.14</ele>
        <time>2021-11-28T09:49:41Z</time>
      </trkpt>
      <trkpt lat="43.55957" lon="5.88665">
        <ele>416.38</ele>
        <time>2021-11-28T09:49:47Z</time>
      </trkpt>
      <trkpt lat="43.55976" lon="5.88673">
        <ele>416.14</ele>
        <time>2021-11-28T09:49:53Z</time>
      </trkpt>
      <trkpt lat="43.55996" lon="5.88678">
        <ele>415.34</ele>
        <time>2021-11-28T09:49:59Z</time>
      </trkpt>
      <trkpt lat="43.56014" lon="5.8868">
        <ele>414.02</ele>
        <time>2021-11-28T09:50:05Z</time>
      </trkpt>
      <trkpt lat="43.56033" lon="5.8868">
        <ele>413.94</ele>
        <time>2021-11-28T09:50:13Z</time>
      </trkpt>
      <trkpt lat="43.56047" lon="5.88695">
        <ele>410.7</ele>
        <time>2021-11-28T09:50:22Z</time>
      </trkpt>
      <trkpt lat="43.56034" lon="5.88714">
        <ele>406.32</ele>
        <time>2021-11-28T09:50:37Z</time>
      </trkpt>
      <trkpt lat="43.56015" lon="5.88719">
        <ele>406.36</ele>
        <time>2021-11-28T09:50:47Z</time>
      </trkpt>
      <trkpt lat="43.55997" lon="5.88727">
        <ele>407.14</ele>
        <time>2021-11-28T09:50:56Z</time>
      </trkpt>
      <trkpt lat="43.55978" lon="5.88728">
        <ele>408.02</ele>
        <time>2021-11-28T09:51:03Z</time>
      </trkpt>
      <trkpt lat="43.55959" lon="5.88729">
        <ele>409.41</ele>
        <time>2021-11-28T09:51:10Z</time>
      </trkpt>
      <trkpt lat="43.55939" lon="5.88726">
        <ele>410.96</ele>
        <time>2021-11-28T09:51:17Z</time>
      </trkpt>
      <trkpt lat="43.55919" lon="5.88721">
        <ele>413.02</ele>
        <time>2021-11-28T09:51:24Z</time>
      </trkpt>
      <trkpt lat="43.55901" lon="5.88728">
        <ele>414.75</ele>
        <time>2021-11-28T09:51:31Z</time>
      </trkpt>
      <trkpt lat="43.55882" lon="5.88738">
        <ele>416.9</ele>
        <time>2021-11-28T09:51:38Z</time>
      </trkpt>
      <trkpt lat="43.55863" lon="5.8875">
        <ele>418.11</ele>
        <time>2021-11-28T09:51:43Z</time>
      </trkpt>
      <trkpt lat="43.55846" lon="5.88765">
        <ele>418.57</ele>
        <time>2021-11-28T09:51:48Z</time>
      </trkpt>
      <trkpt lat="43.55828" lon="5.88777">
        <ele>418.94</ele>
        <time>2021-11-28T09:51:54Z</time>
      </trkpt>
      <trkpt lat="43.55809" lon="5.88784">
        <ele>419.05</ele>
        <time>2021-11-28T09:51:59Z</time>
      </trkpt>
      <trkpt lat="43.55789" lon="5.88789">
        <ele>419.19</ele>
        <time>2021-11-28T09:52:05Z</time>
      </trkpt>
      <trkpt lat="43.55769" lon="5.88797">
        <ele>416.69</ele>
        <time>2021-11-28T09:52:10Z</time>
      </trkpt>
      <trkpt lat="43.55749" lon="5.88805">
        <ele>415.14</ele>
        <time>2021-11-28T09:52:15Z</time>
      </trkpt>
      <trkpt lat="43.5573" lon="5.88809">
        <ele>414.12</ele>
        <time>2021-11-28T09:52:19Z</time>
      </trkpt>
      <trkpt lat="43.5571" lon="5.88807">
        <ele>412.66</ele>
        <time>2021-11-28T09:52:23Z</time>
      </trkpt>
      <trkpt lat="43.5569" lon="5.88807">
        <ele>412.09</ele>
        <time>2021-11-28T09:52:28Z</time>
      </trkpt>
      <trkpt lat="43.55675" lon="5.88823">
        <ele>411.51</ele>
        <time>2021-11-28T09:52:32Z</time>
      </trkpt>
      <trkpt lat="43.5566" lon="5.88839">
        <ele>411.21</ele>
        <time>2021-11-28T09:52:36Z</time>
      </trkpt>
      <trkpt lat="43.55646" lon="5.88854">
        <ele>410.2</ele>
        <time>2021-11-28T09:52:40Z</time>
      </trkpt>
      <trkpt lat="43.55625" lon="5.88866">
        <ele>408.97</ele>
        <time>2021-11-28T09:52:45Z</time>
      </trkpt>
      <trkpt lat="43.5561" lon="5.88882">
        <ele>408.58</ele>
        <time>2021-11-28T09:52:49Z</time>
      </trkpt>
      <trkpt lat="43.55594" lon="5.88901">
        <ele>408.12</ele>
        <time>2021-11-28T09:52:53Z</time>
      </trkpt>
      <trkpt lat="43.55579" lon="5.88917">
        <ele>407.05</ele>
        <time>2021-11-28T09:52:57Z</time>
      </trkpt>
      <trkpt lat="43.55562" lon="5.8893">
        <ele>405.69</ele>
        <time>2021-11-28T09:53:01Z</time>
      </trkpt>
      <trkpt lat="43.55543" lon="5.88933">
        <ele>403.12</ele>
        <time>2021-11-28T09:53:05Z</time>
      </trkpt>
      <trkpt lat="43.55523" lon="5.88933">
        <ele>400.7</ele>
        <time>2021-11-28T09:53:09Z</time>
      </trkpt>
      <trkpt lat="43.55505" lon="5.88948">
        <ele>398.61</ele>
        <time>2021-11-28T09:53:14Z</time>
      </trkpt>
      <trkpt lat="43.55484" lon="5.88959">
        <ele>397.62</ele>
        <time>2021-11-28T09:53:19Z</time>
      </trkpt>
      <trkpt lat="43.55465" lon="5.88975">
        <ele>396.45</ele>
        <time>2021-11-28T09:53:23Z</time>
      </trkpt>
      <trkpt lat="43.55447" lon="5.88993">
        <ele>394.8</ele>
        <time>2021-11-28T09:53:27Z</time>
      </trkpt>
      <trkpt lat="43.55429" lon="5.89004">
        <ele>393</ele>
        <time>2021-11-28T09:53:30Z</time>
      </trkpt>
      <trkpt lat="43.55412" lon="5.89015">
        <ele>391.35</ele>
        <time>2021-11-28T09:53:33Z</time>
      </trkpt>
      <trkpt lat="43.55392" lon="5.89024">
        <ele>389.44</ele>
        <time>2021-11-28T09:53:36Z</time>
      </trkpt>
      <trkpt lat="43.55373" lon="5.89033">
        <ele>387.47</ele>
        <time>2021-11-28T09:53:39Z</time>
      </trkpt>
      <trkpt lat="43.55354" lon="5.89041">
        <ele>385.82</ele>
        <time>2021-11-28T09:53:42Z</time>
      </trkpt>
      <trkpt lat="43.55333" lon="5.89053">
        <ele>384.09</ele>
        <time>2021-11-28T09:53:46Z</time>
      </trkpt>
      <trkpt lat="43.55311" lon="5.8906">
        <ele>382.17</ele>
        <time>2021-11-28T09:53:50Z</time>
      </trkpt>
      <trkpt lat="43.55292" lon="5.89065">
        <ele>375.12</ele>
        <time>2021-11-28T09:54:48Z</time>
      </trkpt>
      <trkpt lat="43.55276" lon="5.89056">
        <ele>374.67</ele>
        <time>2021-11-28T09:54:52Z</time>
      </trkpt>
      <trkpt lat="43.55258" lon="5.89035">
        <ele>374.29</ele>
        <time>2021-11-28T09:54:56Z</time>
      </trkpt>
      <trkpt lat="43.55246" lon="5.89014">
        <ele>374.45</ele>
        <time>2021-11-28T09:55:00Z</time>
      </trkpt>
      <trkpt lat="43.55241" lon="5.8899">
        <ele>375.24</ele>
        <time>2021-11-28T09:55:05Z</time>
      </trkpt>
      <trkpt lat="43.5524" lon="5.88963">
        <ele>375.66</ele>
        <time>2021-11-28T09:55:11Z</time>
      </trkpt>
      <trkpt lat="43.55233" lon="5.88939">
        <ele>376.74</ele>
        <time>2021-11-28T09:55:18Z</time>
      </trkpt>
      <trkpt lat="43.55216" lon="5.88927">
        <ele>378.9</ele>
        <time>2021-11-28T09:55:27Z</time>
      </trkpt>
      <trkpt lat="43.55202" lon="5.88909">
        <ele>381.45</ele>
        <time>2021-11-28T09:55:36Z</time>
      </trkpt>
      <trkpt lat="43.55187" lon="5.88896">
        <ele>384.4</ele>
        <time>2021-11-28T09:55:48Z</time>
      </trkpt>
      <trkpt lat="43.55172" lon="5.88879">
        <ele>387.72</ele>
        <time>2021-11-28T09:55:58Z</time>
      </trkpt>
      <trkpt lat="43.55162" lon="5.88856">
        <ele>386.41</ele>
        <time>2021-11-28T09:56:05Z</time>
      </trkpt>
      <trkpt lat="43.55144" lon="5.88847">
        <ele>385.54</ele>
        <time>2021-11-28T09:56:09Z</time>
      </trkpt>
      <trkpt lat="43.55124" lon="5.88837">
        <ele>383.57</ele>
        <time>2021-11-28T09:56:13Z</time>
      </trkpt>
      <trkpt lat="43.55106" lon="5.88828">
        <ele>381.8</ele>
        <time>2021-11-28T09:56:16Z</time>
      </trkpt>
      <trkpt lat="43.55088" lon="5.88817">
        <ele>380.19</ele>
        <time>2021-11-28T09:56:19Z</time>
      </trkpt>
      <trkpt lat="43.55073" lon="5.88803">
        <ele>378.3</ele>
        <time>2021-11-28T09:56:22Z</time>
      </trkpt>
      <trkpt lat="43.55053" lon="5.8879">
        <ele>376.09</ele>
        <time>2021-11-28T09:56:26Z</time>
      </trkpt>
      <trkpt lat="43.55033" lon="5.88774">
        <ele>374.45</ele>
        <time>2021-11-28T09:56:30Z</time>
      </trkpt>
      <trkpt lat="43.55017" lon="5.88757">
        <ele>371.71</ele>
        <time>2021-11-28T09:56:34Z</time>
      </trkpt>
      <trkpt lat="43.55001" lon="5.88769">
        <ele>363.59</ele>
        <time>2021-11-28T09:57:03Z</time>
      </trkpt>
      <trkpt lat="43.54987" lon="5.88788">
        <ele>363.27</ele>
        <time>2021-11-28T09:57:08Z</time>
      </trkpt>
      <trkpt lat="43.54974" lon="5.88808">
        <ele>362.99</ele>
        <time>2021-11-28T09:57:12Z</time>
      </trkpt>
      <trkpt lat="43.54959" lon="5.88827">
        <ele>362.02</ele>
        <time>2021-11-28T09:57:16Z</time>
      </trkpt>
      <trkpt lat="43.54941" lon="5.88829">
        <ele>360.62</ele>
        <time>2021-11-28T09:57:21Z</time>
      </trkpt>
      <trkpt lat="43.54923" lon="5.88826">
        <ele>358.98</ele>
        <time>2021-11-28T09:57:31Z</time>
      </trkpt>
      <trkpt lat="43.54913" lon="5.88803">
        <ele>357.17</ele>
        <time>2021-11-28T09:57:41Z</time>
      </trkpt>
      <trkpt lat="43.54908" lon="5.88777">
        <ele>358.9</ele>
        <time>2021-11-28T09:57:51Z</time>
      </trkpt>
      <trkpt lat="43.54902" lon="5.88751">
        <ele>360.06</ele>
        <time>2021-11-28T09:58:02Z</time>
      </trkpt>
      <trkpt lat="43.54891" lon="5.88729">
        <ele>361.88</ele>
        <time>2021-11-28T09:58:14Z</time>
      </trkpt>
      <trkpt lat="43.54883" lon="5.88704">
        <ele>364.6</ele>
        <time>2021-11-28T09:58:24Z</time>
      </trkpt>
      <trkpt lat="43.54875" lon="5.8868">
        <ele>367.3</ele>
        <time>2021-11-28T09:58:35Z</time>
      </trkpt>
      <trkpt lat="43.54874" lon="5.88654">
        <ele>370.23</ele>
        <time>2021-11-28T09:58:45Z</time>
      </trkpt>
      <trkpt lat="43.54866" lon="5.88631">
        <ele>372.8</ele>
        <time>2021-11-28T09:58:57Z</time>
      </trkpt>
      <trkpt lat="43.54861" lon="5.88606">
        <ele>375.75</ele>
        <time>2021-11-28T09:59:09Z</time>
      </trkpt>
      <trkpt lat="43.54853" lon="5.88584">
        <ele>378.64</ele>
        <time>2021-11-28T09:59:20Z</time>
      </trkpt>
      <trkpt lat="43.54846" lon="5.88558">
        <ele>381.78</ele>
        <time>2021-11-28T09:59:33Z</time>
      </trkpt>
      <trkpt lat="43.5483" lon="5.88544">
        <ele>384.79</ele>
        <time>2021-11-28T09:59:46Z</time>
      </trkpt>
      <trkpt lat="43.54829" lon="5.88518">
        <ele>387.12</ele>
        <time>2021-11-28T09:59:59Z</time>
      </trkpt>
      <trkpt lat="43.54836" lon="5.88493">
        <ele>390.91</ele>
        <time>2021-11-28T10:00:13Z</time>
      </trkpt>
      <trkpt lat="43.54835" lon="5.88468">
        <ele>396.14</ele>
        <time>2021-11-28T10:00:31Z</time>
      </trkpt>
      <trkpt lat="43.54826" lon="5.88446">
        <ele>397.68</ele>
        <time>2021-11-28T10:00:44Z</time>
      </trkpt>
      <trkpt lat="43.54817" lon="5.88423">
        <ele>399.6</ele>
        <time>2021-11-28T10:00:58Z</time>
      </trkpt>
      <trkpt lat="43.54803" lon="5.88405">
        <ele>402.46</ele>
        <time>2021-11-28T10:01:11Z</time>
      </trkpt>
      <trkpt lat="43.54793" lon="5.88384">
        <ele>403.25</ele>
        <time>2021-11-28T10:01:24Z</time>
      </trkpt>
      <trkpt lat="43.54786" lon="5.88361">
        <ele>404.08</ele>
        <time>2021-11-28T10:01:35Z</time>
      </trkpt>
      <trkpt lat="43.54778" lon="5.88336">
        <ele>402.54</ele>
        <time>2021-11-28T10:01:46Z</time>
      </trkpt>
      <trkpt lat="43.54769" lon="5.88313">
        <ele>400.89</ele>
        <time>2021-11-28T10:01:56Z</time>
      </trkpt>
      <trkpt lat="43.54759" lon="5.88293">
        <ele>399.43</ele>
        <time>2021-11-28T10:02:04Z</time>
      </trkpt>
      <trkpt lat="43.54759" lon="5.88265">
        <ele>400.22</ele>
        <time>2021-11-28T10:02:12Z</time>
      </trkpt>
      <trkpt lat="43.54764" lon="5.8824">
        <ele>401.8</ele>
        <time>2021-11-28T10:02:20Z</time>
      </trkpt>
      <trkpt lat="43.54764" lon="5.88214">
        <ele>403.8</ele>
        <time>2021-11-28T10:02:30Z</time>
      </trkpt>
      <trkpt lat="43.54759" lon="5.88189">
        <ele>405.15</ele>
        <time>2021-11-28T10:02:39Z</time>
      </trkpt>
      <trkpt lat="43.54752" lon="5.88164">
        <ele>406.53</ele>
        <time>2021-11-28T10:02:49Z</time>
      </trkpt>
      <trkpt lat="43.54752" lon="5.88135">
        <ele>406.59</ele>
        <time>2021-11-28T10:02:57Z</time>
      </trkpt>
      <trkpt lat="43.5475" lon="5.8811">
        <ele>405.88</ele>
        <time>2021-11-28T10:03:05Z</time>
      </trkpt>
      <trkpt lat="43.54754" lon="5.88083">
        <ele>406.42</ele>
        <time>2021-11-28T10:03:12Z</time>
      </trkpt>
      <trkpt lat="43.54755" lon="5.88056">
        <ele>405.25</ele>
        <time>2021-11-28T10:03:20Z</time>
      </trkpt>
      <trkpt lat="43.54746" lon="5.88032">
        <ele>404.33</ele>
        <time>2021-11-28T10:03:30Z</time>
      </trkpt>
      <trkpt lat="43.54748" lon="5.88005">
        <ele>405.4</ele>
        <time>2021-11-28T10:03:38Z</time>
      </trkpt>
      <trkpt lat="43.54742" lon="5.8798">
        <ele>404.87</ele>
        <time>2021-11-28T10:03:47Z</time>
      </trkpt>
      <trkpt lat="43.54726" lon="5.87964">
        <ele>404.48</ele>
        <time>2021-11-28T10:03:55Z</time>
      </trkpt>
      <trkpt lat="43.54712" lon="5.87944">
        <ele>403.87</ele>
        <time>2021-11-28T10:04:04Z</time>
      </trkpt>
      <trkpt lat="43.54702" lon="5.87922">
        <ele>403.45</ele>
        <time>2021-11-28T10:04:13Z</time>
      </trkpt>
      <trkpt lat="43.54689" lon="5.87905">
        <ele>402.98</ele>
        <time>2021-11-28T10:04:21Z</time>
      </trkpt>
      <trkpt lat="43.54674" lon="5.87889">
        <ele>403.47</ele>
        <time>2021-11-28T10:04:30Z</time>
      </trkpt>
      <trkpt lat="43.54671" lon="5.87864">
        <ele>401.57</ele>
        <time>2021-11-28T10:07:02Z</time>
      </trkpt>
      <trkpt lat="43.54682" lon="5.87842">
        <ele>401.75</ele>
        <time>2021-11-28T10:07:09Z</time>
      </trkpt>
      <trkpt lat="43.54696" lon="5.87825">
        <ele>402.35</ele>
        <time>2021-11-28T10:07:15Z</time>
      </trkpt>
      <trkpt lat="43.54705" lon="5.87801">
        <ele>401.71</ele>
        <time>2021-11-28T10:07:20Z</time>
      </trkpt>
      <trkpt lat="43.5471" lon="5.87777">
        <ele>400.56</ele>
        <time>2021-11-28T10:07:24Z</time>
      </trkpt>
      <trkpt lat="43.54718" lon="5.87749">
        <ele>399.32</ele>
        <time>2021-11-28T10:07:29Z</time>
      </trkpt>
      <trkpt lat="43.54728" lon="5.87726">
        <ele>398.93</ele>
        <time>2021-11-28T10:07:33Z</time>
      </trkpt>
      <trkpt lat="43.5474" lon="5.87699">
        <ele>399.6</ele>
        <time>2021-11-28T10:07:38Z</time>
      </trkpt>
      <trkpt lat="43.54757" lon="5.87681">
        <ele>400.3</ele>
        <time>2021-11-28T10:07:42Z</time>
      </trkpt>
      <trkpt lat="43.54772" lon="5.87664">
        <ele>401.75</ele>
        <time>2021-11-28T10:07:46Z</time>
      </trkpt>
      <trkpt lat="43.54787" lon="5.8765">
        <ele>404.34</ele>
        <time>2021-11-28T10:07:51Z</time>
      </trkpt>
      <trkpt lat="43.54806" lon="5.87641">
        <ele>408.44</ele>
        <time>2021-11-28T10:07:59Z</time>
      </trkpt>
      <trkpt lat="43.54824" lon="5.87645">
        <ele>411.51</ele>
        <time>2021-11-28T10:08:04Z</time>
      </trkpt>
      <trkpt lat="43.54842" lon="5.87652">
        <ele>414.48</ele>
        <time>2021-11-28T10:08:09Z</time>
      </trkpt>
      <trkpt lat="43.54862" lon="5.87661">
        <ele>418.16</ele>
        <time>2021-11-28T10:08:16Z</time>
      </trkpt>
      <trkpt lat="43.54881" lon="5.87663">
        <ele>420.38</ele>
        <time>2021-11-28T10:08:22Z</time>
      </trkpt>
      <trkpt lat="43.54899" lon="5.87662">
        <ele>421.55</ele>
        <time>2021-11-28T10:08:28Z</time>
      </trkpt>
      <trkpt lat="43.54918" lon="5.87662">
        <ele>420.06</ele>
        <time>2021-11-28T10:08:34Z</time>
      </trkpt>
      <trkpt lat="43.54936" lon="5.87662">
        <ele>419.19</ele>
        <time>2021-11-28T10:08:40Z</time>
      </trkpt>
      <trkpt lat="43.54953" lon="5.87651">
        <ele>420.31</ele>
        <time>2021-11-28T10:08:47Z</time>
      </trkpt>
      <trkpt lat="43.54972" lon="5.87645">
        <ele>421.45</ele>
        <time>2021-11-28T10:08:54Z</time>
      </trkpt>
      <trkpt lat="43.54992" lon="5.87637">
        <ele>421.2</ele>
        <time>2021-11-28T10:09:01Z</time>
      </trkpt>
      <trkpt lat="43.5501" lon="5.87633">
        <ele>421.32</ele>
        <time>2021-11-28T10:09:07Z</time>
      </trkpt>
      <trkpt lat="43.5503" lon="5.87624">
        <ele>422.65</ele>
        <time>2021-11-28T10:09:13Z</time>
      </trkpt>
      <trkpt lat="43.55048" lon="5.87612">
        <ele>424.09</ele>
        <time>2021-11-28T10:09:19Z</time>
      </trkpt>
      <trkpt lat="43.55064" lon="5.87594">
        <ele>425.32</ele>
        <time>2021-11-28T10:09:24Z</time>
      </trkpt>
      <trkpt lat="43.5508" lon="5.87577">
        <ele>425.62</ele>
        <time>2021-11-28T10:09:29Z</time>
      </trkpt>
      <trkpt lat="43.55096" lon="5.8756">
        <ele>424.07</ele>
        <time>2021-11-28T10:09:34Z</time>
      </trkpt>
      <trkpt lat="43.55112" lon="5.87545">
        <ele>423.29</ele>
        <time>2021-11-28T10:09:38Z</time>
      </trkpt>
      <trkpt lat="43.55128" lon="5.87529">
        <ele>422.94</ele>
        <time>2021-11-28T10:09:42Z</time>
      </trkpt>
      <trkpt lat="43.55146" lon="5.87511">
        <ele>420.34</ele>
        <time>2021-11-28T10:09:47Z</time>
      </trkpt>
      <trkpt lat="43.5516" lon="5.87495">
        <ele>416.87</ele>
        <time>2021-11-28T10:09:51Z</time>
      </trkpt>
      <trkpt lat="43.55175" lon="5.87477">
        <ele>413.32</ele>
        <time>2021-11-28T10:09:55Z</time>
      </trkpt>
      <trkpt lat="43.55191" lon="5.87457">
        <ele>409</ele>
        <time>2021-11-28T10:09:59Z</time>
      </trkpt>
      <trkpt lat="43.5521" lon="5.87437">
        <ele>404.53</ele>
        <time>2021-11-28T10:10:03Z</time>
      </trkpt>
      <trkpt lat="43.55229" lon="5.87419">
        <ele>400.17</ele>
        <time>2021-11-28T10:10:07Z</time>
      </trkpt>
      <trkpt lat="43.55246" lon="5.87404">
        <ele>397.14</ele>
        <time>2021-11-28T10:10:11Z</time>
      </trkpt>
      <trkpt lat="43.55244" lon="5.87378">
        <ele>385.54</ele>
        <time>2021-11-28T10:10:39Z</time>
      </trkpt>
      <trkpt lat="43.55242" lon="5.87353">
        <ele>382.82</ele>
        <time>2021-11-28T10:10:52Z</time>
      </trkpt>
      <trkpt lat="43.55225" lon="5.87341">
        <ele>382.26</ele>
        <time>2021-11-28T10:11:03Z</time>
      </trkpt>
      <trkpt lat="43.55233" lon="5.87317">
        <ele>382.96</ele>
        <time>2021-11-28T10:11:23Z</time>
      </trkpt>
      <trkpt lat="43.55219" lon="5.87298">
        <ele>382.15</ele>
        <time>2021-11-28T10:11:34Z</time>
      </trkpt>
      <trkpt lat="43.55204" lon="5.87282">
        <ele>383.47</ele>
        <time>2021-11-28T10:11:43Z</time>
      </trkpt>
      <trkpt lat="43.55192" lon="5.87264">
        <ele>384.12</ele>
        <time>2021-11-28T10:11:52Z</time>
      </trkpt>
      <trkpt lat="43.55175" lon="5.8725">
        <ele>385.33</ele>
        <time>2021-11-28T10:12:03Z</time>
      </trkpt>
      <trkpt lat="43.55158" lon="5.87238">
        <ele>385.35</ele>
        <time>2021-11-28T10:12:12Z</time>
      </trkpt>
      <trkpt lat="43.55141" lon="5.87225">
        <ele>386.14</ele>
        <time>2021-11-28T10:12:22Z</time>
      </trkpt>
      <trkpt lat="43.55124" lon="5.87213">
        <ele>387.77</ele>
        <time>2021-11-28T10:12:31Z</time>
      </trkpt>
      <trkpt lat="43.55104" lon="5.87217">
        <ele>390.53</ele>
        <time>2021-11-28T10:12:41Z</time>
      </trkpt>
      <trkpt lat="43.55084" lon="5.87216">
        <ele>391.09</ele>
        <time>2021-11-28T10:12:50Z</time>
      </trkpt>
      <trkpt lat="43.55066" lon="5.87206">
        <ele>391.83</ele>
        <time>2021-11-28T10:12:58Z</time>
      </trkpt>
      <trkpt lat="43.55048" lon="5.87199">
        <ele>392.63</ele>
        <time>2021-11-28T10:13:07Z</time>
      </trkpt>
      <trkpt lat="43.55029" lon="5.87192">
        <ele>393.52</ele>
        <time>2021-11-28T10:13:15Z</time>
      </trkpt>
      <trkpt lat="43.5501" lon="5.87191">
        <ele>394.82</ele>
        <time>2021-11-28T10:13:23Z</time>
      </trkpt>
      <trkpt lat="43.54992" lon="5.87201">
        <ele>397.44</ele>
        <time>2021-11-28T10:13:33Z</time>
      </trkpt>
      <trkpt lat="43.54976" lon="5.87216">
        <ele>399.63</ele>
        <time>2021-11-28T10:13:42Z</time>
      </trkpt>
      <trkpt lat="43.54964" lon="5.87234">
        <ele>400.94</ele>
        <time>2021-11-28T10:13:51Z</time>
      </trkpt>
      <trkpt lat="43.54948" lon="5.87248">
        <ele>401.75</ele>
        <time>2021-11-28T10:13:59Z</time>
      </trkpt>
      <trkpt lat="43.54933" lon="5.87262">
        <ele>403.34</ele>
        <time>2021-11-28T10:14:09Z</time>
      </trkpt>
      <trkpt lat="43.54914" lon="5.87272">
        <ele>405.42</ele>
        <time>2021-11-28T10:14:20Z</time>
      </trkpt>
      <trkpt lat="43.54895" lon="5.87274">
        <ele>407.7</ele>
        <time>2021-11-28T10:14:30Z</time>
      </trkpt>
      <trkpt lat="43.54875" lon="5.87273">
        <ele>408.42</ele>
        <time>2021-11-28T10:14:38Z</time>
      </trkpt>
      <trkpt lat="43.54857" lon="5.8728">
        <ele>409.22</ele>
        <time>2021-11-28T10:14:47Z</time>
      </trkpt>
      <trkpt lat="43.54844" lon="5.87299">
        <ele>409.27</ele>
        <time>2021-11-28T10:14:56Z</time>
      </trkpt>
      <trkpt lat="43.54829" lon="5.87315">
        <ele>410.02</ele>
        <time>2021-11-28T10:15:05Z</time>
      </trkpt>
      <trkpt lat="43.54813" lon="5.87326">
        <ele>411.12</ele>
        <time>2021-11-28T10:15:13Z</time>
      </trkpt>
      <trkpt lat="43.54793" lon="5.87322">
        <ele>411.11</ele>
        <time>2021-11-28T10:15:21Z</time>
      </trkpt>
      <trkpt lat="43.54779" lon="5.87305">
        <ele>409.18</ele>
        <time>2021-11-28T10:15:28Z</time>
      </trkpt>
      <trkpt lat="43.54762" lon="5.8729">
        <ele>408.63</ele>
        <time>2021-11-28T10:15:36Z</time>
      </trkpt>
      <trkpt lat="43.54743" lon="5.87286">
        <ele>408.29</ele>
        <time>2021-11-28T10:15:43Z</time>
      </trkpt>
      <trkpt lat="43.54725" lon="5.87278">
        <ele>408.74</ele>
        <time>2021-11-28T10:15:51Z</time>
      </trkpt>
      <trkpt lat="43.54707" lon="5.87279">
        <ele>409.86</ele>
        <time>2021-11-28T10:16:01Z</time>
      </trkpt>
      <trkpt lat="43.54687" lon="5.87281">
        <ele>411.4</ele>
        <time>2021-11-28T10:16:11Z</time>
      </trkpt>
      <trkpt lat="43.54668" lon="5.87286">
        <ele>413.2</ele>
        <time>2021-11-28T10:16:21Z</time>
      </trkpt>
      <trkpt lat="43.5465" lon="5.8729">
        <ele>414.59</ele>
        <time>2021-11-28T10:16:32Z</time>
      </trkpt>
      <trkpt lat="43.5463" lon="5.87293">
        <ele>415.45</ele>
        <time>2021-11-28T10:16:42Z</time>
      </trkpt>
      <trkpt lat="43.54613" lon="5.87301">
        <ele>417.04</ele>
        <time>2021-11-28T10:16:52Z</time>
      </trkpt>
      <trkpt lat="43.54594" lon="5.87309">
        <ele>419.38</ele>
        <time>2021-11-28T10:17:02Z</time>
      </trkpt>
      <trkpt lat="43.54575" lon="5.87318">
        <ele>420.84</ele>
        <time>2021-11-28T10:17:11Z</time>
      </trkpt>
      <trkpt lat="43.54557" lon="5.87315">
        <ele>421.9</ele>
        <time>2021-11-28T10:17:21Z</time>
      </trkpt>
      <trkpt lat="43.54539" lon="5.87309">
        <ele>423.44</ele>
        <time>2021-11-28T10:17:32Z</time>
      </trkpt>
      <trkpt lat="43.5452" lon="5.8731">
        <ele>424.82</ele>
        <time>2021-11-28T10:17:42Z</time>
      </trkpt>
      <trkpt lat="43.54502" lon="5.87312">
        <ele>427.67</ele>
        <time>2021-11-28T10:17:52Z</time>
      </trkpt>
      <trkpt lat="43.54486" lon="5.87327">
        <ele>430.53</ele>
        <time>2021-11-28T10:18:03Z</time>
      </trkpt>
      <trkpt lat="43.54475" lon="5.87347">
        <ele>431.2</ele>
        <time>2021-11-28T10:18:11Z</time>
      </trkpt>
      <trkpt lat="43.54464" lon="5.87368">
        <ele>431.05</ele>
        <time>2021-11-28T10:18:20Z</time>
      </trkpt>
      <trkpt lat="43.54453" lon="5.87388">
        <ele>430.97</ele>
        <time>2021-11-28T10:18:30Z</time>
      </trkpt>
      <trkpt lat="43.54444" lon="5.87411">
        <ele>433.42</ele>
        <time>2021-11-28T10:18:42Z</time>
      </trkpt>
      <trkpt lat="43.54437" lon="5.87435">
        <ele>435.98</ele>
        <time>2021-11-28T10:18:54Z</time>
      </trkpt>
      <trkpt lat="43.54432" lon="5.8746">
        <ele>438.02</ele>
        <time>2021-11-28T10:19:05Z</time>
      </trkpt>
      <trkpt lat="43.54425" lon="5.87484">
        <ele>439.24</ele>
        <time>2021-11-28T10:19:15Z</time>
      </trkpt>
      <trkpt lat="43.54419" lon="5.87509">
        <ele>440.24</ele>
        <time>2021-11-28T10:19:25Z</time>
      </trkpt>
      <trkpt lat="43.54416" lon="5.87535">
        <ele>441.26</ele>
        <time>2021-11-28T10:19:34Z</time>
      </trkpt>
      <trkpt lat="43.54405" lon="5.87556">
        <ele>442.55</ele>
        <time>2021-11-28T10:19:54Z</time>
      </trkpt>
      <trkpt lat="43.54389" lon="5.8757">
        <ele>444.14</ele>
        <time>2021-11-28T10:20:04Z</time>
      </trkpt>
      <trkpt lat="43.54379" lon="5.87591">
        <ele>446.59</ele>
        <time>2021-11-28T10:20:13Z</time>
      </trkpt>
      <trkpt lat="43.54361" lon="5.87599">
        <ele>449.57</ele>
        <time>2021-11-28T10:20:23Z</time>
      </trkpt>
      <trkpt lat="43.54352" lon="5.87621">
        <ele>451.47</ele>
        <time>2021-11-28T10:20:31Z</time>
      </trkpt>
      <trkpt lat="43.54342" lon="5.87644">
        <ele>452.07</ele>
        <time>2021-11-28T10:20:39Z</time>
      </trkpt>
      <trkpt lat="43.54331" lon="5.87666">
        <ele>450.69</ele>
        <time>2021-11-28T10:20:47Z</time>
      </trkpt>
      <trkpt lat="43.54317" lon="5.87682">
        <ele>452.39</ele>
        <time>2021-11-28T10:20:55Z</time>
      </trkpt>
      <trkpt lat="43.54303" lon="5.877">
        <ele>452.53</ele>
        <time>2021-11-28T10:21:04Z</time>
      </trkpt>
      <trkpt lat="43.54288" lon="5.87715">
        <ele>453.3</ele>
        <time>2021-11-28T10:21:12Z</time>
      </trkpt>
      <trkpt lat="43.5427" lon="5.87718">
        <ele>453.93</ele>
        <time>2021-11-28T10:21:22Z</time>
      </trkpt>
      <trkpt lat="43.54256" lon="5.87702">
        <ele>454.18</ele>
        <time>2021-11-28T10:21:30Z</time>
      </trkpt>
      <trkpt lat="43.54237" lon="5.87693">
        <ele>454.37</ele>
        <time>2021-11-28T10:21:39Z</time>
      </trkpt>
      <trkpt lat="43.54219" lon="5.87702">
        <ele>455.05</ele>
        <time>2021-11-28T10:21:47Z</time>
      </trkpt>
      <trkpt lat="43.54201" lon="5.87714">
        <ele>456.1</ele>
        <time>2021-11-28T10:21:55Z</time>
      </trkpt>
      <trkpt lat="43.54185" lon="5.87729">
        <ele>457</ele>
        <time>2021-11-28T10:22:02Z</time>
      </trkpt>
      <trkpt lat="43.54169" lon="5.87744">
        <ele>456.59</ele>
        <time>2021-11-28T10:22:08Z</time>
      </trkpt>
      <trkpt lat="43.5415" lon="5.87751">
        <ele>457.01</ele>
        <time>2021-11-28T10:22:15Z</time>
      </trkpt>
      <trkpt lat="43.54133" lon="5.87759">
        <ele>458.24</ele>
        <time>2021-11-28T10:22:21Z</time>
      </trkpt>
      <trkpt lat="43.54115" lon="5.87763">
        <ele>459.2</ele>
        <time>2021-11-28T10:22:26Z</time>
      </trkpt>
      <trkpt lat="43.54096" lon="5.87761">
        <ele>459.05</ele>
        <time>2021-11-28T10:22:31Z</time>
      </trkpt>
      <trkpt lat="43.54087" lon="5.87738">
        <ele>458.41</ele>
        <time>2021-11-28T10:22:37Z</time>
      </trkpt>
      <trkpt lat="43.54082" lon="5.87714">
        <ele>457.5</ele>
        <time>2021-11-28T10:22:43Z</time>
      </trkpt>
      <trkpt lat="43.54081" lon="5.87689">
        <ele>455.81</ele>
        <time>2021-11-28T10:22:49Z</time>
      </trkpt>
      <trkpt lat="43.54083" lon="5.87662">
        <ele>454.65</ele>
        <time>2021-11-28T10:22:56Z</time>
      </trkpt>
      <trkpt lat="43.54069" lon="5.87646">
        <ele>454.34</ele>
        <time>2021-11-28T10:23:03Z</time>
      </trkpt>
      <trkpt lat="43.54064" lon="5.87622">
        <ele>454.35</ele>
        <time>2021-11-28T10:23:08Z</time>
      </trkpt>
      <trkpt lat="43.54065" lon="5.87596">
        <ele>453.92</ele>
        <time>2021-11-28T10:23:13Z</time>
      </trkpt>
      <trkpt lat="43.54072" lon="5.87572">
        <ele>453.59</ele>
        <time>2021-11-28T10:23:18Z</time>
      </trkpt>
      <trkpt lat="43.54081" lon="5.87551">
        <ele>453.99</ele>
        <time>2021-11-28T10:23:23Z</time>
      </trkpt>
      <trkpt lat="43.54083" lon="5.87525">
        <ele>453.87</ele>
        <time>2021-11-28T10:23:28Z</time>
      </trkpt>
      <trkpt lat="43.5409" lon="5.87498">
        <ele>454.45</ele>
        <time>2021-11-28T10:23:33Z</time>
      </trkpt>
      <trkpt lat="43.54092" lon="5.87473">
        <ele>453.77</ele>
        <time>2021-11-28T10:23:38Z</time>
      </trkpt>
      <trkpt lat="43.54095" lon="5.87447">
        <ele>452.54</ele>
        <time>2021-11-28T10:23:43Z</time>
      </trkpt>
      <trkpt lat="43.54101" lon="5.87422">
        <ele>451.97</ele>
        <time>2021-11-28T10:23:48Z</time>
      </trkpt>
      <trkpt lat="43.54105" lon="5.87397">
        <ele>451.57</ele>
        <time>2021-11-28T10:23:53Z</time>
      </trkpt>
      <trkpt lat="43.5409" lon="5.8738">
        <ele>451.11</ele>
        <time>2021-11-28T10:23:58Z</time>
      </trkpt>
      <trkpt lat="43.54072" lon="5.87365">
        <ele>449.87</ele>
        <time>2021-11-28T10:24:02Z</time>
      </trkpt>
      <trkpt lat="43.54055" lon="5.87349">
        <ele>447.76</ele>
        <time>2021-11-28T10:24:06Z</time>
      </trkpt>
      <trkpt lat="43.5404" lon="5.87334">
        <ele>446.82</ele>
        <time>2021-11-28T10:24:10Z</time>
      </trkpt>
      <trkpt lat="43.54022" lon="5.87324">
        <ele>445.84</ele>
        <time>2021-11-28T10:24:16Z</time>
      </trkpt>
      <trkpt lat="43.54005" lon="5.87314">
        <ele>445.44</ele>
        <time>2021-11-28T10:24:22Z</time>
      </trkpt>
      <trkpt lat="43.53985" lon="5.87319">
        <ele>447.14</ele>
        <time>2021-11-28T10:25:08Z</time>
      </trkpt>
      <trkpt lat="43.53973" lon="5.8734">
        <ele>447.4</ele>
        <time>2021-11-28T10:25:13Z</time>
      </trkpt>
      <trkpt lat="43.53955" lon="5.87356">
        <ele>447.75</ele>
        <time>2021-11-28T10:25:18Z</time>
      </trkpt>
      <trkpt lat="43.53938" lon="5.87367">
        <ele>448.25</ele>
        <time>2021-11-28T10:25:22Z</time>
      </trkpt>
      <trkpt lat="43.53919" lon="5.87369">
        <ele>449.54</ele>
        <time>2021-11-28T10:25:27Z</time>
      </trkpt>
      <trkpt lat="43.53899" lon="5.87369">
        <ele>450.15</ele>
        <time>2021-11-28T10:25:32Z</time>
      </trkpt>
      <trkpt lat="43.5388" lon="5.87368">
        <ele>450.64</ele>
        <time>2021-11-28T10:25:37Z</time>
      </trkpt>
      <trkpt lat="43.5386" lon="5.87366">
        <ele>450.75</ele>
        <time>2021-11-28T10:25:43Z</time>
      </trkpt>
      <trkpt lat="43.53842" lon="5.87364">
        <ele>451.84</ele>
        <time>2021-11-28T10:25:50Z</time>
      </trkpt>
      <trkpt lat="43.53823" lon="5.87359">
        <ele>452.89</ele>
        <time>2021-11-28T10:25:57Z</time>
      </trkpt>
      <trkpt lat="43.53805" lon="5.87346">
        <ele>453.54</ele>
        <time>2021-11-28T10:26:05Z</time>
      </trkpt>
      <trkpt lat="43.53788" lon="5.87331">
        <ele>452.86</ele>
        <time>2021-11-28T10:26:12Z</time>
      </trkpt>
      <trkpt lat="43.53775" lon="5.87313">
        <ele>453.52</ele>
        <time>2021-11-28T10:26:19Z</time>
      </trkpt>
      <trkpt lat="43.53757" lon="5.87299">
        <ele>454.7</ele>
        <time>2021-11-28T10:26:27Z</time>
      </trkpt>
      <trkpt lat="43.5374" lon="5.87289">
        <ele>455.25</ele>
        <time>2021-11-28T10:26:34Z</time>
      </trkpt>
      <trkpt lat="43.53723" lon="5.87277">
        <ele>455.76</ele>
        <time>2021-11-28T10:26:42Z</time>
      </trkpt>
      <trkpt lat="43.53705" lon="5.87273">
        <ele>455.97</ele>
        <time>2021-11-28T10:26:50Z</time>
      </trkpt>
      <trkpt lat="43.53687" lon="5.87276">
        <ele>456.43</ele>
        <time>2021-11-28T10:26:58Z</time>
      </trkpt>
      <trkpt lat="43.53668" lon="5.87283">
        <ele>457.34</ele>
        <time>2021-11-28T10:27:07Z</time>
      </trkpt>
      <trkpt lat="43.5365" lon="5.87288">
        <ele>458.32</ele>
        <time>2021-11-28T10:27:15Z</time>
      </trkpt>
      <trkpt lat="43.53632" lon="5.87293">
        <ele>459.52</ele>
        <time>2021-11-28T10:27:23Z</time>
      </trkpt>
      <trkpt lat="43.53612" lon="5.87291">
        <ele>460.57</ele>
        <time>2021-11-28T10:27:31Z</time>
      </trkpt>
      <trkpt lat="43.53593" lon="5.87287">
        <ele>460.65</ele>
        <time>2021-11-28T10:27:38Z</time>
      </trkpt>
      <trkpt lat="43.53573" lon="5.87284">
        <ele>461.9</ele>
        <time>2021-11-28T10:27:45Z</time>
      </trkpt>
      <trkpt lat="43.53554" lon="5.87282">
        <ele>462.23</ele>
        <time>2021-11-28T10:27:52Z</time>
      </trkpt>
      <trkpt lat="43.53535" lon="5.87272">
        <ele>460.82</ele>
        <time>2021-11-28T10:27:58Z</time>
      </trkpt>
      <trkpt lat="43.53528" lon="5.87248">
        <ele>460.12</ele>
        <time>2021-11-28T10:28:03Z</time>
      </trkpt>
      <trkpt lat="43.53526" lon="5.87219">
        <ele>459.2</ele>
        <time>2021-11-28T10:28:08Z</time>
      </trkpt>
      <trkpt lat="43.53523" lon="5.87194">
        <ele>458.53</ele>
        <time>2021-11-28T10:28:12Z</time>
      </trkpt>
      <trkpt lat="43.53513" lon="5.87172">
        <ele>457.27</ele>
        <time>2021-11-28T10:28:16Z</time>
      </trkpt>
      <trkpt lat="43.53503" lon="5.87147">
        <ele>456.9</ele>
        <time>2021-11-28T10:28:20Z</time>
      </trkpt>
      <trkpt lat="43.53485" lon="5.87135">
        <ele>456.81</ele>
        <time>2021-11-28T10:28:24Z</time>
      </trkpt>
      <trkpt lat="43.53461" lon="5.87133">
        <ele>457.37</ele>
        <time>2021-11-28T10:28:28Z</time>
      </trkpt>
      <trkpt lat="43.53444" lon="5.87124">
        <ele>456.56</ele>
        <time>2021-11-28T10:28:31Z</time>
      </trkpt>
      <trkpt lat="43.53426" lon="5.87114">
        <ele>455.45</ele>
        <time>2021-11-28T10:28:34Z</time>
      </trkpt>
      <trkpt lat="43.53405" lon="5.87114">
        <ele>454.43</ele>
        <time>2021-11-28T10:28:37Z</time>
      </trkpt>
      <trkpt lat="43.53386" lon="5.87115">
        <ele>453.61</ele>
        <time>2021-11-28T10:28:40Z</time>
      </trkpt>
      <trkpt lat="43.53368" lon="5.8712">
        <ele>452.92</ele>
        <time>2021-11-28T10:28:43Z</time>
      </trkpt>
      <trkpt lat="43.53345" lon="5.87126">
        <ele>452.19</ele>
        <time>2021-11-28T10:28:47Z</time>
      </trkpt>
      <trkpt lat="43.53325" lon="5.87129">
        <ele>451.28</ele>
        <time>2021-11-28T10:28:50Z</time>
      </trkpt>
      <trkpt lat="43.53305" lon="5.87133">
        <ele>450.15</ele>
        <time>2021-11-28T10:28:53Z</time>
      </trkpt>
      <trkpt lat="43.53285" lon="5.8714">
        <ele>450.18</ele>
        <time>2021-11-28T10:28:56Z</time>
      </trkpt>
      <trkpt lat="43.53267" lon="5.87147">
        <ele>449.59</ele>
        <time>2021-11-28T10:28:59Z</time>
      </trkpt>
      <trkpt lat="43.5325" lon="5.87162">
        <ele>448.94</ele>
        <time>2021-11-28T10:29:02Z</time>
      </trkpt>
      <trkpt lat="43.53232" lon="5.87178">
        <ele>448.38</ele>
        <time>2021-11-28T10:29:05Z</time>
      </trkpt>
      <trkpt lat="43.53216" lon="5.87194">
        <ele>448.09</ele>
        <time>2021-11-28T10:29:08Z</time>
      </trkpt>
      <trkpt lat="43.53201" lon="5.87211">
        <ele>447.6</ele>
        <time>2021-11-28T10:29:11Z</time>
      </trkpt>
      <trkpt lat="43.53183" lon="5.87229">
        <ele>447.83</ele>
        <time>2021-11-28T10:29:15Z</time>
      </trkpt>
      <trkpt lat="43.53168" lon="5.87246">
        <ele>447.75</ele>
        <time>2021-11-28T10:29:19Z</time>
      </trkpt>
      <trkpt lat="43.53153" lon="5.87262">
        <ele>446.97</ele>
        <time>2021-11-28T10:29:30Z</time>
      </trkpt>
      <trkpt lat="43.53152" lon="5.87289">
        <ele>446.44</ele>
        <time>2021-11-28T10:29:51Z</time>
      </trkpt>
      <trkpt lat="43.53163" lon="5.87309">
        <ele>448.85</ele>
        <time>2021-11-28T10:29:59Z</time>
      </trkpt>
      <trkpt lat="43.53172" lon="5.87331">
        <ele>443.93</ele>
        <time>2021-11-28T10:30:39Z</time>
      </trkpt>
      <trkpt lat="43.53172" lon="5.87357">
        <ele>443.83</ele>
        <time>2021-11-28T10:30:49Z</time>
      </trkpt>
      <trkpt lat="43.53162" lon="5.87378">
        <ele>440.29</ele>
        <time>2021-11-28T10:30:58Z</time>
      </trkpt>
      <trkpt lat="43.53151" lon="5.87399">
        <ele>435.47</ele>
        <time>2021-11-28T10:31:06Z</time>
      </trkpt>
      <trkpt lat="43.53148" lon="5.87427">
        <ele>431.09</ele>
        <time>2021-11-28T10:31:13Z</time>
      </trkpt>
      <trkpt lat="43.53155" lon="5.87453">
        <ele>428.27</ele>
        <time>2021-11-28T10:31:19Z</time>
      </trkpt>
      <trkpt lat="43.53165" lon="5.87476">
        <ele>426.17</ele>
        <time>2021-11-28T10:31:24Z</time>
      </trkpt>
      <trkpt lat="43.53177" lon="5.87498">
        <ele>423.09</ele>
        <time>2021-11-28T10:31:31Z</time>
      </trkpt>
      <trkpt lat="43.53191" lon="5.87515">
        <ele>421.08</ele>
        <time>2021-11-28T10:31:36Z</time>
      </trkpt>
      <trkpt lat="43.53208" lon="5.87533">
        <ele>418.97</ele>
        <time>2021-11-28T10:31:41Z</time>
      </trkpt>
      <trkpt lat="43.5322" lon="5.87556">
        <ele>417.37</ele>
        <time>2021-11-28T10:31:45Z</time>
      </trkpt>
      <trkpt lat="43.53232" lon="5.87575">
        <ele>415.67</ele>
        <time>2021-11-28T10:31:49Z</time>
      </trkpt>
      <trkpt lat="43.53246" lon="5.87594">
        <ele>414.23</ele>
        <time>2021-11-28T10:31:53Z</time>
      </trkpt>
      <trkpt lat="43.53257" lon="5.87616">
        <ele>412.07</ele>
        <time>2021-11-28T10:31:58Z</time>
      </trkpt>
      <trkpt lat="43.53268" lon="5.87636">
        <ele>411.28</ele>
        <time>2021-11-28T10:32:02Z</time>
      </trkpt>
      <trkpt lat="43.53279" lon="5.87661">
        <ele>410.32</ele>
        <time>2021-11-28T10:32:06Z</time>
      </trkpt>
      <trkpt lat="43.53291" lon="5.87681">
        <ele>408.95</ele>
        <time>2021-11-28T10:32:11Z</time>
      </trkpt>
      <trkpt lat="43.53303" lon="5.87702">
        <ele>407.94</ele>
        <time>2021-11-28T10:32:15Z</time>
      </trkpt>
      <trkpt lat="43.53316" lon="5.87723">
        <ele>407.3</ele>
        <time>2021-11-28T10:32:19Z</time>
      </trkpt>
      <trkpt lat="43.53332" lon="5.87745">
        <ele>406.42</ele>
        <time>2021-11-28T10:32:23Z</time>
      </trkpt>
      <trkpt lat="43.53348" lon="5.87764">
        <ele>405.62</ele>
        <time>2021-11-28T10:32:27Z</time>
      </trkpt>
      <trkpt lat="43.5336" lon="5.87785">
        <ele>405.02</ele>
        <time>2021-11-28T10:32:30Z</time>
      </trkpt>
      <trkpt lat="43.5337" lon="5.87806">
        <ele>404.14</ele>
        <time>2021-11-28T10:32:33Z</time>
      </trkpt>
      <trkpt lat="43.53376" lon="5.87832">
        <ele>403.08</ele>
        <time>2021-11-28T10:32:36Z</time>
      </trkpt>
      <trkpt lat="43.5338" lon="5.8786">
        <ele>401.77</ele>
        <time>2021-11-28T10:32:39Z</time>
      </trkpt>
      <trkpt lat="43.53383" lon="5.87885">
        <ele>400.47</ele>
        <time>2021-11-28T10:32:42Z</time>
      </trkpt>
      <trkpt lat="43.53385" lon="5.87913">
        <ele>398.6</ele>
        <time>2021-11-28T10:32:46Z</time>
      </trkpt>
      <trkpt lat="43.53385" lon="5.87945">
        <ele>396.39</ele>
        <time>2021-11-28T10:32:50Z</time>
      </trkpt>
      <trkpt lat="43.53383" lon="5.87976">
        <ele>394.21</ele>
        <time>2021-11-28T10:32:54Z</time>
      </trkpt>
      <trkpt lat="43.53382" lon="5.88001">
        <ele>392.87</ele>
        <time>2021-11-28T10:32:57Z</time>
      </trkpt>
      <trkpt lat="43.53379" lon="5.88027">
        <ele>391.85</ele>
        <time>2021-11-28T10:33:00Z</time>
      </trkpt>
      <trkpt lat="43.53376" lon="5.88054">
        <ele>390.99</ele>
        <time>2021-11-28T10:33:03Z</time>
      </trkpt>
      <trkpt lat="43.53373" lon="5.8808">
        <ele>389.98</ele>
        <time>2021-11-28T10:33:06Z</time>
      </trkpt>
      <trkpt lat="43.53366" lon="5.88107">
        <ele>388.67</ele>
        <time>2021-11-28T10:33:09Z</time>
      </trkpt>
      <trkpt lat="43.5336" lon="5.88132">
        <ele>387.29</ele>
        <time>2021-11-28T10:33:12Z</time>
      </trkpt>
      <trkpt lat="43.53357" lon="5.8816">
        <ele>385.97</ele>
        <time>2021-11-28T10:33:15Z</time>
      </trkpt>
      <trkpt lat="43.53358" lon="5.88188">
        <ele>384.43</ele>
        <time>2021-11-28T10:33:19Z</time>
      </trkpt>
      <trkpt lat="43.53362" lon="5.88218">
        <ele>383.52</ele>
        <time>2021-11-28T10:33:23Z</time>
      </trkpt>
      <trkpt lat="43.53363" lon="5.88244">
        <ele>382.81</ele>
        <time>2021-11-28T10:33:26Z</time>
      </trkpt>
      <trkpt lat="43.5336" lon="5.8827">
        <ele>381.77</ele>
        <time>2021-11-28T10:33:29Z</time>
      </trkpt>
      <trkpt lat="43.53357" lon="5.88299">
        <ele>379.69</ele>
        <time>2021-11-28T10:33:33Z</time>
      </trkpt>
      <trkpt lat="43.53353" lon="5.88331">
        <ele>377.95</ele>
        <time>2021-11-28T10:33:37Z</time>
      </trkpt>
      <trkpt lat="43.53351" lon="5.88358">
        <ele>376.79</ele>
        <time>2021-11-28T10:33:40Z</time>
      </trkpt>
      <trkpt lat="43.53347" lon="5.88385">
        <ele>375.75</ele>
        <time>2021-11-28T10:33:43Z</time>
      </trkpt>
      <trkpt lat="43.53348" lon="5.88418">
        <ele>374.72</ele>
        <time>2021-11-28T10:33:47Z</time>
      </trkpt>
      <trkpt lat="43.53345" lon="5.88443">
        <ele>373.83</ele>
        <time>2021-11-28T10:33:50Z</time>
      </trkpt>
      <trkpt lat="43.5334" lon="5.88469">
        <ele>372.75</ele>
        <time>2021-11-28T10:33:53Z</time>
      </trkpt>
      <trkpt lat="43.53332" lon="5.88492">
        <ele>371.39</ele>
        <time>2021-11-28T10:33:56Z</time>
      </trkpt>
      <trkpt lat="43.53317" lon="5.88513">
        <ele>370.44</ele>
        <time>2021-11-28T10:33:59Z</time>
      </trkpt>
      <trkpt lat="43.53307" lon="5.88537">
        <ele>369.15</ele>
        <time>2021-11-28T10:34:02Z</time>
      </trkpt>
      <trkpt lat="43.53296" lon="5.8856">
        <ele>367.87</ele>
        <time>2021-11-28T10:34:05Z</time>
      </trkpt>
      <trkpt lat="43.53284" lon="5.88582">
        <ele>366.84</ele>
        <time>2021-11-28T10:34:08Z</time>
      </trkpt>
      <trkpt lat="43.53283" lon="5.88614">
        <ele>366.32</ele>
        <time>2021-11-28T10:34:12Z</time>
      </trkpt>
      <trkpt lat="43.53284" lon="5.88639">
        <ele>365.74</ele>
        <time>2021-11-28T10:34:15Z</time>
      </trkpt>
      <trkpt lat="43.53291" lon="5.88665">
        <ele>363.38</ele>
        <time>2021-11-28T10:34:20Z</time>
      </trkpt>
      <trkpt lat="43.53285" lon="5.88691">
        <ele>358.86</ele>
        <time>2021-11-28T10:35:43Z</time>
      </trkpt>
      <trkpt lat="43.53284" lon="5.88717">
        <ele>359.44</ele>
        <time>2021-11-28T10:35:52Z</time>
      </trkpt>
      <trkpt lat="43.53272" lon="5.88737">
        <ele>360.38</ele>
        <time>2021-11-28T10:36:01Z</time>
      </trkpt>
      <trkpt lat="43.53255" lon="5.88747">
        <ele>361.74</ele>
        <time>2021-11-28T10:36:09Z</time>
      </trkpt>
      <trkpt lat="43.53243" lon="5.88767">
        <ele>363.41</ele>
        <time>2021-11-28T10:36:17Z</time>
      </trkpt>
      <trkpt lat="43.53255" lon="5.88788">
        <ele>367.03</ele>
        <time>2021-11-28T10:36:27Z</time>
      </trkpt>
      <trkpt lat="43.53272" lon="5.88803">
        <ele>371.23</ele>
        <time>2021-11-28T10:36:36Z</time>
      </trkpt>
      <trkpt lat="43.53291" lon="5.88812">
        <ele>372.74</ele>
        <time>2021-11-28T10:36:43Z</time>
      </trkpt>
      <trkpt lat="43.53308" lon="5.88825">
        <ele>372.57</ele>
        <time>2021-11-28T10:36:49Z</time>
      </trkpt>
      <trkpt lat="43.53322" lon="5.88846">
        <ele>370.7</ele>
        <time>2021-11-28T10:36:55Z</time>
      </trkpt>
      <trkpt lat="43.53331" lon="5.8887">
        <ele>365.16</ele>
        <time>2021-11-28T10:36:59Z</time>
      </trkpt>
      <trkpt lat="43.53338" lon="5.88897">
        <ele>360.69</ele>
        <time>2021-11-28T10:37:04Z</time>
      </trkpt>
      <trkpt lat="43.5334" lon="5.88923">
        <ele>360.31</ele>
        <time>2021-11-28T10:37:10Z</time>
      </trkpt>
      <trkpt lat="43.53339" lon="5.88948">
        <ele>360.46</ele>
        <time>2021-11-28T10:37:17Z</time>
      </trkpt>
      <trkpt lat="43.53334" lon="5.88973">
        <ele>360.3</ele>
        <time>2021-11-28T10:37:24Z</time>
      </trkpt>
      <trkpt lat="43.53329" lon="5.88999">
        <ele>360.62</ele>
        <time>2021-11-28T10:37:32Z</time>
      </trkpt>
      <trkpt lat="43.53316" lon="5.89017">
        <ele>361.32</ele>
        <time>2021-11-28T10:37:42Z</time>
      </trkpt>
      <trkpt lat="43.53297" lon="5.89017">
        <ele>363.12</ele>
        <time>2021-11-28T10:37:54Z</time>
      </trkpt>
      <trkpt lat="43.53282" lon="5.89002">
        <ele>365.62</ele>
        <time>2021-11-28T10:38:07Z</time>
      </trkpt>
      <trkpt lat="43.53264" lon="5.89013">
        <ele>368.42</ele>
        <time>2021-11-28T10:38:20Z</time>
      </trkpt>
      <trkpt lat="43.53246" lon="5.8902">
        <ele>370.84</ele>
        <time>2021-11-28T10:38:30Z</time>
      </trkpt>
      <trkpt lat="43.53232" lon="5.89035">
        <ele>370.49</ele>
        <time>2021-11-28T10:38:38Z</time>
      </trkpt>
      <trkpt lat="43.53218" lon="5.89056">
        <ele>370.69</ele>
        <time>2021-11-28T10:38:45Z</time>
      </trkpt>
      <trkpt lat="43.53211" lon="5.89079">
        <ele>370.03</ele>
        <time>2021-11-28T10:38:50Z</time>
      </trkpt>
      <trkpt lat="43.53195" lon="5.891">
        <ele>370.47</ele>
        <time>2021-11-28T10:38:56Z</time>
      </trkpt>
      <trkpt lat="43.53181" lon="5.89118">
        <ele>371.43</ele>
        <time>2021-11-28T10:39:01Z</time>
      </trkpt>
      <trkpt lat="43.53164" lon="5.8913">
        <ele>371.8</ele>
        <time>2021-11-28T10:39:07Z</time>
      </trkpt>
      <trkpt lat="43.53148" lon="5.89144">
        <ele>372.84</ele>
        <time>2021-11-28T10:39:13Z</time>
      </trkpt>
      <trkpt lat="43.53131" lon="5.89159">
        <ele>373.52</ele>
        <time>2021-11-28T10:39:19Z</time>
      </trkpt>
      <trkpt lat="43.53117" lon="5.89179">
        <ele>373.07</ele>
        <time>2021-11-28T10:39:26Z</time>
      </trkpt>
      <trkpt lat="43.53098" lon="5.8919">
        <ele>373.03</ele>
        <time>2021-11-28T10:39:31Z</time>
      </trkpt>
      <trkpt lat="43.5308" lon="5.89204">
        <ele>373.73</ele>
        <time>2021-11-28T10:39:37Z</time>
      </trkpt>
      <trkpt lat="43.53061" lon="5.89209">
        <ele>372.42</ele>
        <time>2021-11-28T10:39:43Z</time>
      </trkpt>
      <trkpt lat="43.53044" lon="5.8922">
        <ele>370.57</ele>
        <time>2021-11-28T10:39:47Z</time>
      </trkpt>
      <trkpt lat="43.53022" lon="5.89234">
        <ele>368.09</ele>
        <time>2021-11-28T10:39:51Z</time>
      </trkpt>
      <trkpt lat="43.53006" lon="5.8925">
        <ele>366.12</ele>
        <time>2021-11-28T10:39:54Z</time>
      </trkpt>
      <trkpt lat="43.52994" lon="5.89271">
        <ele>362.86</ele>
        <time>2021-11-28T10:39:58Z</time>
      </trkpt>
      <trkpt lat="43.52976" lon="5.89291">
        <ele>360.19</ele>
        <time>2021-11-28T10:40:03Z</time>
      </trkpt>
      <trkpt lat="43.52957" lon="5.89303">
        <ele>359.16</ele>
        <time>2021-11-28T10:40:07Z</time>
      </trkpt>
      <trkpt lat="43.52939" lon="5.89315">
        <ele>358.37</ele>
        <time>2021-11-28T10:40:11Z</time>
      </trkpt>
      <trkpt lat="43.52924" lon="5.89334">
        <ele>357.65</ele>
        <time>2021-11-28T10:40:15Z</time>
      </trkpt>
      <trkpt lat="43.52907" lon="5.89346">
        <ele>356.55</ele>
        <time>2021-11-28T10:40:18Z</time>
      </trkpt>
      <trkpt lat="43.52888" lon="5.89361">
        <ele>354.44</ele>
        <time>2021-11-28T10:40:23Z</time>
      </trkpt>
      <trkpt lat="43.52868" lon="5.89371">
        <ele>352.55</ele>
        <time>2021-11-28T10:40:27Z</time>
      </trkpt>
      <trkpt lat="43.52851" lon="5.89379">
        <ele>350.88</ele>
        <time>2021-11-28T10:40:30Z</time>
      </trkpt>
      <trkpt lat="43.52833" lon="5.89389">
        <ele>348.48</ele>
        <time>2021-11-28T10:40:33Z</time>
      </trkpt>
      <trkpt lat="43.52822" lon="5.89412">
        <ele>343.11</ele>
        <time>2021-11-28T10:40:40Z</time>
      </trkpt>
      <trkpt lat="43.52824" lon="5.89438">
        <ele>337.66</ele>
        <time>2021-11-28T10:40:50Z</time>
      </trkpt>
      <trkpt lat="43.5283" lon="5.89462">
        <ele>335.59</ele>
        <time>2021-11-28T10:40:58Z</time>
      </trkpt>
      <trkpt lat="43.5284" lon="5.89483">
        <ele>335.76</ele>
        <time>2021-11-28T10:41:06Z</time>
      </trkpt>
      <trkpt lat="43.52838" lon="5.89508">
        <ele>331.61</ele>
        <time>2021-11-28T10:41:15Z</time>
      </trkpt>
      <trkpt lat="43.52828" lon="5.8953">
        <ele>328.72</ele>
        <time>2021-11-28T10:41:23Z</time>
      </trkpt>
      <trkpt lat="43.52819" lon="5.89553">
        <ele>326.88</ele>
        <time>2021-11-28T10:41:31Z</time>
      </trkpt>
      <trkpt lat="43.528" lon="5.89563">
        <ele>326.61</ele>
        <time>2021-11-28T10:41:39Z</time>
      </trkpt>
      <trkpt lat="43.5278" lon="5.89568">
        <ele>327.04</ele>
        <time>2021-11-28T10:41:47Z</time>
      </trkpt>
      <trkpt lat="43.5276" lon="5.89572">
        <ele>327.16</ele>
        <time>2021-11-28T10:41:53Z</time>
      </trkpt>
      <trkpt lat="43.5274" lon="5.89573">
        <ele>328.04</ele>
        <time>2021-11-28T10:41:59Z</time>
      </trkpt>
      <trkpt lat="43.52722" lon="5.89573">
        <ele>328.9</ele>
        <time>2021-11-28T10:42:05Z</time>
      </trkpt>
      <trkpt lat="43.52702" lon="5.8957">
        <ele>330.46</ele>
        <time>2021-11-28T10:42:12Z</time>
      </trkpt>
      <trkpt lat="43.52683" lon="5.89568">
        <ele>331.34</ele>
        <time>2021-11-28T10:42:18Z</time>
      </trkpt>
      <trkpt lat="43.52665" lon="5.89569">
        <ele>332.77</ele>
        <time>2021-11-28T10:42:23Z</time>
      </trkpt>
      <trkpt lat="43.52646" lon="5.89569">
        <ele>335.27</ele>
        <time>2021-11-28T10:42:30Z</time>
      </trkpt>
      <trkpt lat="43.52628" lon="5.89567">
        <ele>338.19</ele>
        <time>2021-11-28T10:42:37Z</time>
      </trkpt>
      <trkpt lat="43.52609" lon="5.89566">
        <ele>339.52</ele>
        <time>2021-11-28T10:42:43Z</time>
      </trkpt>
      <trkpt lat="43.5259" lon="5.89563">
        <ele>343.05</ele>
        <time>2021-11-28T10:42:50Z</time>
      </trkpt>
      <trkpt lat="43.52571" lon="5.89564">
        <ele>346.52</ele>
        <time>2021-11-28T10:42:56Z</time>
      </trkpt>
      <trkpt lat="43.52551" lon="5.89564">
        <ele>350.03</ele>
        <time>2021-11-28T10:43:02Z</time>
      </trkpt>
      <trkpt lat="43.52532" lon="5.89562">
        <ele>352.8</ele>
        <time>2021-11-28T10:43:08Z</time>
      </trkpt>
      <trkpt lat="43.52512" lon="5.89562">
        <ele>355.05</ele>
        <time>2021-11-28T10:43:15Z</time>
      </trkpt>
      <trkpt lat="43.5249" lon="5.89563">
        <ele>357.37</ele>
        <time>2021-11-28T10:43:22Z</time>
      </trkpt>
      <trkpt lat="43.52471" lon="5.89564">
        <ele>358.86</ele>
        <time>2021-11-28T10:43:27Z</time>
      </trkpt>
      <trkpt lat="43.52452" lon="5.89564">
        <ele>359.63</ele>
        <time>2021-11-28T10:43:33Z</time>
      </trkpt>
      <trkpt lat="43.52433" lon="5.89561">
        <ele>357.7</ele>
        <time>2021-11-28T10:43:39Z</time>
      </trkpt>
      <trkpt lat="43.52414" lon="5.89561">
        <ele>357.15</ele>
        <time>2021-11-28T10:43:44Z</time>
      </trkpt>
      <trkpt lat="43.52394" lon="5.89559">
        <ele>357.31</ele>
        <time>2021-11-28T10:43:50Z</time>
      </trkpt>
      <trkpt lat="43.52376" lon="5.89557">
        <ele>360.38</ele>
        <time>2021-11-28T10:43:56Z</time>
      </trkpt>
      <trkpt lat="43.52358" lon="5.89562">
        <ele>363.89</ele>
        <time>2021-11-28T10:44:01Z</time>
      </trkpt>
      <trkpt lat="43.52336" lon="5.8956">
        <ele>366.11</ele>
        <time>2021-11-28T10:44:06Z</time>
      </trkpt>
      <trkpt lat="43.52317" lon="5.89557">
        <ele>368.34</ele>
        <time>2021-11-28T10:44:11Z</time>
      </trkpt>
      <trkpt lat="43.52298" lon="5.89561">
        <ele>369.76</ele>
        <time>2021-11-28T10:44:17Z</time>
      </trkpt>
      <trkpt lat="43.52279" lon="5.89563">
        <ele>371.53</ele>
        <time>2021-11-28T10:44:24Z</time>
      </trkpt>
      <trkpt lat="43.5226" lon="5.89568">
        <ele>373.41</ele>
        <time>2021-11-28T10:44:31Z</time>
      </trkpt>
      <trkpt lat="43.52241" lon="5.89579">
        <ele>374.45</ele>
        <time>2021-11-28T10:44:38Z</time>
      </trkpt>
      <trkpt lat="43.52224" lon="5.89588">
        <ele>376.2</ele>
        <time>2021-11-28T10:44:44Z</time>
      </trkpt>
      <trkpt lat="43.52205" lon="5.89596">
        <ele>378.14</ele>
        <time>2021-11-28T10:44:50Z</time>
      </trkpt>
      <trkpt lat="43.52185" lon="5.89604">
        <ele>378.6</ele>
        <time>2021-11-28T10:44:56Z</time>
      </trkpt>
      <trkpt lat="43.52167" lon="5.89611">
        <ele>376.79</ele>
        <time>2021-11-28T10:45:02Z</time>
      </trkpt>
      <trkpt lat="43.52149" lon="5.8962">
        <ele>379</ele>
        <time>2021-11-28T10:45:09Z</time>
      </trkpt>
      <trkpt lat="43.52131" lon="5.89625">
        <ele>379.19</ele>
        <time>2021-11-28T10:45:14Z</time>
      </trkpt>
      <trkpt lat="43.52111" lon="5.89633">
        <ele>377.84</ele>
        <time>2021-11-28T10:45:19Z</time>
      </trkpt>
      <trkpt lat="43.52093" lon="5.8964">
        <ele>372.76</ele>
        <time>2021-11-28T10:45:23Z</time>
      </trkpt>
      <trkpt lat="43.52073" lon="5.89648">
        <ele>369.75</ele>
        <time>2021-11-28T10:45:28Z</time>
      </trkpt>
      <trkpt lat="43.52054" lon="5.89652">
        <ele>368.77</ele>
        <time>2021-11-28T10:45:33Z</time>
      </trkpt>
      <trkpt lat="43.52033" lon="5.89659">
        <ele>367.16</ele>
        <time>2021-11-28T10:45:38Z</time>
      </trkpt>
      <trkpt lat="43.52014" lon="5.89664">
        <ele>367.76</ele>
        <time>2021-11-28T10:45:43Z</time>
      </trkpt>
      <trkpt lat="43.51995" lon="5.8967">
        <ele>366.46</ele>
        <time>2021-11-28T10:45:47Z</time>
      </trkpt>
      <trkpt lat="43.51975" lon="5.8968">
        <ele>366.64</ele>
        <time>2021-11-28T10:45:52Z</time>
      </trkpt>
      <trkpt lat="43.51956" lon="5.89687">
        <ele>365.36</ele>
        <time>2021-11-28T10:45:57Z</time>
      </trkpt>
      <trkpt lat="43.51936" lon="5.89692">
        <ele>365.72</ele>
        <time>2021-11-28T10:46:03Z</time>
      </trkpt>
      <trkpt lat="43.51915" lon="5.89696">
        <ele>366.26</ele>
        <time>2021-11-28T10:46:09Z</time>
      </trkpt>
      <trkpt lat="43.51897" lon="5.897">
        <ele>367.97</ele>
        <time>2021-11-28T10:46:15Z</time>
      </trkpt>
      <trkpt lat="43.51878" lon="5.89704">
        <ele>369.55</ele>
        <time>2021-11-28T10:46:21Z</time>
      </trkpt>
      <trkpt lat="43.51857" lon="5.89705">
        <ele>370.97</ele>
        <time>2021-11-28T10:46:27Z</time>
      </trkpt>
      <trkpt lat="43.51837" lon="5.89706">
        <ele>371.26</ele>
        <time>2021-11-28T10:46:32Z</time>
      </trkpt>
      <trkpt lat="43.51817" lon="5.89705">
        <ele>371.59</ele>
        <time>2021-11-28T10:46:38Z</time>
      </trkpt>
      <trkpt lat="43.51796" lon="5.89704">
        <ele>371.57</ele>
        <time>2021-11-28T10:46:45Z</time>
      </trkpt>
      <trkpt lat="43.51778" lon="5.89699">
        <ele>368.82</ele>
        <time>2021-11-28T10:46:50Z</time>
      </trkpt>
      <trkpt lat="43.5176" lon="5.89695">
        <ele>366.19</ele>
        <time>2021-11-28T10:46:56Z</time>
      </trkpt>
      <trkpt lat="43.51743" lon="5.89686">
        <ele>362.62</ele>
        <time>2021-11-28T10:47:01Z</time>
      </trkpt>
      <trkpt lat="43.51725" lon="5.8968">
        <ele>361.59</ele>
        <time>2021-11-28T10:47:08Z</time>
      </trkpt>
      <trkpt lat="43.51707" lon="5.89678">
        <ele>362.92</ele>
        <time>2021-11-28T10:47:15Z</time>
      </trkpt>
      <trkpt lat="43.51688" lon="5.89673">
        <ele>364.9</ele>
        <time>2021-11-28T10:47:23Z</time>
      </trkpt>
      <trkpt lat="43.51669" lon="5.89669">
        <ele>366.98</ele>
        <time>2021-11-28T10:47:30Z</time>
      </trkpt>
      <trkpt lat="43.5165" lon="5.89662">
        <ele>369.28</ele>
        <time>2021-11-28T10:47:35Z</time>
      </trkpt>
      <trkpt lat="43.51632" lon="5.89658">
        <ele>370.74</ele>
        <time>2021-11-28T10:47:42Z</time>
      </trkpt>
      <trkpt lat="43.51612" lon="5.8965">
        <ele>369.31</ele>
        <time>2021-11-28T10:47:48Z</time>
      </trkpt>
      <trkpt lat="43.51596" lon="5.89637">
        <ele>364.06</ele>
        <time>2021-11-28T10:47:54Z</time>
      </trkpt>
      <trkpt lat="43.51585" lon="5.89612">
        <ele>361.02</ele>
        <time>2021-11-28T10:48:03Z</time>
      </trkpt>
      <trkpt lat="43.51571" lon="5.89593">
        <ele>359.05</ele>
        <time>2021-11-28T10:48:10Z</time>
      </trkpt>
      <trkpt lat="43.51562" lon="5.89572">
        <ele>356.72</ele>
        <time>2021-11-28T10:48:18Z</time>
      </trkpt>
      <trkpt lat="43.51549" lon="5.89554">
        <ele>353.45</ele>
        <time>2021-11-28T10:48:25Z</time>
      </trkpt>
      <trkpt lat="43.51533" lon="5.8954">
        <ele>355.45</ele>
        <time>2021-11-28T10:48:35Z</time>
      </trkpt>
      <trkpt lat="43.51516" lon="5.8953">
        <ele>356.52</ele>
        <time>2021-11-28T10:48:42Z</time>
      </trkpt>
      <trkpt lat="43.51497" lon="5.8952">
        <ele>357.76</ele>
        <time>2021-11-28T10:48:51Z</time>
      </trkpt>
      <trkpt lat="43.51479" lon="5.89513">
        <ele>360.25</ele>
        <time>2021-11-28T10:48:59Z</time>
      </trkpt>
      <trkpt lat="43.5146" lon="5.89504">
        <ele>363.56</ele>
        <time>2021-11-28T10:49:08Z</time>
      </trkpt>
      <trkpt lat="43.51443" lon="5.89494">
        <ele>362.77</ele>
        <time>2021-11-28T10:49:16Z</time>
      </trkpt>
      <trkpt lat="43.51425" lon="5.89483">
        <ele>361.77</ele>
        <time>2021-11-28T10:49:25Z</time>
      </trkpt>
      <trkpt lat="43.51408" lon="5.89468">
        <ele>360.92</ele>
        <time>2021-11-28T10:49:35Z</time>
      </trkpt>
      <trkpt lat="43.51391" lon="5.89456">
        <ele>361.44</ele>
        <time>2021-11-28T10:49:44Z</time>
      </trkpt>
      <trkpt lat="43.51373" lon="5.89446">
        <ele>362.78</ele>
        <time>2021-11-28T10:49:53Z</time>
      </trkpt>
      <trkpt lat="43.51355" lon="5.89443">
        <ele>366.78</ele>
        <time>2021-11-28T10:50:03Z</time>
      </trkpt>
      <trkpt lat="43.51336" lon="5.89442">
        <ele>371.16</ele>
        <time>2021-11-28T10:50:11Z</time>
      </trkpt>
      <trkpt lat="43.51317" lon="5.8944">
        <ele>375.62</ele>
        <time>2021-11-28T10:50:19Z</time>
      </trkpt>
      <trkpt lat="43.513" lon="5.89429">
        <ele>378.8</ele>
        <time>2021-11-28T10:50:25Z</time>
      </trkpt>
      <trkpt lat="43.51285" lon="5.89414">
        <ele>378.87</ele>
        <time>2021-11-28T10:50:31Z</time>
      </trkpt>
      <trkpt lat="43.51267" lon="5.89394">
        <ele>377.38</ele>
        <time>2021-11-28T10:50:37Z</time>
      </trkpt>
      <trkpt lat="43.51253" lon="5.89376">
        <ele>379.45</ele>
        <time>2021-11-28T10:50:42Z</time>
      </trkpt>
      <trkpt lat="43.51236" lon="5.89366">
        <ele>380.46</ele>
        <time>2021-11-28T10:50:46Z</time>
      </trkpt>
      <trkpt lat="43.51221" lon="5.89349">
        <ele>379.09</ele>
        <time>2021-11-28T10:50:51Z</time>
      </trkpt>
      <trkpt lat="43.51206" lon="5.89334">
        <ele>377.89</ele>
        <time>2021-11-28T10:50:55Z</time>
      </trkpt>
      <trkpt lat="43.51187" lon="5.89321">
        <ele>377.55</ele>
        <time>2021-11-28T10:51:00Z</time>
      </trkpt>
      <trkpt lat="43.51166" lon="5.89314">
        <ele>377.67</ele>
        <time>2021-11-28T10:51:05Z</time>
      </trkpt>
      <trkpt lat="43.51148" lon="5.89305">
        <ele>377.94</ele>
        <time>2021-11-28T10:51:09Z</time>
      </trkpt>
      <trkpt lat="43.5113" lon="5.89296">
        <ele>377.87</ele>
        <time>2021-11-28T10:51:13Z</time>
      </trkpt>
      <trkpt lat="43.51111" lon="5.89289">
        <ele>377.75</ele>
        <time>2021-11-28T10:51:17Z</time>
      </trkpt>
      <trkpt lat="43.51092" lon="5.89283">
        <ele>377.69</ele>
        <time>2021-11-28T10:51:22Z</time>
      </trkpt>
      <trkpt lat="43.51073" lon="5.89285">
        <ele>378.3</ele>
        <time>2021-11-28T10:51:28Z</time>
      </trkpt>
      <trkpt lat="43.51054" lon="5.89281">
        <ele>378.94</ele>
        <time>2021-11-28T10:51:34Z</time>
      </trkpt>
      <trkpt lat="43.51031" lon="5.89271">
        <ele>379.82</ele>
        <time>2021-11-28T10:51:39Z</time>
      </trkpt>
      <trkpt lat="43.51012" lon="5.8926">
        <ele>381.51</ele>
        <time>2021-11-28T10:51:44Z</time>
      </trkpt>
      <trkpt lat="43.50994" lon="5.89251">
        <ele>382.23</ele>
        <time>2021-11-28T10:51:48Z</time>
      </trkpt>
      <trkpt lat="43.50975" lon="5.89241">
        <ele>382.65</ele>
        <time>2021-11-28T10:51:53Z</time>
      </trkpt>
      <trkpt lat="43.50957" lon="5.89235">
        <ele>382.93</ele>
        <time>2021-11-28T10:51:57Z</time>
      </trkpt>
      <trkpt lat="43.50938" lon="5.89227">
        <ele>383.74</ele>
        <time>2021-11-28T10:52:01Z</time>
      </trkpt>
      <trkpt lat="43.50918" lon="5.89217">
        <ele>382.61</ele>
        <time>2021-11-28T10:52:05Z</time>
      </trkpt>
      <trkpt lat="43.50896" lon="5.89208">
        <ele>380.22</ele>
        <time>2021-11-28T10:52:09Z</time>
      </trkpt>
      <trkpt lat="43.50877" lon="5.892">
        <ele>379.63</ele>
        <time>2021-11-28T10:52:15Z</time>
      </trkpt>
      <trkpt lat="43.50858" lon="5.89194">
        <ele>376.8</ele>
        <time>2021-11-28T10:52:21Z</time>
      </trkpt>
      <trkpt lat="43.50838" lon="5.89184">
        <ele>374.51</ele>
        <time>2021-11-28T10:52:27Z</time>
      </trkpt>
      <trkpt lat="43.50821" lon="5.89172">
        <ele>372.05</ele>
        <time>2021-11-28T10:52:31Z</time>
      </trkpt>
      <trkpt lat="43.50805" lon="5.89158">
        <ele>369.03</ele>
        <time>2021-11-28T10:52:36Z</time>
      </trkpt>
      <trkpt lat="43.50791" lon="5.89137">
        <ele>365.74</ele>
        <time>2021-11-28T10:52:44Z</time>
      </trkpt>
      <trkpt lat="43.50776" lon="5.89124">
        <ele>363.95</ele>
        <time>2021-11-28T10:52:49Z</time>
      </trkpt>
      <trkpt lat="43.50755" lon="5.89121">
        <ele>362.22</ele>
        <time>2021-11-28T10:52:56Z</time>
      </trkpt>
      <trkpt lat="43.50737" lon="5.89124">
        <ele>360.6</ele>
        <time>2021-11-28T10:53:02Z</time>
      </trkpt>
      <trkpt lat="43.50717" lon="5.89121">
        <ele>358.38</ele>
        <time>2021-11-28T10:53:09Z</time>
      </trkpt>
      <trkpt lat="43.50697" lon="5.89116">
        <ele>356.22</ele>
        <time>2021-11-28T10:53:17Z</time>
      </trkpt>
      <trkpt lat="43.50679" lon="5.89111">
        <ele>350.61</ele>
        <time>2021-11-28T10:53:23Z</time>
      </trkpt>
      <trkpt lat="43.5066" lon="5.89104">
        <ele>346.26</ele>
        <time>2021-11-28T10:53:30Z</time>
      </trkpt>
      <trkpt lat="43.50644" lon="5.89095">
        <ele>342.88</ele>
        <time>2021-11-28T10:53:35Z</time>
      </trkpt>
      <trkpt lat="43.50627" lon="5.89086">
        <ele>337.69</ele>
        <time>2021-11-28T10:53:41Z</time>
      </trkpt>
      <trkpt lat="43.50609" lon="5.89079">
        <ele>332.77</ele>
        <time>2021-11-28T10:53:46Z</time>
      </trkpt>
      <trkpt lat="43.50589" lon="5.89072">
        <ele>327.2</ele>
        <time>2021-11-28T10:53:54Z</time>
      </trkpt>
      <trkpt lat="43.5057" lon="5.89062">
        <ele>319.79</ele>
        <time>2021-11-28T10:53:59Z</time>
      </trkpt>
      <trkpt lat="43.50555" lon="5.89048">
        <ele>315.11</ele>
        <time>2021-11-28T10:54:04Z</time>
      </trkpt>
      <trkpt lat="43.50541" lon="5.89027">
        <ele>307.51</ele>
        <time>2021-11-28T10:54:11Z</time>
      </trkpt>
      <trkpt lat="43.50529" lon="5.89006">
        <ele>303.93</ele>
        <time>2021-11-28T10:54:18Z</time>
      </trkpt>
      <trkpt lat="43.50514" lon="5.88988">
        <ele>302.52</ele>
        <time>2021-11-28T10:54:23Z</time>
      </trkpt>
      <trkpt lat="43.50492" lon="5.88977">
        <ele>301.32</ele>
        <time>2021-11-28T10:54:28Z</time>
      </trkpt>
      <trkpt lat="43.50478" lon="5.88962">
        <ele>300.17</ele>
        <time>2021-11-28T10:54:32Z</time>
      </trkpt>
      <trkpt lat="43.50461" lon="5.88949">
        <ele>296.19</ele>
        <time>2021-11-28T10:54:37Z</time>
      </trkpt>
      <trkpt lat="43.50446" lon="5.88935">
        <ele>292.79</ele>
        <time>2021-11-28T10:54:42Z</time>
      </trkpt>
      <trkpt lat="43.50427" lon="5.88922">
        <ele>290.88</ele>
        <time>2021-11-28T10:54:46Z</time>
      </trkpt>
      <trkpt lat="43.50412" lon="5.88903">
        <ele>289.6</ele>
        <time>2021-11-28T10:54:50Z</time>
      </trkpt>
      <trkpt lat="43.50399" lon="5.88885">
        <ele>288.34</ele>
        <time>2021-11-28T10:54:55Z</time>
      </trkpt>
      <trkpt lat="43.50385" lon="5.88862">
        <ele>287.2</ele>
        <time>2021-11-28T10:55:01Z</time>
      </trkpt>
      <trkpt lat="43.50371" lon="5.88845">
        <ele>286.07</ele>
        <time>2021-11-28T10:55:05Z</time>
      </trkpt>
      <trkpt lat="43.50356" lon="5.88827">
        <ele>283.85</ele>
        <time>2021-11-28T10:55:12Z</time>
      </trkpt>
      <trkpt lat="43.50346" lon="5.88804">
        <ele>281.78</ele>
        <time>2021-11-28T10:55:25Z</time>
      </trkpt>
      <trkpt lat="43.50332" lon="5.88784">
        <ele>280.61</ele>
        <time>2021-11-28T10:55:34Z</time>
      </trkpt>
      <trkpt lat="43.50326" lon="5.88759">
        <ele>279.79</ele>
        <time>2021-11-28T10:55:52Z</time>
      </trkpt>
      <trkpt lat="43.50362" lon="5.88709">
        <ele>276.2</ele>
        <time>2021-11-28T10:55:54Z</time>
      </trkpt>
    </trkseg>
  </trk>
</gpx>